Darstellungsparameter: Aktuell verwendete Einstellungen:
Skalierung der Graphiken ... ?
xyx+y,   Skalierungsfaktor:      Skalierung: Modus: x, Faktor: 1
Darstellungszeitraum ... ?
Vom - - bis: - -   Zeitraum: 29.01.2010 - 28.07.2010
Min/Max/Avg-Anzeige ... ?
Zeige MMA aktuell
Zeige MMA Monat
Zeige MMA alles
Zeige --A aktuell
Zeige --A Monat
Zeige --A alles
Keine MMA-Anzeige
MMA:
Minimum Maximum Average (ber die Originaldaten)
MMA-Basis: 29.01.2010 - 28.07.2010
Quicknavigation für Darstellung... ?
Tage:      1T, 2T, 3T, 5T -1T -2T -3T -5T +1T +2T +3T +5T
Wochen: 1W, 2W, 3W -1W -2W -3W +1W +2W +3W
Monate: 1M, 3M, 6M -1M -3M -6M +1M +3M +6M
Jahre:    1J, 3J, 5J, 10J -1J -3J -5J -10J +1J +3J +5J +10J
Nutze für die Darstellung ... ?
Originaldaten oder Mittelwerte auf ...
Stundenbasis Tagesbasis Wochenbasis
Monatsbasis Jahresbasis      Datenbasis: Original-Daten
Darstellen als:
Statistik (Auto) Statistik J:M      Darstellung:
Zur Graphik,    zurück zur Übersicht aller Sensoren.
 
Tabellarische Datenbersicht: ?
 
Sensor: Nr:Datum:Temp:Abs-Feuchte:Windchill:Wind:
Aussen-T/F 1 29-01-2010 00:06:02 1.4 C 4.27 g/m*3 1.4 C 0 km/h
2 29-01-2010 00:18:02 1.4 C 4.27 g/m*3 1.4 C 0 km/h
3 29-01-2010 00:30:02 1.5 C 4.3 g/m*3 1.5 C 0 km/h
4 29-01-2010 00:42:02 1.5 C 4.24 g/m*3 1.5 C 0 km/h
5 29-01-2010 00:54:02 1.5 C 4.3 g/m*3 1.5 C 0 km/h
6 29-01-2010 01:06:02 1.5 C 4.3 g/m*3 1.5 C 0 km/h
7 29-01-2010 01:18:02 1.4 C 4.32 g/m*3 1.4 C 0 km/h
8 29-01-2010 01:30:02 1.4 C 4.32 g/m*3 1.4 C 0 km/h
9 29-01-2010 01:42:02 1.4 C 4.37 g/m*3 1.4 C 0 km/h
10 29-01-2010 01:54:02 1.3 C 4.34 g/m*3 1.3 C 0 km/h
11 29-01-2010 02:06:02 1.1 C 4.39 g/m*3 1.1 C 0 km/h
12 29-01-2010 02:18:02 1 C 4.41 g/m*3 1 C 0 km/h
13 29-01-2010 02:30:03 1.1 C 4.49 g/m*3 1.1 C 0 km/h
14 29-01-2010 02:42:03 1.1 C 4.49 g/m*3 1.1 C 0 km/h
15 29-01-2010 02:54:03 1.1 C 4.55 g/m*3 1.1 C 0 km/h
16 29-01-2010 03:06:03 1.3 C 4.56 g/m*3 1.3 C 0 km/h
17 29-01-2010 03:18:03 1.3 C 4.56 g/m*3 1.3 C 0 km/h
18 29-01-2010 03:30:03 1.3 C 4.56 g/m*3 1.3 C 0 km/h
19 29-01-2010 03:42:03 1.3 C 4.56 g/m*3 1.3 C 0 km/h
20 29-01-2010 03:54:03 1.3 C 4.56 g/m*3 1.3 C 0 km/h
21 29-01-2010 04:06:03 1.3 C 4.56 g/m*3 1.3 C 0 km/h
22 29-01-2010 04:18:03 1.4 C 4.59 g/m*3 1.4 C 0 km/h
23 29-01-2010 04:30:03 1.3 C 4.56 g/m*3 1.3 C 0 km/h
24 29-01-2010 04:42:03 1.4 C 4.59 g/m*3 1.4 C 0 km/h
25 29-01-2010 04:54:03 1.3 C 4.56 g/m*3 1.3 C 0 km/h
Sensor: Nr:Datum:Temp:Abs-Feuchte:Windchill:Wind:
Aussen-T/F 26 29-01-2010 05:06:03 1.2 C 4.58 g/m*3 1.2 C 0 km/h
27 29-01-2010 05:18:03 1 C 4.57 g/m*3 1 C 0 km/h
28 29-01-2010 05:30:03 1 C 4.62 g/m*3 1 C 0 km/h
29 29-01-2010 05:42:03 0.9 C 4.64 g/m*3 0.9 C 0 km/h
30 29-01-2010 05:54:03 0.9 C 4.69 g/m*3 0.9 C 0 km/h
31 29-01-2010 06:06:03 0.9 C 4.69 g/m*3 0.9 C 0 km/h
32 29-01-2010 06:18:03 0.9 C 4.74 g/m*3 0.9 C 0 km/h
33 29-01-2010 06:30:03 1 C 4.72 g/m*3 1 C 0 km/h
34 29-01-2010 06:42:04 1 C 4.67 g/m*3 1 C 0 km/h
35 29-01-2010 06:54:04 1 C 4.67 g/m*3 1 C 0 km/h
36 29-01-2010 07:06:01 1 C 4.62 g/m*3 1 C 0 km/h
37 29-01-2010 07:18:02 1 C 4.62 g/m*3 1 C 0 km/h
38 29-01-2010 07:30:02 1 C 4.57 g/m*3 1 C 0 km/h
39 29-01-2010 07:42:01 1 C 4.57 g/m*3 1 C 0 km/h
40 29-01-2010 07:54:02 1.2 C 4.58 g/m*3 1.2 C 0 km/h
41 29-01-2010 08:06:01 1.4 C 4.53 g/m*3 1.4 C 0 km/h
42 29-01-2010 08:18:01 1.5 C 4.46 g/m*3 1.5 C 0 km/h
43 29-01-2010 08:30:01 1.6 C 4.43 g/m*3 1.6 C 0 km/h
44 29-01-2010 08:42:01 1.6 C 4.38 g/m*3 1.6 C 0 km/h
45 29-01-2010 08:54:02 1.5 C 4.4 g/m*3 1.5 C 0 km/h
46 29-01-2010 09:06:01 1.5 C 4.4 g/m*3 1.5 C 0 km/h
47 29-01-2010 09:18:01 1.6 C 4.43 g/m*3 1.6 C 0 km/h
48 29-01-2010 09:30:01 1.7 C 4.46 g/m*3 1.7 C 0 km/h
49 29-01-2010 09:42:02 1.8 C 4.44 g/m*3 1.8 C 0 km/h
50 29-01-2010 09:54:01 1.9 C 4.42 g/m*3 1.9 C 0 km/h
Sensor: Nr:Datum:Temp:Abs-Feuchte:Windchill:Wind:
Aussen-T/F 51 29-01-2010 10:06:02 2.1 C 4.36 g/m*3 2.1 C 0 km/h
52 29-01-2010 10:18:01 2.1 C 4.36 g/m*3 2.1 C 0 km/h
53 29-01-2010 10:30:01 2.2 C 4.39 g/m*3 2.2 C 0 km/h
54 29-01-2010 10:42:01 2.3 C 4.42 g/m*3 2.3 C 0 km/h
55 29-01-2010 10:54:01 2.4 C 4.4 g/m*3 2.4 C 0 km/h
56 29-01-2010 11:06:01 2.5 C 4.37 g/m*3 2.5 C 0 km/h
57 29-01-2010 11:18:01 2.5 C 4.37 g/m*3 2.5 C 0 km/h
58 29-01-2010 11:30:01 2.6 C 4.4 g/m*3 2.6 C 0 km/h
59 29-01-2010 11:42:01 2.7 C 4.37 g/m*3 2.7 C 0 km/h
60 29-01-2010 11:54:01 2.7 C 4.31 g/m*3 2.7 C 0 km/h
61 29-01-2010 12:06:01 2.8 C 4.34 g/m*3 2.8 C 0 km/h
62 29-01-2010 12:18:02 2.8 C 4.34 g/m*3 2.8 C 0 km/h
63 29-01-2010 12:30:02 2.8 C 4.34 g/m*3 2.8 C 0 km/h
64 29-01-2010 12:42:01 2.8 C 4.34 g/m*3 2.8 C 0 km/h
65 29-01-2010 12:54:02 2.8 C 4.4 g/m*3 2.8 C 0 km/h
66 29-01-2010 13:06:01 2.7 C 4.37 g/m*3 2.7 C 0 km/h
67 29-01-2010 13:18:02 2.7 C 4.43 g/m*3 2.7 C 0 km/h
68 29-01-2010 13:30:02 2.7 C 4.43 g/m*3 2.7 C 0 km/h
69 29-01-2010 13:42:01 2.7 C 4.43 g/m*3 2.7 C 0 km/h
70 29-01-2010 13:54:02 2.5 C 4.43 g/m*3 2.5 C 0 km/h
71 29-01-2010 14:06:01 2.4 C 4.51 g/m*3 2.4 C 0 km/h
72 29-01-2010 14:18:01 2.2 C 4.56 g/m*3 2.2 C 0 km/h
73 29-01-2010 14:30:01 2.2 C 4.56 g/m*3 2.2 C 0 km/h
74 29-01-2010 14:42:02 2.2 C 4.56 g/m*3 2.2 C 0 km/h
75 29-01-2010 14:54:01 2.2 C 4.51 g/m*3 2.2 C 0 km/h
Sensor: Nr:Datum:Temp:Abs-Feuchte:Windchill:Wind:
Aussen-T/F 76 29-01-2010 15:06:01 2.1 C 4.53 g/m*3 2.1 C 0 km/h
77 29-01-2010 15:18:01 2.1 C 4.53 g/m*3 2.1 C 0 km/h
78 29-01-2010 15:30:01 2 C 4.56 g/m*3 2 C 0 km/h
79 29-01-2010 15:42:02 2 C 4.56 g/m*3 2 C 0 km/h
80 29-01-2010 15:54:01 2.1 C 4.53 g/m*3 2.1 C 0 km/h
81 29-01-2010 16:06:01 2.1 C 4.53 g/m*3 2.1 C 0 km/h
82 29-01-2010 16:18:01 2 C 4.5 g/m*3 2 C 0 km/h
83 29-01-2010 16:30:01 1.8 C 4.55 g/m*3 1.8 C 0 km/h
84 29-01-2010 16:42:02 1.6 C 4.54 g/m*3 1.6 C 0 km/h
85 29-01-2010 16:54:01 1.6 C 4.65 g/m*3 1.6 C 0 km/h
86 29-01-2010 17:06:02 1.5 C 4.67 g/m*3 1.5 C 0 km/h
87 29-01-2010 17:18:01 1.4 C 4.69 g/m*3 1.4 C 0 km/h
88 29-01-2010 17:30:01 1.3 C 4.72 g/m*3 1.3 C 0 km/h
89 29-01-2010 17:42:02 1.3 C 4.72 g/m*3 1.3 C 0 km/h
90 29-01-2010 17:54:02 1.2 C 4.74 g/m*3 1.2 C 0 km/h
91 29-01-2010 18:06:01 1 C 4.67 g/m*3 1 C 0 km/h
92 29-01-2010 18:18:01 0.9 C 4.69 g/m*3 0.9 C 0 km/h
93 29-01-2010 18:30:01 0.8 C 4.71 g/m*3 0.8 C 0 km/h
94 29-01-2010 18:42:01 0.8 C 4.71 g/m*3 0.8 C 0 km/h
95 29-01-2010 18:54:01 0.7 C 4.73 g/m*3 0.7 C 0 km/h
96 29-01-2010 19:06:01 0.7 C 4.78 g/m*3 0.7 C 0 km/h
97 29-01-2010 19:18:01 0.8 C 4.81 g/m*3 0.8 C 0 km/h
98 29-01-2010 19:30:01 0.8 C 4.81 g/m*3 0.8 C 0 km/h
99 29-01-2010 19:42:02 0.8 C 4.81 g/m*3 0.8 C 0 km/h
100 29-01-2010 19:54:01 0.8 C 4.81 g/m*3 0.8 C 0 km/h
Sensor: Nr:Datum:Temp:Abs-Feuchte:Windchill:Wind:
Aussen-T/F 101 29-01-2010 20:06:02 0.8 C 4.81 g/m*3 0.8 C 0 km/h
102 29-01-2010 20:18:01 0.8 C 4.76 g/m*3 0.8 C 0 km/h
103 29-01-2010 20:30:01 0.7 C 4.73 g/m*3 0.7 C 0 km/h
104 29-01-2010 20:42:01 0.7 C 4.68 g/m*3 0.7 C 0 km/h
105 29-01-2010 20:54:01 0.7 C 4.68 g/m*3 0.7 C 0 km/h
106 29-01-2010 21:06:01 0.6 C 4.6 g/m*3 0.6 C 0 km/h
107 29-01-2010 21:18:01 0.5 C 4.51 g/m*3 0.5 C 0 km/h
108 29-01-2010 21:30:01 0.4 C 4.48 g/m*3 0.4 C 0 km/h
109 29-01-2010 21:42:01 0.5 C 4.56 g/m*3 0.5 C 0 km/h
110 29-01-2010 21:54:01 0.4 C 4.48 g/m*3 0.4 C 0 km/h
111 29-01-2010 22:06:01 0.3 C 4.35 g/m*3 0.3 C 0 km/h
112 29-01-2010 22:18:01 0.1 C 4.2 g/m*3 0.1 C 0 km/h
113 29-01-2010 22:30:01 0 C 4.12 g/m*3 0 C 0 km/h
114 29-01-2010 22:42:01 0.1 C 4.1 g/m*3 0.1 C 0 km/h
115 29-01-2010 22:54:01 0.2 C 4.13 g/m*3 0.2 C 0 km/h
116 29-01-2010 23:06:01 0.3 C 4.16 g/m*3 0.3 C 0 km/h
117 29-01-2010 23:20:12 0 C 4.12 g/m*3 0 C 0 km/h
118 29-01-2010 23:32:12 -0.1 C 4.09 g/m*3 -0.1 C 0 km/h
119 29-01-2010 23:44:12 -0.5 C 3.98 g/m*3 -0.5 C 0 km/h
120 29-01-2010 23:56:12 -0.4 C 4.01 g/m*3 -0.4 C 0 km/h
121 30-01-2010 00:08:12 -0.5 C 3.93 g/m*3 -0.5 C 0 km/h
122 30-01-2010 00:20:12 -0.3 C 3.94 g/m*3 -0.3 C 0 km/h
123 30-01-2010 00:32:12 -0.3 C 3.84 g/m*3 -0.3 C 0 km/h
124 30-01-2010 00:44:12 -0.1 C 3.8 g/m*3 -0.1 C 0 km/h
125 30-01-2010 00:56:12 0.1 C 3.81 g/m*3 0.1 C 0 km/h
Sensor: Nr:Datum:Temp:Abs-Feuchte:Windchill:Wind:
Aussen-T/F 126 30-01-2010 01:08:12 -0.1 C 3.8 g/m*3 -0.1 C 0 km/h
127 30-01-2010 01:20:12 -0.1 C 3.8 g/m*3 -0.1 C 0 km/h
128 30-01-2010 01:32:12 -0.1 C 3.8 g/m*3 -0.1 C 0 km/h
129 30-01-2010 01:44:12 -0.4 C 3.77 g/m*3 -0.4 C 0 km/h
130 30-01-2010 01:56:12 -0.4 C 3.82 g/m*3 -0.4 C 0 km/h
131 30-01-2010 02:08:12 -0.6 C 3.81 g/m*3 -0.6 C 0 km/h
132 30-01-2010 02:20:12 -0.9 C 3.78 g/m*3 -0.9 C 0 km/h
133 30-01-2010 02:32:12 -0.9 C 3.82 g/m*3 -0.9 C 0 km/h
134 30-01-2010 02:44:12 -0.9 C 3.82 g/m*3 -0.9 C 0 km/h
135 30-01-2010 02:56:12 -1 C 3.8 g/m*3 -1 C 0 km/h
136 30-01-2010 03:08:12 -0.8 C 3.85 g/m*3 -0.8 C 0 km/h
137 30-01-2010 03:20:12 -0.9 C 3.78 g/m*3 -0.9 C 0 km/h
138 30-01-2010 03:32:12 -1.3 C 3.67 g/m*3 -1.3 C 0 km/h
139 30-01-2010 03:44:13 -1.5 C 3.62 g/m*3 -1.5 C 0 km/h
140 30-01-2010 03:56:13 -1.5 C 3.67 g/m*3 -1.5 C 0 km/h
141 30-01-2010 04:08:13 -1.3 C 3.67 g/m*3 -1.3 C 0 km/h
142 30-01-2010 04:20:13 -1.5 C 3.54 g/m*3 -1.5 C 0 km/h
143 30-01-2010 04:32:13 -1.5 C 3.49 g/m*3 -1.5 C 0 km/h
144 30-01-2010 04:44:13 -1.4 C 3.52 g/m*3 -1.4 C 0 km/h
145 30-01-2010 04:56:13 -1.4 C 3.47 g/m*3 -1.4 C 0 km/h
146 30-01-2010 05:08:13 -1.4 C 3.47 g/m*3 -1.4 C 0 km/h
147 30-01-2010 05:20:13 -1.2 C 3.52 g/m*3 -1.2 C 0 km/h
148 30-01-2010 05:32:13 -0.9 C 3.51 g/m*3 -0.9 C 0 km/h
149 30-01-2010 05:44:13 -0.9 C 3.46 g/m*3 -0.9 C 0 km/h
150 30-01-2010 05:56:13 -0.5 C 3.46 g/m*3 -0.5 C 0 km/h
Sensor: Nr:Datum:Temp:Abs-Feuchte:Windchill:Wind:
Aussen-T/F 151 30-01-2010 06:08:13 -0.4 C 3.44 g/m*3 -0.4 C 0 km/h
152 30-01-2010 06:20:13 -0.3 C 3.42 g/m*3 -0.3 C 0 km/h
153 30-01-2010 06:32:13 -0.1 C 3.51 g/m*3 -0.1 C 0 km/h
154 30-01-2010 06:44:13 -0.1 C 3.51 g/m*3 -0.1 C 0 km/h
155 30-01-2010 06:56:13 0.1 C 3.42 g/m*3 0.1 C 0 km/h
156 30-01-2010 07:08:13 -0.1 C 3.42 g/m*3 -0.1 C 0 km/h
157 30-01-2010 07:20:13 -0.1 C 3.42 g/m*3 -0.1 C 0 km/h
158 30-01-2010 07:32:13 -0.1 C 3.42 g/m*3 -0.1 C 0 km/h
159 30-01-2010 07:44:13 -0.2 C 3.44 g/m*3 -0.2 C 0 km/h
160 30-01-2010 07:56:02 -0.2 C 3.49 g/m*3 -0.2 C 0 km/h
161 30-01-2010 08:08:02 -0.2 C 3.49 g/m*3 -0.2 C 0 km/h
162 30-01-2010 08:20:02 -0.1 C 3.51 g/m*3 -0.1 C 0 km/h
163 30-01-2010 08:32:02 -0.2 C 3.68 g/m*3 -0.2 C 0 km/h
164 30-01-2010 08:44:02 -0.3 C 3.7 g/m*3 -0.3 C 0 km/h
165 30-01-2010 08:56:03 -0.4 C 3.72 g/m*3 -0.4 C 0 km/h
166 30-01-2010 09:08:02 -0.4 C 3.77 g/m*3 -0.4 C 0 km/h
167 30-01-2010 09:20:02 -0.4 C 3.72 g/m*3 -0.4 C 0 km/h
168 30-01-2010 09:32:03 -0.3 C 3.7 g/m*3 -0.3 C 0 km/h
169 30-01-2010 09:44:03 0 C 3.68 g/m*3 0 C 0 km/h
170 30-01-2010 09:56:02 0.1 C 3.61 g/m*3 0.1 C 0 km/h
171 30-01-2010 10:08:02 0 C 3.59 g/m*3 0 C 0 km/h
172 30-01-2010 10:20:02 0 C 3.63 g/m*3 0 C 0 km/h
173 30-01-2010 10:32:02 -0.1 C 3.61 g/m*3 -0.1 C 0 km/h
174 30-01-2010 10:44:02 -0.1 C 3.75 g/m*3 -0.1 C 0 km/h
175 30-01-2010 10:56:02 -0.1 C 3.9 g/m*3 -0.1 C 0 km/h
Sensor: Nr:Datum:Temp:Abs-Feuchte:Windchill:Wind:
Aussen-T/F 176 30-01-2010 11:08:02 -0.4 C 3.91 g/m*3 -0.4 C 0 km/h
177 30-01-2010 11:20:02 -0.5 C 3.93 g/m*3 -0.5 C 0 km/h
178 30-01-2010 11:32:02 -0.3 C 4.03 g/m*3 -0.3 C 0 km/h
179 30-01-2010 11:44:02 0 C 4.02 g/m*3 0 C 0 km/h
180 30-01-2010 11:56:01 0.4 C 3.98 g/m*3 0.4 C 0 km/h
181 30-01-2010 12:08:02 0.2 C 3.88 g/m*3 0.2 C 0 km/h
182 30-01-2010 12:20:02 -0.2 C 3.92 g/m*3 -0.2 C 0 km/h
183 30-01-2010 12:32:01 -0.4 C 4.01 g/m*3 -0.4 C 0 km/h
184 30-01-2010 12:44:01 -0.3 C 4.08 g/m*3 -0.3 C 0 km/h
185 30-01-2010 12:56:01 -0.2 C 4.01 g/m*3 -0.2 C 0 km/h
186 30-01-2010 13:08:01 0 C 3.88 g/m*3 0 C 0 km/h
187 30-01-2010 13:20:02 0 C 3.63 g/m*3 0 C 0 km/h
188 30-01-2010 13:32:01 -0.2 C 3.49 g/m*3 -0.2 C 0 km/h
189 30-01-2010 13:44:01 0.3 C 3.56 g/m*3 0.3 C 0 km/h
190 30-01-2010 13:56:02 0.5 C 3.46 g/m*3 0.5 C 0 km/h
191 30-01-2010 14:08:01 0.6 C 3.48 g/m*3 0.6 C 0 km/h
192 30-01-2010 14:20:02 0.5 C 3.41 g/m*3 0.5 C 0 km/h
193 30-01-2010 14:32:01 0.4 C 3.44 g/m*3 0.4 C 0 km/h
194 30-01-2010 14:44:01 0.3 C 3.51 g/m*3 0.3 C 0 km/h
195 30-01-2010 14:56:03 -1.1 C 3.41 g/m*3 -1.1 C 0 km/h
196 30-01-2010 15:08:02 -1.3 C 3.5 g/m*3 -1.3 C 0 km/h
197 30-01-2010 15:20:02 -1.1 C 3.59 g/m*3 -1.1 C 0 km/h
198 30-01-2010 15:32:02 -0.9 C 3.6 g/m*3 -0.9 C 0 km/h
199 30-01-2010 15:44:02 -0.7 C 3.6 g/m*3 -0.7 C 0 km/h
200 30-01-2010 15:56:02 -0.9 C 3.41 g/m*3 -0.9 C 0 km/h
Sensor: Nr:Datum:Temp:Abs-Feuchte:Windchill:Wind:
Aussen-T/F 201 30-01-2010 16:08:02 -1.3 C 3.19 g/m*3 -1.3 C 0 km/h
202 30-01-2010 16:20:02 -1.4 C 3.21 g/m*3 -1.4 C 0 km/h
203 30-01-2010 16:32:01 -1.6 C 3.21 g/m*3 -1.6 C 0 km/h
204 30-01-2010 16:44:01 -1.5 C 3.27 g/m*3 -1.5 C 0 km/h
205 30-01-2010 16:56:02 -1.5 C 3.32 g/m*3 -1.5 C 0 km/h
206 30-01-2010 17:08:01 -1.6 C 3.34 g/m*3 -1.6 C 0 km/h
207 30-01-2010 17:20:02 -1.7 C 3.36 g/m*3 -1.7 C 0 km/h
208 30-01-2010 17:32:02 -2 C 3.29 g/m*3 -2 C 0 km/h
209 30-01-2010 17:44:02 -2.4 C 3.16 g/m*3 -2.4 C 0 km/h
210 30-01-2010 17:56:02 -2.6 C 3.15 g/m*3 -2.6 C 0 km/h
211 30-01-2010 18:08:02 -2.4 C 3.24 g/m*3 -2.4 C 0 km/h
212 30-01-2010 18:20:02 -2.4 C 3.24 g/m*3 -2.4 C 0 km/h
213 30-01-2010 18:32:03 -2.3 C 3.26 g/m*3 -2.3 C 0 km/h
214 30-01-2010 18:44:03 -2.4 C 3.2 g/m*3 -2.4 C 0 km/h
215 30-01-2010 18:56:02 -2.6 C 3.11 g/m*3 -2.6 C 0 km/h
216 30-01-2010 19:08:01 -2.9 C 3.05 g/m*3 -2.9 C 0 km/h
217 30-01-2010 19:20:02 -3.1 C 3 g/m*3 -3.1 C 0 km/h
218 30-01-2010 19:32:02 -3.3 C 2.96 g/m*3 -3.3 C 0 km/h
219 30-01-2010 19:44:02 -3.5 C 2.92 g/m*3 -3.5 C 0 km/h
220 30-01-2010 19:56:01 -3.7 C 2.92 g/m*3 -3.7 C 0 km/h
221 30-01-2010 20:08:02 -4 C 2.85 g/m*3 -4 C 0 km/h
222 30-01-2010 20:20:01 -4.2 C 2.81 g/m*3 -4.2 C 0 km/h
223 30-01-2010 20:32:02 -4.5 C 2.75 g/m*3 -4.5 C 0 km/h
224 30-01-2010 20:44:02 -4.9 C 2.68 g/m*3 -4.9 C 0 km/h
225 30-01-2010 20:56:02 -4.7 C 2.75 g/m*3 -4.7 C 0 km/h
Sensor: Nr:Datum:Temp:Abs-Feuchte:Windchill:Wind:
Aussen-T/F 226 30-01-2010 21:08:02 -4.3 C 2.86 g/m*3 -4.3 C 0 km/h
227 30-01-2010 21:20:02 -4.1 C 2.91 g/m*3 -4.1 C 0 km/h
228 30-01-2010 21:32:02 -4.2 C 2.89 g/m*3 -4.2 C 0 km/h
229 30-01-2010 21:44:02 -4.6 C 2.77 g/m*3 -4.6 C 0 km/h
230 30-01-2010 21:56:02 -5.1 C 2.64 g/m*3 -5.1 C 0 km/h
231 30-01-2010 22:08:02 -5.6 C 2.54 g/m*3 -5.6 C 0 km/h
232 30-01-2010 22:21:03 -5.9 C 2.49 g/m*3 -5.9 C 0 km/h
233 30-01-2010 22:33:04 -5.7 C 2.56 g/m*3 -5.7 C 0 km/h
234 30-01-2010 22:45:04 -6 C 2.5 g/m*3 -6 C 0 km/h
235 30-01-2010 22:57:04 -6.1 C 2.48 g/m*3 -6.1 C 0 km/h
236 30-01-2010 23:09:04 -6.3 C 2.45 g/m*3 -6.3 C 0 km/h
237 30-01-2010 23:21:04 -6.2 C 2.47 g/m*3 -6.2 C 0 km/h
238 30-01-2010 23:33:04 -6.4 C 2.43 g/m*3 -6.4 C 0 km/h
239 30-01-2010 23:45:04 -6.4 C 2.43 g/m*3 -6.4 C 0 km/h
240 30-01-2010 23:57:04 -6.3 C 2.48 g/m*3 -6.3 C 0 km/h
241 31-01-2010 00:09:04 -6.2 C 2.5 g/m*3 -6.2 C 0 km/h
242 31-01-2010 00:21:04 -6.1 C 2.52 g/m*3 -6.1 C 0 km/h
243 31-01-2010 00:33:04 -6 C 2.53 g/m*3 -6 C 0 km/h
244 31-01-2010 00:45:04 -6 C 2.5 g/m*3 -6 C 0 km/h
245 31-01-2010 00:57:04 -5.6 C 2.58 g/m*3 -5.6 C 0 km/h
246 31-01-2010 01:09:04 -5.1 C 2.67 g/m*3 -5.1 C 0 km/h
247 31-01-2010 01:21:04 -5 C 2.69 g/m*3 -5 C 0 km/h
248 31-01-2010 01:33:04 -4.7 C 2.71 g/m*3 -4.7 C 0 km/h
249 31-01-2010 01:45:04 -4.6 C 2.73 g/m*3 -4.6 C 0 km/h
250 31-01-2010 01:57:04 -4.6 C 2.8 g/m*3 -4.6 C 0 km/h
Sensor: Nr:Datum:Temp:Abs-Feuchte:Windchill:Wind:
Aussen-T/F 251 31-01-2010 02:09:04 -4.4 C 2.88 g/m*3 -4.4 C 0 km/h
252 31-01-2010 02:21:04 -4.3 C 2.94 g/m*3 -4.3 C 0 km/h
253 31-01-2010 02:33:04 -4.2 C 2.96 g/m*3 -4.2 C 0 km/h
254 31-01-2010 02:45:04 -4.2 C 2.99 g/m*3 -4.2 C 0 km/h
255 31-01-2010 02:57:05 -4.2 C 3.03 g/m*3 -4.2 C 0 km/h
256 31-01-2010 03:09:05 -4 C 3.07 g/m*3 -4 C 0 km/h
257 31-01-2010 03:21:05 -3.9 C 3.06 g/m*3 -3.9 C 0 km/h
258 31-01-2010 03:33:05 -3.7 C 3.1 g/m*3 -3.7 C 0 km/h
259 31-01-2010 03:45:05 -3.5 C 3.11 g/m*3 -3.5 C 0 km/h
260 31-01-2010 03:57:05 -3.5 C 3.15 g/m*3 -3.5 C 0 km/h
261 31-01-2010 04:09:05 -3.4 C 3.17 g/m*3 -3.4 C 0 km/h
262 31-01-2010 04:21:05 -3.4 C 3.17 g/m*3 -3.4 C 0 km/h
263 31-01-2010 04:33:05 -3.3 C 3.19 g/m*3 -3.3 C 0 km/h
264 31-01-2010 04:45:05 -3.2 C 3.18 g/m*3 -3.2 C 0 km/h
265 31-01-2010 04:57:05 -3.2 C 3.18 g/m*3 -3.2 C 0 km/h
266 31-01-2010 05:09:05 -3.2 C 3.21 g/m*3 -3.2 C 0 km/h
267 31-01-2010 05:21:05 -3.1 C 3.24 g/m*3 -3.1 C 0 km/h
268 31-01-2010 05:33:05 -2.9 C 3.24 g/m*3 -2.9 C 0 km/h
269 31-01-2010 05:45:05 -2.9 C 3.24 g/m*3 -2.9 C 0 km/h
270 31-01-2010 05:57:05 -2.9 C 3.24 g/m*3 -2.9 C 0 km/h
271 31-01-2010 06:09:05 -2.8 C 3.27 g/m*3 -2.8 C 0 km/h
272 31-01-2010 06:21:05 -2.8 C 3.27 g/m*3 -2.8 C 0 km/h
273 31-01-2010 06:33:05 -2.8 C 3.27 g/m*3 -2.8 C 0 km/h
274 31-01-2010 06:45:05 -2.8 C 3.27 g/m*3 -2.8 C 0 km/h
275 31-01-2010 06:57:05 -2.7 C 3.29 g/m*3 -2.7 C 0 km/h
Sensor: Nr:Datum:Temp:Abs-Feuchte:Windchill:Wind:
Aussen-T/F 276 31-01-2010 07:09:05 -2.6 C 3.31 g/m*3 -2.6 C 0 km/h
277 31-01-2010 07:21:05 -2.6 C 3.31 g/m*3 -2.6 C 0 km/h
278 31-01-2010 07:33:06 -2.6 C 3.31 g/m*3 -2.6 C 0 km/h
279 31-01-2010 07:45:06 -2.5 C 3.3 g/m*3 -2.5 C 0 km/h
280 31-01-2010 07:57:06 -2.5 C 3.3 g/m*3 -2.5 C 0 km/h
281 31-01-2010 08:09:06 -2.4 C 3.36 g/m*3 -2.4 C 0 km/h
282 31-01-2010 08:21:06 -2.4 C 3.4 g/m*3 -2.4 C 0 km/h
283 31-01-2010 08:33:03 -2.4 C 3.36 g/m*3 -2.4 C 0 km/h
284 31-01-2010 08:45:02 -2.4 C 3.36 g/m*3 -2.4 C 0 km/h
285 31-01-2010 08:57:02 -2.4 C 3.36 g/m*3 -2.4 C 0 km/h
286 31-01-2010 09:09:02 -2.1 C 3.43 g/m*3 -2.1 C 0 km/h
287 31-01-2010 09:21:02 -2 C 3.41 g/m*3 -2 C 0 km/h
288 31-01-2010 09:33:01 -2.2 C 3.33 g/m*3 -2.2 C 0 km/h
289 31-01-2010 09:45:02 -2 C 3.33 g/m*3 -2 C 0 km/h
290 31-01-2010 09:57:02 -1.8 C 3.33 g/m*3 -1.8 C 0 km/h
291 31-01-2010 10:09:01 -1.6 C 3.38 g/m*3 -1.6 C 0 km/h
292 31-01-2010 10:21:02 -1.7 C 3.31 g/m*3 -1.7 C 0 km/h
293 31-01-2010 10:33:01 -1.7 C 3.27 g/m*3 -1.7 C 0 km/h
294 31-01-2010 10:45:02 -1.7 C 3.27 g/m*3 -1.7 C 0 km/h
295 31-01-2010 10:57:02 -1.6 C 3.29 g/m*3 -1.6 C 0 km/h
296 31-01-2010 11:09:02 -1.4 C 3.34 g/m*3 -1.4 C 0 km/h
297 31-01-2010 11:21:02 -1.1 C 3.41 g/m*3 -1.1 C 0 km/h
298 31-01-2010 11:33:03 -0.7 C 3.42 g/m*3 -0.7 C 0 km/h
299 31-01-2010 11:45:02 -0.6 C 3.39 g/m*3 -0.6 C 0 km/h
300 31-01-2010 11:57:03 -0.4 C 3.44 g/m*3 -0.4 C 0 km/h
Sensor: Nr:Datum:Temp:Abs-Feuchte:Windchill:Wind:
Aussen-T/F 301 31-01-2010 12:09:01 -0.2 C 3.44 g/m*3 -0.2 C 0 km/h
302 31-01-2010 12:21:02 0.2 C 3.54 g/m*3 0.2 C 0 km/h
303 31-01-2010 12:33:02 0.7 C 3.61 g/m*3 0.7 C 0 km/h
304 31-01-2010 12:45:02 1.1 C 3.5 g/m*3 1.1 C 0 km/h
305 31-01-2010 12:57:02 1.3 C 3.5 g/m*3 1.3 C 0 km/h
306 31-01-2010 13:09:03 1.6 C 3.46 g/m*3 1.6 C 0 km/h
307 31-01-2010 13:21:02 1.7 C 3.38 g/m*3 1.7 C 0 km/h
308 31-01-2010 13:33:03 2 C 3.28 g/m*3 2 C 0 km/h
309 31-01-2010 13:45:02 2 C 3.22 g/m*3 2 C 0 km/h
310 31-01-2010 13:57:02 2.2 C 3.15 g/m*3 2.2 C 0 km/h
311 31-01-2010 14:09:02 2.1 C 3.08 g/m*3 2.1 C 0 km/h
312 31-01-2010 14:21:01 2.2 C 3.15 g/m*3 2.2 C 0 km/h
313 31-01-2010 14:33:02 2.4 C 3.14 g/m*3 2.4 C 0 km/h
314 31-01-2010 14:45:02 2.2 C 2.99 g/m*3 2.2 C 0 km/h
315 31-01-2010 14:57:02 2.2 C 2.93 g/m*3 2.2 C 0 km/h
316 31-01-2010 15:09:02 1.7 C 2.94 g/m*3 1.7 C 0 km/h
317 31-01-2010 15:21:02 1.3 C 2.97 g/m*3 1.3 C 0 km/h
318 31-01-2010 15:33:02 1.1 C 2.93 g/m*3 1.1 C 0 km/h
319 31-01-2010 15:45:02 1.1 C 3.03 g/m*3 1.1 C 0 km/h
320 31-01-2010 15:57:02 1.3 C 3.13 g/m*3 1.3 C 0 km/h
321 31-01-2010 16:09:02 1.2 C 3.1 g/m*3 1.2 C 0 km/h
322 31-01-2010 16:21:02 0.8 C 3.12 g/m*3 0.8 C 0 km/h
323 31-01-2010 16:33:02 0.7 C 3.1 g/m*3 0.7 C 0 km/h
324 31-01-2010 16:45:02 0.7 C 3.15 g/m*3 0.7 C 0 km/h
325 31-01-2010 16:57:02 0.5 C 3.11 g/m*3 0.5 C 0 km/h
Sensor: Nr:Datum:Temp:Abs-Feuchte:Windchill:Wind:
Aussen-T/F 326 31-01-2010 17:09:03 0.3 C 3.07 g/m*3 0.3 C 0 km/h
327 31-01-2010 17:21:02 0 C 3.15 g/m*3 0 C 0 km/h
328 31-01-2010 17:33:02 -0.4 C 3.11 g/m*3 -0.4 C 0 km/h
329 31-01-2010 17:45:01 -0.6 C 3.11 g/m*3 -0.6 C 0 km/h
330 31-01-2010 17:57:01 -1 C 3.07 g/m*3 -1 C 0 km/h
331 31-01-2010 18:09:02 -1.1 C 3.14 g/m*3 -1.1 C 0 km/h
332 31-01-2010 18:21:01 -1.3 C 3.1 g/m*3 -1.3 C 0 km/h
333 31-01-2010 18:33:01 -1.5 C 3.1 g/m*3 -1.5 C 0 km/h
334 31-01-2010 18:45:01 -1.7 C 3.1 g/m*3 -1.7 C 0 km/h
335 31-01-2010 18:57:01 -1.8 C 3.16 g/m*3 -1.8 C 0 km/h
336 31-01-2010 19:09:02 -1.8 C 3.16 g/m*3 -1.8 C 0 km/h
337 31-01-2010 19:21:01 -1.8 C 3.12 g/m*3 -1.8 C 0 km/h
338 31-01-2010 19:33:02 -1.9 C 3.1 g/m*3 -1.9 C 0 km/h
339 31-01-2010 19:45:01 -1.8 C 3.12 g/m*3 -1.8 C 0 km/h
340 31-01-2010 19:57:01 -2.1 C 3.06 g/m*3 -2.1 C 0 km/h
341 31-01-2010 20:09:02 -2.1 C 3.14 g/m*3 -2.1 C 0 km/h
342 31-01-2010 20:21:01 -1.9 C 3.18 g/m*3 -1.9 C 0 km/h
343 31-01-2010 20:33:02 -2 C 3.16 g/m*3 -2 C 0 km/h
344 31-01-2010 20:45:01 -2 C 3.2 g/m*3 -2 C 0 km/h
345 31-01-2010 20:57:01 -2 C 3.2 g/m*3 -2 C 0 km/h
346 31-01-2010 21:09:02 -1.8 C 3.25 g/m*3 -1.8 C 0 km/h
347 31-01-2010 21:21:01 -1.6 C 3.29 g/m*3 -1.6 C 0 km/h
348 31-01-2010 21:33:02 -1.5 C 3.32 g/m*3 -1.5 C 0 km/h
349 31-01-2010 21:45:01 -1.3 C 3.32 g/m*3 -1.3 C 0 km/h
350 31-01-2010 21:57:01 -1.1 C 3.37 g/m*3 -1.1 C 0 km/h
Sensor: Nr:Datum:Temp:Abs-Feuchte:Windchill:Wind:
Aussen-T/F 351 31-01-2010 22:09:02 -0.8 C 3.39 g/m*3 -0.8 C 0 km/h
352 31-01-2010 22:21:02 -0.6 C 3.39 g/m*3 -0.6 C 0 km/h
353 31-01-2010 22:33:01 -0.6 C 3.35 g/m*3 -0.6 C 0 km/h
354 31-01-2010 22:46:02 -0.7 C 3.32 g/m*3 -0.7 C 0 km/h
355 31-01-2010 22:58:02 -0.7 C 3.37 g/m*3 -0.7 C 0 km/h
356 31-01-2010 23:10:02 -0.6 C 3.39 g/m*3 -0.6 C 0 km/h
357 31-01-2010 23:22:02 -0.5 C 3.37 g/m*3 -0.5 C 0 km/h
358 31-01-2010 23:34:02 -0.6 C 3.35 g/m*3 -0.6 C 0 km/h
359 31-01-2010 23:46:02 -0.7 C 3.37 g/m*3 -0.7 C 0 km/h
360 31-01-2010 23:58:02 -0.7 C 3.42 g/m*3 -0.7 C 0 km/h
361 01-02-2010 00:10:02 -0.8 C 3.39 g/m*3 -0.8 C 0 km/h
362 01-02-2010 00:22:02 -1 C 3.35 g/m*3 -1 C 0 km/h
363 01-02-2010 00:34:02 -1.1 C 3.32 g/m*3 -1.1 C 0 km/h
364 01-02-2010 00:46:02 -0.7 C 3.42 g/m*3 -0.7 C 0 km/h
365 01-02-2010 00:58:03 -0.7 C 3.37 g/m*3 -0.7 C 0 km/h
366 01-02-2010 01:10:03 -0.6 C 3.35 g/m*3 -0.6 C 0 km/h
367 01-02-2010 01:22:03 -0.5 C 3.37 g/m*3 -0.5 C 0 km/h
368 01-02-2010 01:34:03 -0.5 C 3.37 g/m*3 -0.5 C 0 km/h
369 01-02-2010 01:46:03 -0.4 C 3.35 g/m*3 -0.4 C 0 km/h
370 01-02-2010 01:58:03 -0.4 C 3.35 g/m*3 -0.4 C 0 km/h
371 01-02-2010 02:10:03 -0.6 C 3.25 g/m*3 -0.6 C 0 km/h
372 01-02-2010 02:22:03 -0.8 C 3.25 g/m*3 -0.8 C 0 km/h
373 01-02-2010 02:34:03 -0.8 C 3.25 g/m*3 -0.8 C 0 km/h
374 01-02-2010 02:46:03 -0.8 C 3.25 g/m*3 -0.8 C 0 km/h
375 01-02-2010 02:58:03 -0.8 C 3.25 g/m*3 -0.8 C 0 km/h
Sensor: Nr:Datum:Temp:Abs-Feuchte:Windchill:Wind:
Aussen-T/F 376 01-02-2010 03:10:03 -0.7 C 3.28 g/m*3 -0.7 C 0 km/h
377 01-02-2010 03:22:03 -0.8 C 3.25 g/m*3 -0.8 C 0 km/h
378 01-02-2010 03:34:03 -0.8 C 3.25 g/m*3 -0.8 C 0 km/h
379 01-02-2010 03:46:03 -0.7 C 3.32 g/m*3 -0.7 C 0 km/h
380 01-02-2010 03:58:03 -0.8 C 3.25 g/m*3 -0.8 C 0 km/h
381 01-02-2010 04:10:03 -0.8 C 3.25 g/m*3 -0.8 C 0 km/h
382 01-02-2010 04:22:03 -0.9 C 3.28 g/m*3 -0.9 C 0 km/h
383 01-02-2010 04:34:03 -1 C 3.25 g/m*3 -1 C 0 km/h
384 01-02-2010 04:46:03 -0.8 C 3.3 g/m*3 -0.8 C 0 km/h
385 01-02-2010 04:58:03 -0.7 C 3.28 g/m*3 -0.7 C 0 km/h
386 01-02-2010 05:10:03 -0.7 C 3.28 g/m*3 -0.7 C 0 km/h
387 01-02-2010 05:22:04 -0.6 C 3.3 g/m*3 -0.6 C 0 km/h
388 01-02-2010 05:34:04 -0.5 C 3.32 g/m*3 -0.5 C 0 km/h
389 01-02-2010 05:46:04 -0.4 C 3.35 g/m*3 -0.4 C 0 km/h
390 01-02-2010 05:58:04 -0.4 C 3.35 g/m*3 -0.4 C 0 km/h
391 01-02-2010 06:10:04 -0.4 C 3.35 g/m*3 -0.4 C 0 km/h
392 01-02-2010 06:22:04 -0.4 C 3.35 g/m*3 -0.4 C 0 km/h
393 01-02-2010 06:34:04 -0.3 C 3.37 g/m*3 -0.3 C 0 km/h
394 01-02-2010 06:46:04 -0.3 C 3.37 g/m*3 -0.3 C 0 km/h
395 01-02-2010 06:58:04 -0.4 C 3.35 g/m*3 -0.4 C 0 km/h
396 01-02-2010 07:10:02 -0.5 C 3.37 g/m*3 -0.5 C 0 km/h
397 01-02-2010 07:22:03 -0.7 C 3.32 g/m*3 -0.7 C 0 km/h
398 01-02-2010 07:34:02 -0.7 C 3.37 g/m*3 -0.7 C 0 km/h
399 01-02-2010 07:46:02 -0.6 C 3.39 g/m*3 -0.6 C 0 km/h
400 01-02-2010 07:58:02 -0.5 C 3.42 g/m*3 -0.5 C 0 km/h
Sensor: Nr:Datum:Temp:Abs-Feuchte:Windchill:Wind:
Aussen-T/F 401 01-02-2010 08:10:02 -0.4 C 3.39 g/m*3 -0.4 C 0 km/h
402 01-02-2010 08:22:02 -0.4 C 3.44 g/m*3 -0.4 C 0 km/h
403 01-02-2010 08:34:02 -0.4 C 3.39 g/m*3 -0.4 C 0 km/h
404 01-02-2010 08:46:02 -0.4 C 3.39 g/m*3 -0.4 C 0 km/h
405 01-02-2010 08:58:02 -0.4 C 3.39 g/m*3 -0.4 C 0 km/h
406 01-02-2010 09:10:02 -0.4 C 3.39 g/m*3 -0.4 C 0 km/h
407 01-02-2010 09:22:02 -0.3 C 3.37 g/m*3 -0.3 C 0 km/h
408 01-02-2010 09:34:02 -0.3 C 3.37 g/m*3 -0.3 C 0 km/h
409 01-02-2010 09:46:02 -0.2 C 3.39 g/m*3 -0.2 C 0 km/h
410 01-02-2010 09:58:02 -0.2 C 3.39 g/m*3 -0.2 C 0 km/h
411 01-02-2010 10:10:02 -0.1 C 3.37 g/m*3 -0.1 C 0 km/h
412 01-02-2010 10:22:02 0.2 C 3.44 g/m*3 0.2 C 0 km/h
413 01-02-2010 10:34:01 0.2 C 3.34 g/m*3 0.2 C 0 km/h
414 01-02-2010 10:46:02 0.3 C 3.36 g/m*3 0.3 C 0 km/h
415 01-02-2010 10:58:02 0.3 C 3.31 g/m*3 0.3 C 0 km/h
416 01-02-2010 11:10:01 0.5 C 3.31 g/m*3 0.5 C 0 km/h
417 01-02-2010 11:22:02 0.5 C 3.26 g/m*3 0.5 C 0 km/h
418 01-02-2010 11:34:01 0.7 C 3.3 g/m*3 0.7 C 0 km/h
419 01-02-2010 11:46:02 1 C 3.22 g/m*3 1 C 0 km/h
420 01-02-2010 11:58:02 1 C 3.22 g/m*3 1 C 0 km/h
421 01-02-2010 12:10:02 1.4 C 3.31 g/m*3 1.4 C 0 km/h
422 01-02-2010 12:22:02 1.3 C 3.23 g/m*3 1.3 C 0 km/h
423 01-02-2010 12:34:02 1.7 C 3.32 g/m*3 1.7 C 0 km/h
424 01-02-2010 12:46:02 1.5 C 3.28 g/m*3 1.5 C 0 km/h
425 01-02-2010 12:58:02 1.5 C 3.28 g/m*3 1.5 C 0 km/h
Sensor: Nr:Datum:Temp:Abs-Feuchte:Windchill:Wind:
Aussen-T/F 426 01-02-2010 13:10:01 1.4 C 3.25 g/m*3 1.4 C 0 km/h
427 01-02-2010 13:22:02 1.6 C 3.3 g/m*3 1.6 C 0 km/h
428 01-02-2010 13:34:01 1.7 C 3.32 g/m*3 1.7 C 0 km/h
429 01-02-2010 13:46:02 2.3 C 3.29 g/m*3 2.3 C 0 km/h
430 01-02-2010 13:58:02 2.3 C 3.18 g/m*3 2.3 C 0 km/h
431 01-02-2010 14:10:01 2.4 C 3.25 g/m*3 2.4 C 0 km/h
432 01-02-2010 14:22:01 2.4 C 3.25 g/m*3 2.4 C 0 km/h
433 01-02-2010 14:34:02 2.1 C 3.24 g/m*3 2.1 C 0 km/h
434 01-02-2010 14:46:02 1.5 C 3.44 g/m*3 1.5 C 0 km/h
435 01-02-2010 14:58:03 1.4 C 3.68 g/m*3 1.4 C 0 km/h
436 01-02-2010 15:10:01 1.3 C 3.71 g/m*3 1.3 C 0 km/h
437 01-02-2010 15:22:02 1.8 C 3.73 g/m*3 1.8 C 0 km/h
438 01-02-2010 15:34:02 1.5 C 3.71 g/m*3 1.5 C 0 km/h
439 01-02-2010 15:46:02 1.1 C 3.81 g/m*3 1.1 C 0 km/h
440 01-02-2010 15:58:02 0.9 C 3.92 g/m*3 0.9 C 0 km/h
441 01-02-2010 16:10:01 0.7 C 4.02 g/m*3 0.7 C 0 km/h
442 01-02-2010 16:22:02 0.7 C 4.12 g/m*3 0.7 C 0 km/h
443 01-02-2010 16:34:01 0.7 C 4.12 g/m*3 0.7 C 0 km/h
444 01-02-2010 16:46:03 0.8 C 4.1 g/m*3 0.8 C 0 km/h
445 01-02-2010 16:58:03 1 C 4 g/m*3 1 C 0 km/h
446 01-02-2010 17:10:03 0.8 C 4.04 g/m*3 0.8 C 0 km/h
447 01-02-2010 17:22:02 0.4 C 4.13 g/m*3 0.4 C 0 km/h
448 01-02-2010 17:34:03 0.4 C 4.28 g/m*3 0.4 C 0 km/h
449 01-02-2010 17:46:01 0.4 C 4.33 g/m*3 0.4 C 0 km/h
450 01-02-2010 17:58:01 0.3 C 4.3 g/m*3 0.3 C 0 km/h
Sensor: Nr:Datum:Temp:Abs-Feuchte:Windchill:Wind:
Aussen-T/F 451 01-02-2010 18:10:02 0.2 C 4.32 g/m*3 0.2 C 0 km/h
452 01-02-2010 18:22:02 0.2 C 4.37 g/m*3 0.2 C 0 km/h
453 01-02-2010 18:34:02 0.2 C 4.42 g/m*3 0.2 C 0 km/h
454 01-02-2010 18:46:02 0.2 C 4.47 g/m*3 0.2 C 0 km/h
455 01-02-2010 18:58:02 0.2 C 4.52 g/m*3 0.2 C 0 km/h
456 01-02-2010 19:10:02 0.3 C 4.55 g/m*3 0.3 C 0 km/h
457 01-02-2010 19:22:02 0.3 C 4.55 g/m*3 0.3 C 0 km/h
458 01-02-2010 19:34:01 0.3 C 4.5 g/m*3 0.3 C 0 km/h
459 01-02-2010 19:46:02 0.3 C 4.5 g/m*3 0.3 C 0 km/h
460 01-02-2010 19:58:02 0.5 C 4.56 g/m*3 0.5 C 0 km/h
461 01-02-2010 20:10:01 0.5 C 4.51 g/m*3 0.5 C 0 km/h
462 01-02-2010 20:22:02 0.5 C 4.46 g/m*3 0.5 C 0 km/h
463 01-02-2010 20:34:01 0.5 C 4.41 g/m*3 0.5 C 0 km/h
464 01-02-2010 20:46:02 0.3 C 4.35 g/m*3 0.3 C 0 km/h
465 01-02-2010 20:58:02 0.3 C 4.35 g/m*3 0.3 C 0 km/h
466 01-02-2010 21:10:01 0.2 C 4.32 g/m*3 0.2 C 0 km/h
467 01-02-2010 21:22:02 0.3 C 4.35 g/m*3 0.3 C 0 km/h
468 01-02-2010 21:34:01 0.3 C 4.35 g/m*3 0.3 C 0 km/h
469 01-02-2010 21:46:03 0.2 C 4.32 g/m*3 0.2 C 0 km/h
470 01-02-2010 21:58:03 0.2 C 4.32 g/m*3 0.2 C 0 km/h
471 01-02-2010 22:10:02 0.2 C 4.37 g/m*3 0.2 C 0 km/h
472 01-02-2010 22:23:02 0.2 C 4.37 g/m*3 0.2 C 0 km/h
473 01-02-2010 22:35:02 0.5 C 4.51 g/m*3 0.5 C 0 km/h
474 01-02-2010 22:47:02 0.5 C 4.46 g/m*3 0.5 C 0 km/h
475 01-02-2010 22:59:02 0.5 C 4.46 g/m*3 0.5 C 0 km/h
Sensor: Nr:Datum:Temp:Abs-Feuchte:Windchill:Wind:
Aussen-T/F 476 01-02-2010 23:11:02 0.4 C 4.33 g/m*3 0.4 C 0 km/h
477 01-02-2010 23:23:03 0.4 C 4.28 g/m*3 0.4 C 0 km/h
478 01-02-2010 23:35:03 0.3 C 4.25 g/m*3 0.3 C 0 km/h
479 01-02-2010 23:47:03 0.3 C 4.3 g/m*3 0.3 C 0 km/h
480 01-02-2010 23:59:03 0.3 C 4.3 g/m*3 0.3 C 0 km/h
481 02-02-2010 00:11:03 0.3 C 4.11 g/m*3 0.3 C 0 km/h
482 02-02-2010 00:23:03 0.4 C 3.84 g/m*3 0.4 C 0 km/h
483 02-02-2010 00:35:03 0.2 C 3.68 g/m*3 0.2 C 0 km/h
484 02-02-2010 00:47:03 0.1 C 3.66 g/m*3 0.1 C 0 km/h
485 02-02-2010 00:59:03 -0.1 C 3.56 g/m*3 -0.1 C 0 km/h
486 02-02-2010 01:11:03 -0.3 C 3.51 g/m*3 -0.3 C 0 km/h
487 02-02-2010 01:23:03 -0.5 C 3.51 g/m*3 -0.5 C 0 km/h
488 02-02-2010 01:35:03 -0.8 C 3.48 g/m*3 -0.8 C 0 km/h
489 02-02-2010 01:47:03 -0.7 C 3.6 g/m*3 -0.7 C 0 km/h
490 02-02-2010 01:59:03 -0.6 C 3.63 g/m*3 -0.6 C 0 km/h
491 02-02-2010 02:11:03 -0.6 C 3.53 g/m*3 -0.6 C 0 km/h
492 02-02-2010 02:23:03 -0.7 C 3.46 g/m*3 -0.7 C 0 km/h
493 02-02-2010 02:35:03 -1 C 3.3 g/m*3 -1 C 0 km/h
494 02-02-2010 02:47:03 -1.6 C 3.25 g/m*3 -1.6 C 0 km/h
495 02-02-2010 02:59:03 -2.1 C 3.22 g/m*3 -2.1 C 0 km/h
496 02-02-2010 03:11:03 -2.5 C 3.17 g/m*3 -2.5 C 0 km/h
497 02-02-2010 03:23:03 -2.8 C 3.15 g/m*3 -2.8 C 0 km/h
498 02-02-2010 03:35:03 -3 C 3.14 g/m*3 -3 C 0 km/h
499 02-02-2010 03:47:04 -3 C 3.18 g/m*3 -3 C 0 km/h
500 02-02-2010 03:59:04 -3 C 3.22 g/m*3 -3 C 0 km/h
Sensor: Nr:Datum:Temp:Abs-Feuchte:Windchill:Wind:
Aussen-T/F 501 02-02-2010 04:11:04 -3.1 C 3.24 g/m*3 -3.1 C 0 km/h
502 02-02-2010 04:23:04 -3 C 3.3 g/m*3 -3 C 0 km/h
503 02-02-2010 04:35:04 -2.9 C 3.36 g/m*3 -2.9 C 0 km/h
504 02-02-2010 04:47:04 -2.7 C 3.45 g/m*3 -2.7 C 0 km/h
505 02-02-2010 04:59:04 -2.6 C 3.48 g/m*3 -2.6 C 0 km/h
506 02-02-2010 05:11:04 -2.4 C 3.57 g/m*3 -2.4 C 0 km/h
507 02-02-2010 05:23:04 -2.2 C 3.62 g/m*3 -2.2 C 0 km/h
508 02-02-2010 05:35:04 -2.3 C 3.59 g/m*3 -2.3 C 0 km/h
509 02-02-2010 05:47:04 -2.4 C 3.52 g/m*3 -2.4 C 0 km/h
510 02-02-2010 05:59:04 -2.4 C 3.52 g/m*3 -2.4 C 0 km/h
511 02-02-2010 06:11:04 -2.3 C 3.55 g/m*3 -2.3 C 0 km/h
512 02-02-2010 06:23:04 -1.7 C 3.75 g/m*3 -1.7 C 0 km/h
513 02-02-2010 06:35:04 -1.2 C 3.74 g/m*3 -1.2 C 0 km/h
514 02-02-2010 06:47:04 -1.2 C 3.66 g/m*3 -1.2 C 0 km/h
515 02-02-2010 06:59:04 -1.3 C 3.59 g/m*3 -1.3 C 0 km/h
516 02-02-2010 07:11:02 -1.3 C 3.59 g/m*3 -1.3 C 0 km/h
517 02-02-2010 07:23:02 -1.6 C 3.47 g/m*3 -1.6 C 0 km/h
518 02-02-2010 07:35:02 -1.8 C 3.46 g/m*3 -1.8 C 0 km/h
519 02-02-2010 07:47:02 -1.7 C 3.49 g/m*3 -1.7 C 0 km/h
520 02-02-2010 07:59:02 -1.5 C 3.49 g/m*3 -1.5 C 0 km/h
521 02-02-2010 08:11:03 -1.4 C 3.52 g/m*3 -1.4 C 0 km/h
522 02-02-2010 08:23:02 -1.3 C 3.5 g/m*3 -1.3 C 0 km/h
523 02-02-2010 08:35:02 -1.2 C 3.48 g/m*3 -1.2 C 0 km/h
524 02-02-2010 08:47:02 -1.1 C 3.5 g/m*3 -1.1 C 0 km/h
525 02-02-2010 08:59:02 -0.8 C 3.53 g/m*3 -0.8 C 0 km/h
Sensor: Nr:Datum:Temp:Abs-Feuchte:Windchill:Wind:
Aussen-T/F 526 02-02-2010 09:11:02 -0.7 C 3.55 g/m*3 -0.7 C 0 km/h
527 02-02-2010 09:23:02 -0.6 C 3.63 g/m*3 -0.6 C 0 km/h
528 02-02-2010 09:35:02 -0.3 C 3.7 g/m*3 -0.3 C 0 km/h
529 02-02-2010 09:47:02 -0.1 C 3.75 g/m*3 -0.1 C 0 km/h
530 02-02-2010 09:59:02 0.1 C 3.81 g/m*3 0.1 C 0 km/h
531 02-02-2010 10:11:02 0.4 C 3.88 g/m*3 0.4 C 0 km/h
532 02-02-2010 10:23:02 0.6 C 3.89 g/m*3 0.6 C 0 km/h
533 02-02-2010 10:35:01 0.8 C 3.89 g/m*3 0.8 C 0 km/h
534 02-02-2010 10:47:02 1 C 3.89 g/m*3 1 C 0 km/h
535 02-02-2010 10:59:02 1.1 C 3.92 g/m*3 1.1 C 0 km/h
536 02-02-2010 11:11:01 1.3 C 3.92 g/m*3 1.3 C 0 km/h
537 02-02-2010 11:23:02 1.5 C 3.97 g/m*3 1.5 C 0 km/h
538 02-02-2010 11:35:01 1.5 C 3.97 g/m*3 1.5 C 0 km/h
539 02-02-2010 11:47:03 1.5 C 3.97 g/m*3 1.5 C 0 km/h
540 02-02-2010 11:59:03 1.6 C 4.06 g/m*3 1.6 C 0 km/h
541 02-02-2010 12:11:02 1.8 C 4.11 g/m*3 1.8 C 0 km/h
542 02-02-2010 12:23:03 1.9 C 4.14 g/m*3 1.9 C 0 km/h
543 02-02-2010 12:35:02 2 C 4.11 g/m*3 2 C 0 km/h
544 02-02-2010 12:47:02 2.1 C 4.14 g/m*3 2.1 C 0 km/h
545 02-02-2010 12:59:02 2.2 C 4.22 g/m*3 2.2 C 0 km/h
546 02-02-2010 13:11:02 2.2 C 4.22 g/m*3 2.2 C 0 km/h
547 02-02-2010 13:23:02 2.4 C 4.23 g/m*3 2.4 C 0 km/h
548 02-02-2010 13:35:02 2.6 C 4.22 g/m*3 2.6 C 0 km/h
549 02-02-2010 13:47:02 2.6 C 4.17 g/m*3 2.6 C 0 km/h
550 02-02-2010 13:59:02 2.8 C 4.22 g/m*3 2.8 C 0 km/h
Sensor: Nr:Datum:Temp:Abs-Feuchte:Windchill:Wind:
Aussen-T/F 551 02-02-2010 14:11:02 2.8 C 4.22 g/m*3 2.8 C 0 km/h
552 02-02-2010 14:23:02 2.9 C 4.25 g/m*3 2.9 C 0 km/h
553 02-02-2010 14:35:01 2.9 C 4.25 g/m*3 2.9 C 0 km/h
554 02-02-2010 14:47:02 2.9 C 4.19 g/m*3 2.9 C 0 km/h
555 02-02-2010 14:59:02 2.7 C 4.2 g/m*3 2.7 C 0 km/h
556 02-02-2010 15:11:01 2.7 C 4.31 g/m*3 2.7 C 0 km/h
557 02-02-2010 15:23:02 2.7 C 4.37 g/m*3 2.7 C 0 km/h
558 02-02-2010 15:35:01 2.7 C 4.37 g/m*3 2.7 C 0 km/h
559 02-02-2010 15:47:03 2.6 C 4.4 g/m*3 2.6 C 0 km/h
560 02-02-2010 15:59:03 2.6 C 4.4 g/m*3 2.6 C 0 km/h
561 02-02-2010 16:11:02 2.5 C 4.37 g/m*3 2.5 C 0 km/h
562 02-02-2010 16:23:03 2.4 C 4.4 g/m*3 2.4 C 0 km/h
563 02-02-2010 16:35:02 2.4 C 4.45 g/m*3 2.4 C 0 km/h
564 02-02-2010 16:47:03 2.3 C 4.48 g/m*3 2.3 C 0 km/h
565 02-02-2010 16:59:03 2.2 C 4.45 g/m*3 2.2 C 0 km/h
566 02-02-2010 17:11:02 2.1 C 4.48 g/m*3 2.1 C 0 km/h
567 02-02-2010 17:23:02 2.1 C 4.48 g/m*3 2.1 C 0 km/h
568 02-02-2010 17:35:02 2.1 C 4.48 g/m*3 2.1 C 0 km/h
569 02-02-2010 17:47:02 2.2 C 4.45 g/m*3 2.2 C 0 km/h
570 02-02-2010 17:59:02 2.2 C 4.45 g/m*3 2.2 C 0 km/h
571 02-02-2010 18:11:02 2.3 C 4.48 g/m*3 2.3 C 0 km/h
572 02-02-2010 18:23:02 2.2 C 4.45 g/m*3 2.2 C 0 km/h
573 02-02-2010 18:35:01 2.2 C 4.45 g/m*3 2.2 C 0 km/h
574 02-02-2010 18:47:02 2.2 C 4.39 g/m*3 2.2 C 0 km/h
575 02-02-2010 18:59:02 2.2 C 4.39 g/m*3 2.2 C 0 km/h
Sensor: Nr:Datum:Temp:Abs-Feuchte:Windchill:Wind:
Aussen-T/F 576 02-02-2010 19:11:01 2.3 C 4.42 g/m*3 2.3 C 0 km/h
577 02-02-2010 19:23:02 2.2 C 4.45 g/m*3 2.2 C 0 km/h
578 02-02-2010 19:35:01 2.1 C 4.48 g/m*3 2.1 C 0 km/h
579 02-02-2010 19:47:02 2.1 C 4.53 g/m*3 2.1 C 0 km/h
580 02-02-2010 19:59:02 2.2 C 4.56 g/m*3 2.2 C 0 km/h
581 02-02-2010 20:11:01 2.2 C 4.56 g/m*3 2.2 C 0 km/h
582 02-02-2010 20:23:02 2.4 C 4.62 g/m*3 2.4 C 0 km/h
583 02-02-2010 20:35:01 2.5 C 4.6 g/m*3 2.5 C 0 km/h
584 02-02-2010 20:47:02 2.4 C 4.57 g/m*3 2.4 C 0 km/h
585 02-02-2010 20:59:02 2.5 C 4.6 g/m*3 2.5 C 0 km/h
586 02-02-2010 21:11:02 2.6 C 4.57 g/m*3 2.6 C 0 km/h
587 02-02-2010 21:23:02 2.6 C 4.57 g/m*3 2.6 C 0 km/h
588 02-02-2010 21:35:02 2.6 C 4.57 g/m*3 2.6 C 0 km/h
589 02-02-2010 21:48:03 2.6 C 4.63 g/m*3 2.6 C 0 km/h
590 02-02-2010 22:00:03 2.7 C 4.66 g/m*3 2.7 C 0 km/h
591 02-02-2010 22:12:03 2.6 C 4.69 g/m*3 2.6 C 0 km/h
592 02-02-2010 22:24:03 2.5 C 4.77 g/m*3 2.5 C 0 km/h
593 02-02-2010 22:36:03 2.4 C 4.8 g/m*3 2.4 C 0 km/h
594 02-02-2010 22:48:03 2.4 C 4.8 g/m*3 2.4 C 0 km/h
595 02-02-2010 23:00:03 2.5 C 4.83 g/m*3 2.5 C 0 km/h
596 02-02-2010 23:12:03 2.7 C 4.84 g/m*3 2.7 C 0 km/h
597 02-02-2010 23:24:03 2.7 C 4.78 g/m*3 2.7 C 0 km/h
598 02-02-2010 23:36:03 2.8 C 4.81 g/m*3 2.8 C 0 km/h
599 02-02-2010 23:48:04 2.9 C 4.84 g/m*3 2.9 C 0 km/h
600 03-02-2010 00:00:04 2.8 C 4.81 g/m*3 2.8 C 0 km/h
Sensor: Nr:Datum:Temp:Abs-Feuchte:Windchill:Wind:
Aussen-T/F 601 03-02-2010 00:12:04 3.3 C 4.91 g/m*3 3.3 C 0 km/h
602 03-02-2010 00:24:04 3.6 C 4.89 g/m*3 3.6 C 0 km/h
603 03-02-2010 00:36:04 3.7 C 4.92 g/m*3 3.7 C 0 km/h
604 03-02-2010 00:48:04 4 C 4.96 g/m*3 4 C 0 km/h
605 03-02-2010 01:00:04 4 C 4.9 g/m*3 4 C 0 km/h
606 03-02-2010 01:12:04 4 C 4.9 g/m*3 4 C 0 km/h
607 03-02-2010 01:24:04 4 C 4.96 g/m*3 4 C 0 km/h
608 03-02-2010 01:36:04 4.3 C 5.06 g/m*3 4.3 C 0 km/h
609 03-02-2010 01:48:04 4.4 C 5.09 g/m*3 4.4 C 0 km/h
610 03-02-2010 02:00:04 4.6 C 5.16 g/m*3 4.6 C 0 km/h
611 03-02-2010 02:12:04 4.8 C 5.16 g/m*3 4.8 C 0 km/h
612 03-02-2010 02:24:04 4.7 C 5.13 g/m*3 4.7 C 0 km/h
613 03-02-2010 02:36:04 2.9 C 4.78 g/m*3 2.9 C 0 km/h
614 03-02-2010 02:48:04 2.4 C 4.8 g/m*3 2.4 C 0 km/h
615 03-02-2010 03:00:04 2.1 C 4.81 g/m*3 2.1 C 0 km/h
616 03-02-2010 03:12:04 1.9 C 4.86 g/m*3 1.9 C 0 km/h
617 03-02-2010 03:24:04 1.7 C 4.85 g/m*3 1.7 C 0 km/h
618 03-02-2010 03:36:04 1.6 C 4.87 g/m*3 1.6 C 0 km/h
619 03-02-2010 03:48:04 1.6 C 4.87 g/m*3 1.6 C 0 km/h
620 03-02-2010 04:00:05 1.5 C 4.89 g/m*3 1.5 C 0 km/h
621 03-02-2010 04:12:05 1.2 C 4.79 g/m*3 1.2 C 0 km/h
622 03-02-2010 04:24:05 0.9 C 4.69 g/m*3 0.9 C 0 km/h
623 03-02-2010 04:36:05 0.8 C 4.66 g/m*3 0.8 C 0 km/h
624 03-02-2010 04:48:05 1 C 4.72 g/m*3 1 C 0 km/h
625 03-02-2010 05:00:05 1.1 C 4.81 g/m*3 1.1 C 0 km/h
Sensor: Nr:Datum:Temp:Abs-Feuchte:Windchill:Wind:
Aussen-T/F 626 03-02-2010 05:12:05 1.1 C 4.81 g/m*3 1.1 C 0 km/h
627 03-02-2010 05:24:05 1.1 C 4.86 g/m*3 1.1 C 0 km/h
628 03-02-2010 05:36:05 1.1 C 4.86 g/m*3 1.1 C 0 km/h
629 03-02-2010 05:48:05 1.2 C 4.89 g/m*3 1.2 C 0 km/h
630 03-02-2010 06:00:05 1.1 C 4.91 g/m*3 1.1 C 0 km/h
631 03-02-2010 06:12:05 1.1 C 4.91 g/m*3 1.1 C 0 km/h
632 03-02-2010 06:24:05 1.1 C 4.91 g/m*3 1.1 C 0 km/h
633 03-02-2010 06:36:05 1 C 4.88 g/m*3 1 C 0 km/h
634 03-02-2010 06:48:05 1.1 C 4.91 g/m*3 1.1 C 0 km/h
635 03-02-2010 07:00:05 1 C 4.88 g/m*3 1 C 0 km/h
636 03-02-2010 07:12:03 0.9 C 4.9 g/m*3 0.9 C 0 km/h
637 03-02-2010 07:24:02 1 C 4.88 g/m*3 1 C 0 km/h
638 03-02-2010 07:36:03 1 C 4.93 g/m*3 1 C 0 km/h
639 03-02-2010 07:48:02 1 C 4.93 g/m*3 1 C 0 km/h
640 03-02-2010 08:00:02 1 C 4.93 g/m*3 1 C 0 km/h
641 03-02-2010 08:12:01 1 C 4.93 g/m*3 1 C 0 km/h
642 03-02-2010 08:24:02 1 C 4.93 g/m*3 1 C 0 km/h
643 03-02-2010 08:36:02 1.1 C 4.96 g/m*3 1.1 C 0 km/h
644 03-02-2010 08:48:02 1.2 C 5 g/m*3 1.2 C 0 km/h
645 03-02-2010 09:00:02 1.2 C 5 g/m*3 1.2 C 0 km/h
646 03-02-2010 09:12:03 1.3 C 5.03 g/m*3 1.3 C 0 km/h
647 03-02-2010 09:24:02 1.5 C 5.1 g/m*3 1.5 C 0 km/h
648 03-02-2010 09:36:02 1.5 C 5.1 g/m*3 1.5 C 0 km/h
649 03-02-2010 09:48:02 1.7 C 5.17 g/m*3 1.7 C 0 km/h
650 03-02-2010 10:00:02 2 C 5.22 g/m*3 2 C 0 km/h
Sensor: Nr:Datum:Temp:Abs-Feuchte:Windchill:Wind:
Aussen-T/F 651 03-02-2010 10:12:01 2.2 C 5.29 g/m*3 2.2 C 0 km/h
652 03-02-2010 10:24:02 2.3 C 5.27 g/m*3 2.3 C 0 km/h
653 03-02-2010 10:36:02 2.7 C 5.36 g/m*3 2.7 C 0 km/h
654 03-02-2010 10:48:02 3.1 C 5.45 g/m*3 3.1 C 0 km/h
655 03-02-2010 11:00:02 3.1 C 5.33 g/m*3 3.1 C 0 km/h
656 03-02-2010 11:12:02 3 C 5.11 g/m*3 3 C 0 km/h
657 03-02-2010 11:24:02 3.3 C 5.22 g/m*3 3.3 C 0 km/h
658 03-02-2010 11:36:02 3.3 C 5.1 g/m*3 3.3 C 0 km/h
659 03-02-2010 11:48:02 3.1 C 4.97 g/m*3 3.1 C 0 km/h
660 03-02-2010 12:00:02 3.2 C 5.06 g/m*3 3.2 C 0 km/h
661 03-02-2010 12:12:01 3.1 C 5.03 g/m*3 3.1 C 0 km/h
662 03-02-2010 12:24:02 3 C 5.05 g/m*3 3 C 0 km/h
663 03-02-2010 12:36:02 3 C 5.11 g/m*3 3 C 0 km/h
664 03-02-2010 12:48:02 3.1 C 5.15 g/m*3 3.1 C 0 km/h
665 03-02-2010 13:00:02 3.1 C 5.21 g/m*3 3.1 C 0 km/h
666 03-02-2010 13:12:02 3.1 C 5.21 g/m*3 3.1 C 0 km/h
667 03-02-2010 13:24:02 3.3 C 5.28 g/m*3 3.3 C 0 km/h
668 03-02-2010 13:36:02 3.2 C 5.24 g/m*3 3.2 C 0 km/h
669 03-02-2010 13:48:02 3.3 C 5.28 g/m*3 3.3 C 0 km/h
670 03-02-2010 14:00:02 3.3 C 5.28 g/m*3 3.3 C 0 km/h
671 03-02-2010 14:12:02 3.3 C 5.28 g/m*3 3.3 C 0 km/h
672 03-02-2010 14:24:02 3.3 C 5.28 g/m*3 3.3 C 0 km/h
673 03-02-2010 14:36:02 3.3 C 5.28 g/m*3 3.3 C 0 km/h
674 03-02-2010 14:48:02 3.2 C 5.24 g/m*3 3.2 C 0 km/h
675 03-02-2010 15:00:02 3.2 C 5.24 g/m*3 3.2 C 0 km/h
Sensor: Nr:Datum:Temp:Abs-Feuchte:Windchill:Wind:
Aussen-T/F 676 03-02-2010 15:12:02 3.1 C 5.27 g/m*3 3.1 C 0 km/h
677 03-02-2010 15:24:02 2.9 C 5.2 g/m*3 2.9 C 0 km/h
678 03-02-2010 15:36:02 3 C 5.23 g/m*3 3 C 0 km/h
679 03-02-2010 15:48:02 2.9 C 5.26 g/m*3 2.9 C 0 km/h
680 03-02-2010 16:00:02 2.8 C 5.22 g/m*3 2.8 C 0 km/h
681 03-02-2010 16:12:02 2.6 C 5.15 g/m*3 2.6 C 0 km/h
682 03-02-2010 16:24:02 2.6 C 5.15 g/m*3 2.6 C 0 km/h
683 03-02-2010 16:36:02 2.5 C 5.12 g/m*3 2.5 C 0 km/h
684 03-02-2010 16:48:02 2.4 C 5.08 g/m*3 2.4 C 0 km/h
685 03-02-2010 17:00:02 2.4 C 5.14 g/m*3 2.4 C 0 km/h
686 03-02-2010 17:12:02 2.3 C 5.1 g/m*3 2.3 C 0 km/h
687 03-02-2010 17:24:02 2.2 C 5.07 g/m*3 2.2 C 0 km/h
688 03-02-2010 17:36:02 2.1 C 5.04 g/m*3 2.1 C 0 km/h
689 03-02-2010 17:48:01 1.9 C 5.02 g/m*3 1.9 C 0 km/h
690 03-02-2010 18:00:01 1.9 C 5.02 g/m*3 1.9 C 0 km/h
691 03-02-2010 18:12:02 1.9 C 5.02 g/m*3 1.9 C 0 km/h
692 03-02-2010 18:24:01 1.9 C 5.08 g/m*3 1.9 C 0 km/h
693 03-02-2010 18:36:01 1.9 C 5.08 g/m*3 1.9 C 0 km/h
694 03-02-2010 18:48:01 1.8 C 5.04 g/m*3 1.8 C 0 km/h
695 03-02-2010 19:00:01 1.8 C 5.04 g/m*3 1.8 C 0 km/h
696 03-02-2010 19:12:02 1.7 C 5.01 g/m*3 1.7 C 0 km/h
697 03-02-2010 19:20:01 1.7 C 5.01 g/m*3 1.7 C 0 km/h
698 03-02-2010 19:45:01 1.8 C 5.04 g/m*3 1.8 C 0 km/h
699 03-02-2010 20:10:02 1.9 C 5.13 g/m*3 1.9 C 0 km/h
700 03-02-2010 20:35:01 1.8 C 5.1 g/m*3 1.8 C 0 km/h
Sensor: Nr:Datum:Temp:Abs-Feuchte:Windchill:Wind:
Aussen-T/F 701 03-02-2010 21:00:01 1.7 C 5.06 g/m*3 1.7 C 0 km/h
702 03-02-2010 21:25:01 1.7 C 5.06 g/m*3 1.7 C 0 km/h
703 03-02-2010 21:50:02 1.8 C 5.1 g/m*3 1.8 C 0 km/h
704 03-02-2010 22:15:03 1.8 C 5.1 g/m*3 1.8 C 0 km/h
705 03-02-2010 22:40:02 1.8 C 5.1 g/m*3 1.8 C 0 km/h
706 03-02-2010 23:05:02 1.8 C 5.1 g/m*3 1.8 C 0 km/h
707 03-02-2010 23:30:02 1.8 C 5.1 g/m*3 1.8 C 0 km/h
708 03-02-2010 23:55:02 2 C 5.17 g/m*3 2 C 0 km/h
709 04-02-2010 00:20:02 2 C 5.17 g/m*3 2 C 0 km/h
710 04-02-2010 00:45:02 2 C 5.17 g/m*3 2 C 0 km/h
711 04-02-2010 01:10:02 2 C 5.17 g/m*3 2 C 0 km/h
712 04-02-2010 01:35:02 2 C 5.22 g/m*3 2 C 0 km/h
713 04-02-2010 02:00:02 2.1 C 5.26 g/m*3 2.1 C 0 km/h
714 04-02-2010 02:25:03 2.2 C 5.29 g/m*3 2.2 C 0 km/h
715 04-02-2010 02:51:03 2.1 C 5.26 g/m*3 2.1 C 0 km/h
716 04-02-2010 03:16:04 2.2 C 5.29 g/m*3 2.2 C 0 km/h
717 04-02-2010 03:41:01 2.3 C 5.33 g/m*3 2.3 C 0 km/h
718 04-02-2010 04:06:02 2.3 C 5.33 g/m*3 2.3 C 0 km/h
719 04-02-2010 04:31:02 2.3 C 5.33 g/m*3 2.3 C 0 km/h
720 04-02-2010 04:56:01 2.4 C 5.37 g/m*3 2.4 C 0 km/h
721 04-02-2010 05:21:02 2.5 C 5.46 g/m*3 2.5 C 0 km/h
722 04-02-2010 05:46:02 2.7 C 5.54 g/m*3 2.7 C 0 km/h
723 04-02-2010 06:11:01 3 C 5.65 g/m*3 3 C 0 km/h
724 04-02-2010 06:51:02 3.6 C 5.88 g/m*3 3.6 C 0 km/h
725 04-02-2010 07:16:02 3.4 C 5.8 g/m*3 3.4 C 0 km/h
Sensor: Nr:Datum:Temp:Abs-Feuchte:Windchill:Wind:
Aussen-T/F 726 04-02-2010 07:41:02 3.2 C 5.72 g/m*3 3.2 C 0 km/h
727 04-02-2010 08:06:02 3.3 C 5.76 g/m*3 3.3 C 0 km/h
728 04-02-2010 08:31:02 3.2 C 5.72 g/m*3 3.2 C 0 km/h
729 04-02-2010 08:56:02 3.3 C 5.76 g/m*3 3.3 C 0 km/h
730 04-02-2010 09:21:02 3.7 C 5.92 g/m*3 3.7 C 0 km/h
731 04-02-2010 09:46:02 4.5 C 6.24 g/m*3 4.5 C 0 km/h
732 04-02-2010 10:11:02 4.7 C 6.19 g/m*3 4.7 C 0 km/h
733 04-02-2010 10:36:02 5.2 C 6.13 g/m*3 5.2 C 0 km/h
734 04-02-2010 11:01:02 5.7 C 6.19 g/m*3 5.7 C 0 km/h
735 04-02-2010 11:26:02 6.3 C 6.07 g/m*3 6.3 C 0 km/h
736 04-02-2010 11:51:02 6.9 C 6 g/m*3 6.9 C 0 km/h
737 04-02-2010 12:16:02 7.1 C 5.85 g/m*3 7.1 C 0 km/h
738 04-02-2010 12:41:02 7.5 C 5.92 g/m*3 7.5 C 0 km/h
739 04-02-2010 13:06:02 8 C 5.95 g/m*3 8 C 0 km/h
740 04-02-2010 13:31:02 8.5 C 5.98 g/m*3 8.5 C 0 km/h
741 04-02-2010 13:56:02 8.7 C 5.88 g/m*3 8.7 C 0 km/h
742 04-02-2010 14:21:02 8.5 C 5.81 g/m*3 8.5 C 0 km/h
743 04-02-2010 14:46:03 8.2 C 5.61 g/m*3 8.2 C 0 km/h
744 04-02-2010 15:11:03 8.8 C 5.92 g/m*3 8.8 C 0 km/h
745 04-02-2010 15:36:03 8.8 C 5.74 g/m*3 8.8 C 0 km/h
746 04-02-2010 16:01:03 7.8 C 5.55 g/m*3 7.8 C 0 km/h
747 04-02-2010 16:26:03 7.5 C 5.52 g/m*3 7.5 C 0 km/h
748 04-02-2010 16:51:03 6.2 C 5.37 g/m*3 6.2 C 0 km/h
749 04-02-2010 17:16:03 5.7 C 5.48 g/m*3 5.7 C 0 km/h
750 04-02-2010 17:41:03 5 C 5.37 g/m*3 5 C 0 km/h
Sensor: Nr:Datum:Temp:Abs-Feuchte:Windchill:Wind:
Aussen-T/F 751 04-02-2010 18:06:03 4.4 C 5.29 g/m*3 4.4 C 0 km/h
752 04-02-2010 18:31:03 4 C 5.28 g/m*3 4 C 0 km/h
753 04-02-2010 18:56:03 3.6 C 5.2 g/m*3 3.6 C 0 km/h
754 04-02-2010 19:21:03 3.3 C 5.16 g/m*3 3.3 C 0 km/h
755 04-02-2010 19:46:03 3 C 5.11 g/m*3 3 C 0 km/h
756 04-02-2010 20:11:03 2.7 C 5.13 g/m*3 2.7 C 0 km/h
757 04-02-2010 20:36:03 2.5 C 5.12 g/m*3 2.5 C 0 km/h
758 04-02-2010 21:01:03 2.5 C 5.17 g/m*3 2.5 C 0 km/h
759 04-02-2010 21:26:03 2.6 C 5.27 g/m*3 2.6 C 0 km/h
760 04-02-2010 21:51:03 2.1 C 5.04 g/m*3 2.1 C 0 km/h
761 04-02-2010 22:16:03 2.2 C 5.18 g/m*3 2.2 C 0 km/h
762 04-02-2010 22:41:03 1.8 C 5.04 g/m*3 1.8 C 0 km/h
763 04-02-2010 23:06:03 1.8 C 5.1 g/m*3 1.8 C 0 km/h
764 04-02-2010 23:31:03 1.7 C 5.06 g/m*3 1.7 C 0 km/h
765 04-02-2010 23:56:04 2.1 C 5.2 g/m*3 2.1 C 0 km/h
766 05-02-2010 00:21:04 2.6 C 5.44 g/m*3 2.6 C 0 km/h
767 05-02-2010 00:46:04 2.2 C 5.24 g/m*3 2.2 C 0 km/h
768 05-02-2010 01:11:04 2 C 5.17 g/m*3 2 C 0 km/h
769 05-02-2010 01:36:04 1.7 C 5.12 g/m*3 1.7 C 0 km/h
770 05-02-2010 02:01:04 2.2 C 5.24 g/m*3 2.2 C 0 km/h
771 05-02-2010 02:26:04 2.6 C 5.38 g/m*3 2.6 C 0 km/h
772 05-02-2010 02:51:04 2.7 C 5.3 g/m*3 2.7 C 0 km/h
773 05-02-2010 03:16:04 2.7 C 5.19 g/m*3 2.7 C 0 km/h
774 05-02-2010 03:41:04 2.8 C 5.04 g/m*3 2.8 C 0 km/h
775 05-02-2010 04:06:04 2.8 C 5.04 g/m*3 2.8 C 0 km/h
Sensor: Nr:Datum:Temp:Abs-Feuchte:Windchill:Wind:
Aussen-T/F 776 05-02-2010 04:31:04 2.8 C 4.93 g/m*3 2.8 C 0 km/h
777 05-02-2010 04:56:04 2.8 C 4.93 g/m*3 2.8 C 0 km/h
778 05-02-2010 05:21:04 2.7 C 4.89 g/m*3 2.7 C 0 km/h
779 05-02-2010 05:46:04 2.7 C 4.84 g/m*3 2.7 C 0 km/h
780 05-02-2010 06:11:04 2.8 C 4.87 g/m*3 2.8 C 0 km/h
781 05-02-2010 06:36:04 2.7 C 4.84 g/m*3 2.7 C 0 km/h
782 05-02-2010 07:01:04 2.4 C 4.74 g/m*3 2.4 C 0 km/h
783 05-02-2010 07:26:04 2.5 C 4.89 g/m*3 2.5 C 0 km/h
784 05-02-2010 07:51:04 2.8 C 4.99 g/m*3 2.8 C 0 km/h
785 05-02-2010 08:16:04 3.2 C 4.88 g/m*3 3.2 C 0 km/h
786 05-02-2010 08:41:05 3.4 C 4.89 g/m*3 3.4 C 0 km/h
787 05-02-2010 09:06:05 3.6 C 4.89 g/m*3 3.6 C 0 km/h
788 05-02-2010 09:31:05 3.8 C 4.83 g/m*3 3.8 C 0 km/h
789 05-02-2010 09:56:05 4.1 C 4.67 g/m*3 4.1 C 0 km/h
790 05-02-2010 10:21:05 4.1 C 4.54 g/m*3 4.1 C 0 km/h
791 05-02-2010 10:46:05 4 C 4.51 g/m*3 4 C 0 km/h
792 05-02-2010 11:11:05 4.3 C 4.54 g/m*3 4.3 C 0 km/h
793 05-02-2010 11:36:05 4.3 C 4.41 g/m*3 4.3 C 0 km/h
794 05-02-2010 12:01:05 4.4 C 4.37 g/m*3 4.4 C 0 km/h
795 05-02-2010 12:26:05 4.4 C 4.31 g/m*3 4.4 C 0 km/h
796 05-02-2010 12:51:05 4.3 C 4.28 g/m*3 4.3 C 0 km/h
797 05-02-2010 13:16:05 4.5 C 4.4 g/m*3 4.5 C 0 km/h
798 05-02-2010 13:41:05 4.9 C 4.52 g/m*3 4.9 C 0 km/h
799 05-02-2010 14:06:05 5.1 C 4.38 g/m*3 5.1 C 0 km/h
800 05-02-2010 14:31:05 4.8 C 4.36 g/m*3 4.8 C 0 km/h
Sensor: Nr:Datum:Temp:Abs-Feuchte:Windchill:Wind:
Aussen-T/F 801 05-02-2010 14:56:05 4.6 C 4.37 g/m*3 4.6 C 0 km/h
802 05-02-2010 15:21:05 4.5 C 4.4 g/m*3 4.5 C 0 km/h
803 05-02-2010 15:46:05 4.2 C 4.38 g/m*3 4.2 C 0 km/h
804 05-02-2010 16:11:05 3.8 C 4.64 g/m*3 3.8 C 0 km/h
805 05-02-2010 16:36:05 3.6 C 4.7 g/m*3 3.6 C 0 km/h
806 05-02-2010 17:01:05 3.4 C 4.83 g/m*3 3.4 C 0 km/h
807 05-02-2010 17:26:05 3.4 C 4.95 g/m*3 3.4 C 0 km/h
808 05-02-2010 17:51:06 3.2 C 4.94 g/m*3 3.2 C 0 km/h
809 05-02-2010 18:16:06 3.3 C 5.04 g/m*3 3.3 C 0 km/h
810 05-02-2010 18:41:06 3.1 C 5.03 g/m*3 3.1 C 0 km/h
811 05-02-2010 19:06:06 3.2 C 5.12 g/m*3 3.2 C 0 km/h
812 05-02-2010 19:31:06 3 C 5.05 g/m*3 3 C 0 km/h
813 05-02-2010 19:56:06 3.1 C 5.09 g/m*3 3.1 C 0 km/h
814 05-02-2010 20:21:06 3 C 5.11 g/m*3 3 C 0 km/h
815 05-02-2010 20:46:06 2.8 C 5.1 g/m*3 2.8 C 0 km/h
816 05-02-2010 21:11:06 2.8 C 5.16 g/m*3 2.8 C 0 km/h
817 05-02-2010 21:36:06 2.6 C 5.09 g/m*3 2.6 C 0 km/h
818 05-02-2010 22:01:06 2.7 C 5.19 g/m*3 2.7 C 0 km/h
819 05-02-2010 22:26:06 2.9 C 5.26 g/m*3 2.9 C 0 km/h
820 05-02-2010 22:51:06 3 C 5.23 g/m*3 3 C 0 km/h
821 05-02-2010 23:16:06 3 C 5.23 g/m*3 3 C 0 km/h
822 05-02-2010 23:41:06 3 C 5.23 g/m*3 3 C 0 km/h
823 06-02-2010 00:06:06 2.8 C 5.22 g/m*3 2.8 C 0 km/h
824 06-02-2010 00:31:06 2.8 C 5.22 g/m*3 2.8 C 0 km/h
825 06-02-2010 00:56:06 2.7 C 5.19 g/m*3 2.7 C 0 km/h
Sensor: Nr:Datum:Temp:Abs-Feuchte:Windchill:Wind:
Aussen-T/F 826 06-02-2010 01:21:06 2.4 C 5.08 g/m*3 2.4 C 0 km/h
827 06-02-2010 01:46:06 2.1 C 4.98 g/m*3 2.1 C 0 km/h
828 06-02-2010 02:11:06 2.4 C 5.14 g/m*3 2.4 C 0 km/h
829 06-02-2010 02:36:06 2.7 C 5.24 g/m*3 2.7 C 0 km/h
830 06-02-2010 03:01:07 2.8 C 5.28 g/m*3 2.8 C 0 km/h
831 06-02-2010 03:26:07 2.5 C 5.17 g/m*3 2.5 C 0 km/h
832 06-02-2010 03:51:07 2.4 C 5.14 g/m*3 2.4 C 0 km/h
833 06-02-2010 04:16:07 2.6 C 5.27 g/m*3 2.6 C 0 km/h
834 06-02-2010 04:41:07 2.8 C 5.34 g/m*3 2.8 C 0 km/h
835 06-02-2010 05:06:07 3 C 5.41 g/m*3 3 C 0 km/h
836 06-02-2010 05:31:07 3 C 5.41 g/m*3 3 C 0 km/h
837 06-02-2010 05:56:07 3 C 5.41 g/m*3 3 C 0 km/h
838 06-02-2010 06:21:07 3.2 C 5.48 g/m*3 3.2 C 0 km/h
839 06-02-2010 06:46:07 3 C 5.41 g/m*3 3 C 0 km/h
840 06-02-2010 07:11:07 3 C 5.41 g/m*3 3 C 0 km/h
841 06-02-2010 07:36:07 3.1 C 5.45 g/m*3 3.1 C 0 km/h
842 06-02-2010 08:01:07 3.1 C 5.45 g/m*3 3.1 C 0 km/h
843 06-02-2010 08:26:07 3.2 C 5.48 g/m*3 3.2 C 0 km/h
844 06-02-2010 08:51:07 3.4 C 5.56 g/m*3 3.4 C 0 km/h
845 06-02-2010 09:16:07 3.7 C 5.67 g/m*3 3.7 C 0 km/h
846 06-02-2010 09:41:07 4 C 5.72 g/m*3 4 C 0 km/h
847 06-02-2010 10:06:07 4.6 C 5.89 g/m*3 4.6 C 0 km/h
848 06-02-2010 10:31:07 5.1 C 5.95 g/m*3 5.1 C 0 km/h
849 06-02-2010 10:56:07 5.6 C 6.01 g/m*3 5.6 C 0 km/h
850 06-02-2010 11:21:07 5.7 C 5.84 g/m*3 5.7 C 0 km/h
Sensor: Nr:Datum:Temp:Abs-Feuchte:Windchill:Wind:
Aussen-T/F 851 06-02-2010 11:46:07 6.3 C 5.85 g/m*3 6.3 C 0 km/h
852 06-02-2010 12:11:07 6.7 C 5.93 g/m*3 6.7 C 0 km/h
853 06-02-2010 12:36:08 6.9 C 6 g/m*3 6.9 C 0 km/h
854 06-02-2010 13:01:08 7.3 C 5.69 g/m*3 7.3 C 0 km/h
855 06-02-2010 13:26:08 7.4 C 5.65 g/m*3 7.4 C 0 km/h
856 06-02-2010 13:51:08 7.3 C 5.29 g/m*3 7.3 C 0 km/h
857 06-02-2010 14:16:08 7.1 C 5.23 g/m*3 7.1 C 0 km/h
858 06-02-2010 14:41:08 7 C 5.27 g/m*3 7 C 0 km/h
859 06-02-2010 15:06:08 6.7 C 5.39 g/m*3 6.7 C 0 km/h
860 06-02-2010 15:31:08 6.5 C 5.47 g/m*3 6.5 C 0 km/h
861 06-02-2010 15:56:08 6.4 C 5.36 g/m*3 6.4 C 0 km/h
862 06-02-2010 16:21:08 6.2 C 5.44 g/m*3 6.2 C 0 km/h
863 06-02-2010 16:46:08 6 C 5.37 g/m*3 6 C 0 km/h
864 06-02-2010 17:11:08 5.8 C 5.44 g/m*3 5.8 C 0 km/h
865 06-02-2010 17:36:08 5.7 C 5.48 g/m*3 5.7 C 0 km/h
866 06-02-2010 18:01:08 5.5 C 5.41 g/m*3 5.5 C 0 km/h
867 06-02-2010 18:26:08 5.3 C 5.41 g/m*3 5.3 C 0 km/h
868 06-02-2010 18:51:08 5.2 C 5.37 g/m*3 5.2 C 0 km/h
869 06-02-2010 19:16:08 5.1 C 5.4 g/m*3 5.1 C 0 km/h
870 06-02-2010 19:41:08 5.1 C 5.4 g/m*3 5.1 C 0 km/h
871 06-02-2010 20:06:08 5 C 5.37 g/m*3 5 C 0 km/h
872 06-02-2010 20:31:08 4.9 C 5.4 g/m*3 4.9 C 0 km/h
873 06-02-2010 20:56:08 4.9 C 5.47 g/m*3 4.9 C 0 km/h
874 06-02-2010 21:21:09 4.8 C 5.43 g/m*3 4.8 C 0 km/h
875 06-02-2010 21:46:09 4.8 C 5.43 g/m*3 4.8 C 0 km/h
Sensor: Nr:Datum:Temp:Abs-Feuchte:Windchill:Wind:
Aussen-T/F 876 06-02-2010 22:11:09 4.8 C 5.5 g/m*3 4.8 C 0 km/h
877 06-02-2010 22:36:09 4.7 C 5.46 g/m*3 4.7 C 0 km/h
878 06-02-2010 23:01:09 4.7 C 5.46 g/m*3 4.7 C 0 km/h
879 06-02-2010 23:26:09 4.6 C 5.43 g/m*3 4.6 C 0 km/h
880 06-02-2010 23:51:09 4.6 C 5.43 g/m*3 4.6 C 0 km/h
881 07-02-2010 00:16:09 4.5 C 5.46 g/m*3 4.5 C 0 km/h
882 07-02-2010 00:41:09 4.5 C 5.46 g/m*3 4.5 C 0 km/h
883 07-02-2010 01:06:09 4.5 C 5.46 g/m*3 4.5 C 0 km/h
884 07-02-2010 01:31:09 4.6 C 5.49 g/m*3 4.6 C 0 km/h
885 07-02-2010 01:56:09 4.4 C 5.42 g/m*3 4.4 C 0 km/h
886 07-02-2010 02:21:09 4.2 C 5.41 g/m*3 4.2 C 0 km/h
887 07-02-2010 02:46:09 4.1 C 5.38 g/m*3 4.1 C 0 km/h
888 07-02-2010 03:11:09 4.1 C 5.5 g/m*3 4.1 C 0 km/h
889 07-02-2010 03:36:09 4.1 C 5.5 g/m*3 4.1 C 0 km/h
890 07-02-2010 04:01:09 4.1 C 5.57 g/m*3 4.1 C 0 km/h
891 07-02-2010 04:26:09 4 C 5.59 g/m*3 4 C 0 km/h
892 07-02-2010 04:51:09 4 C 5.59 g/m*3 4 C 0 km/h
893 07-02-2010 05:16:09 4.1 C 5.7 g/m*3 4.1 C 0 km/h
894 07-02-2010 05:41:09 3.8 C 5.58 g/m*3 3.8 C 0 km/h
895 07-02-2010 06:06:10 3.8 C 5.65 g/m*3 3.8 C 0 km/h
896 07-02-2010 06:31:10 3.8 C 5.65 g/m*3 3.8 C 0 km/h
897 07-02-2010 06:56:10 3.8 C 5.65 g/m*3 3.8 C 0 km/h
898 07-02-2010 07:21:10 3.7 C 5.61 g/m*3 3.7 C 0 km/h
899 07-02-2010 07:46:10 3.7 C 5.67 g/m*3 3.7 C 0 km/h
900 07-02-2010 08:11:10 3.8 C 5.71 g/m*3 3.8 C 0 km/h
Sensor: Nr:Datum:Temp:Abs-Feuchte:Windchill:Wind:
Aussen-T/F 901 07-02-2010 08:36:10 3.7 C 5.67 g/m*3 3.7 C 0 km/h
902 07-02-2010 09:01:10 3.8 C 5.71 g/m*3 3.8 C 0 km/h
903 07-02-2010 09:26:10 3.9 C 5.75 g/m*3 3.9 C 0 km/h
904 07-02-2010 09:51:10 4.1 C 5.76 g/m*3 4.1 C 0 km/h
905 07-02-2010 10:16:10 4.1 C 5.7 g/m*3 4.1 C 0 km/h
906 07-02-2010 10:41:10 4.5 C 5.72 g/m*3 4.5 C 0 km/h
907 07-02-2010 11:06:10 4.9 C 5.6 g/m*3 4.9 C 0 km/h
908 07-02-2010 11:31:10 4.7 C 5.13 g/m*3 4.7 C 0 km/h
909 07-02-2010 11:56:10 4.5 C 4.93 g/m*3 4.5 C 0 km/h
910 07-02-2010 12:21:10 5.3 C 5.06 g/m*3 5.3 C 0 km/h
911 07-02-2010 12:46:10 5.7 C 4.84 g/m*3 5.7 C 0 km/h
912 07-02-2010 13:11:10 5.6 C 4.67 g/m*3 5.6 C 0 km/h
913 07-02-2010 13:36:10 5.8 C 4.66 g/m*3 5.8 C 0 km/h
914 07-02-2010 14:01:10 6 C 4.57 g/m*3 6 C 0 km/h
915 07-02-2010 14:26:10 6.1 C 4.53 g/m*3 6.1 C 0 km/h
916 07-02-2010 14:51:10 5.7 C 4.41 g/m*3 5.7 C 0 km/h
917 07-02-2010 15:16:11 5.5 C 4.49 g/m*3 5.5 C 0 km/h
918 07-02-2010 15:41:11 5.4 C 4.47 g/m*3 5.4 C 0 km/h
919 07-02-2010 16:06:11 5 C 4.62 g/m*3 5 C 0 km/h
920 07-02-2010 16:31:11 4.8 C 4.76 g/m*3 4.8 C 0 km/h
921 07-02-2010 16:56:11 4.6 C 4.83 g/m*3 4.6 C 0 km/h
922 07-02-2010 17:21:11 4.7 C 4.93 g/m*3 4.7 C 0 km/h
923 07-02-2010 17:46:11 4.5 C 4.93 g/m*3 4.5 C 0 km/h
924 07-02-2010 18:11:11 4.4 C 4.96 g/m*3 4.4 C 0 km/h
925 07-02-2010 18:36:11 4.2 C 4.96 g/m*3 4.2 C 0 km/h
Sensor: Nr:Datum:Temp:Abs-Feuchte:Windchill:Wind:
Aussen-T/F 926 07-02-2010 19:01:11 4.1 C 4.86 g/m*3 4.1 C 0 km/h
927 07-02-2010 19:26:11 3.7 C 4.49 g/m*3 3.7 C 0 km/h
928 07-02-2010 19:51:11 3.7 C 4.42 g/m*3 3.7 C 0 km/h
929 07-02-2010 20:16:11 3.5 C 4.37 g/m*3 3.5 C 0 km/h
930 07-02-2010 20:41:11 3.3 C 4.37 g/m*3 3.3 C 0 km/h
931 07-02-2010 21:06:11 3 C 4.22 g/m*3 3 C 0 km/h
932 07-02-2010 21:31:11 2.7 C 4.08 g/m*3 2.7 C 0 km/h
933 07-02-2010 21:56:11 2.5 C 3.97 g/m*3 2.5 C 0 km/h
934 07-02-2010 22:21:11 2.4 C 3.83 g/m*3 2.4 C 0 km/h
935 07-02-2010 22:46:11 2 C 3.56 g/m*3 2 C 0 km/h
936 07-02-2010 23:11:11 2 C 3.67 g/m*3 2 C 0 km/h
937 07-02-2010 23:36:12 1.7 C 3.65 g/m*3 1.7 C 0 km/h
938 08-02-2010 00:01:12 1.4 C 3.52 g/m*3 1.4 C 0 km/h
939 08-02-2010 00:26:12 1.6 C 3.68 g/m*3 1.6 C 0 km/h
940 08-02-2010 00:51:12 1.4 C 3.47 g/m*3 1.4 C 0 km/h
941 08-02-2010 01:16:12 1.2 C 3.42 g/m*3 1.2 C 0 km/h
942 08-02-2010 01:41:12 1 C 3.43 g/m*3 1 C 0 km/h
943 08-02-2010 02:06:12 0.8 C 3.48 g/m*3 0.8 C 0 km/h
944 08-02-2010 02:31:12 0.8 C 3.48 g/m*3 0.8 C 0 km/h
945 08-02-2010 02:56:12 0.7 C 3.46 g/m*3 0.7 C 0 km/h
946 08-02-2010 03:21:12 0.5 C 3.41 g/m*3 0.5 C 0 km/h
947 08-02-2010 03:46:12 0.5 C 3.41 g/m*3 0.5 C 0 km/h
948 08-02-2010 04:11:12 0.3 C 3.31 g/m*3 0.3 C 0 km/h
949 08-02-2010 04:36:12 0.3 C 3.31 g/m*3 0.3 C 0 km/h
950 08-02-2010 05:01:12 0.2 C 3.24 g/m*3 0.2 C 0 km/h
Sensor: Nr:Datum:Temp:Abs-Feuchte:Windchill:Wind:
Aussen-T/F 951 08-02-2010 05:26:12 -0.1 C 3.22 g/m*3 -0.1 C 0 km/h
952 08-02-2010 05:51:12 -0.3 C 3.23 g/m*3 -0.3 C 0 km/h
953 08-02-2010 06:16:12 -0.4 C 3.25 g/m*3 -0.4 C 0 km/h
954 08-02-2010 06:41:12 -0.3 C 3.23 g/m*3 -0.3 C 0 km/h
955 08-02-2010 07:06:12 -0.5 C 3.18 g/m*3 -0.5 C 0 km/h
956 08-02-2010 07:31:12 -0.6 C 3.16 g/m*3 -0.6 C 0 km/h
957 08-02-2010 07:56:12 -0.8 C 3.07 g/m*3 -0.8 C 0 km/h
958 08-02-2010 08:21:13 -0.9 C 3.05 g/m*3 -0.9 C 0 km/h
959 08-02-2010 08:46:13 -0.9 C 3 g/m*3 -0.9 C 0 km/h
960 08-02-2010 09:11:13 -0.7 C 3 g/m*3 -0.7 C 0 km/h
961 08-02-2010 09:36:13 -0.8 C 2.93 g/m*3 -0.8 C 0 km/h
962 08-02-2010 10:01:13 -0.6 C 2.93 g/m*3 -0.6 C 0 km/h
963 08-02-2010 10:26:13 -0.6 C 2.88 g/m*3 -0.6 C 0 km/h
964 08-02-2010 10:51:13 -0.5 C 2.9 g/m*3 -0.5 C 0 km/h
965 08-02-2010 11:16:13 -0.5 C 2.86 g/m*3 -0.5 C 0 km/h
966 08-02-2010 11:41:13 -0.2 C 2.72 g/m*3 -0.2 C 0 km/h
967 08-02-2010 12:06:13 -0.3 C 2.66 g/m*3 -0.3 C 0 km/h
968 08-02-2010 12:31:13 -0.4 C 2.5 g/m*3 -0.4 C 0 km/h
969 08-02-2010 12:56:13 0.3 C 2.57 g/m*3 0.3 C 0 km/h
970 08-02-2010 13:21:13 0.5 C 2.56 g/m*3 0.5 C 0 km/h
971 08-02-2010 13:46:13 0.8 C 2.66 g/m*3 0.8 C 0 km/h
972 08-02-2010 14:11:13 0.6 C 2.63 g/m*3 0.6 C 0 km/h
973 08-02-2010 14:36:13 0.5 C 2.66 g/m*3 0.5 C 0 km/h
974 08-02-2010 15:01:13 -0.2 C 2.63 g/m*3 -0.2 C 0 km/h
975 08-02-2010 15:26:13 -0.6 C 2.6 g/m*3 -0.6 C 0 km/h
Sensor: Nr:Datum:Temp:Abs-Feuchte:Windchill:Wind:
Aussen-T/F 976 08-02-2010 15:51:13 -1.1 C 2.51 g/m*3 -1.1 C 0 km/h
977 08-02-2010 16:16:13 -1.1 C 2.6 g/m*3 -1.1 C 0 km/h
978 08-02-2010 16:41:13 -1.4 C 2.55 g/m*3 -1.4 C 0 km/h
979 08-02-2010 17:06:13 -1.9 C 2.55 g/m*3 -1.9 C 0 km/h
980 08-02-2010 17:31:14 -2.1 C 2.51 g/m*3 -2.1 C 0 km/h
981 08-02-2010 17:56:14 -2.3 C 2.48 g/m*3 -2.3 C 0 km/h
982 08-02-2010 18:21:14 -2.3 C 2.52 g/m*3 -2.3 C 0 km/h
983 08-02-2010 18:46:14 -2.4 C 2.5 g/m*3 -2.4 C 0 km/h
984 08-02-2010 19:11:14 -2.4 C 2.5 g/m*3 -2.4 C 0 km/h
985 08-02-2010 19:36:14 -2.5 C 2.48 g/m*3 -2.5 C 0 km/h
986 08-02-2010 20:01:14 -2.6 C 2.46 g/m*3 -2.6 C 0 km/h
987 08-02-2010 20:26:14 -2.6 C 2.46 g/m*3 -2.6 C 0 km/h
988 08-02-2010 20:51:14 -2.6 C 2.51 g/m*3 -2.6 C 0 km/h
989 08-02-2010 21:16:14 -2.6 C 2.51 g/m*3 -2.6 C 0 km/h
990 08-02-2010 21:41:14 -2.6 C 2.51 g/m*3 -2.6 C 0 km/h
991 08-02-2010 22:06:14 -2.5 C 2.52 g/m*3 -2.5 C 0 km/h
992 08-02-2010 22:31:14 -2.7 C 2.45 g/m*3 -2.7 C 0 km/h
993 08-02-2010 22:56:14 -2.8 C 2.39 g/m*3 -2.8 C 0 km/h
994 08-02-2010 23:21:14 -3.1 C 2.34 g/m*3 -3.1 C 0 km/h
995 08-02-2010 23:46:14 -3.1 C 2.34 g/m*3 -3.1 C 0 km/h
996 09-02-2010 00:11:14 -3.3 C 2.31 g/m*3 -3.3 C 0 km/h
997 09-02-2010 00:36:14 -3.4 C 2.33 g/m*3 -3.4 C 0 km/h
998 09-02-2010 01:01:14 -3.3 C 2.38 g/m*3 -3.3 C 0 km/h
999 09-02-2010 01:26:14 -3.2 C 2.36 g/m*3 -3.2 C 0 km/h
1000 09-02-2010 01:51:14 -3.3 C 2.35 g/m*3 -3.3 C 0 km/h
Sensor: Nr:Datum:Temp:Abs-Feuchte:Windchill:Wind:
Aussen-T/F 1001 09-02-2010 02:16:14 -3.2 C 2.36 g/m*3 -3.2 C 0 km/h
1002 09-02-2010 02:41:15 -3.2 C 2.32 g/m*3 -3.2 C 0 km/h
1003 09-02-2010 03:06:15 -3.2 C 2.32 g/m*3 -3.2 C 0 km/h
1004 09-02-2010 03:31:15 -3.4 C 2.29 g/m*3 -3.4 C 0 km/h
1005 09-02-2010 03:56:15 -3.4 C 2.29 g/m*3 -3.4 C 0 km/h
1006 09-02-2010 04:21:15 -3.4 C 2.29 g/m*3 -3.4 C 0 km/h
1007 09-02-2010 04:46:15 -3.5 C 2.27 g/m*3 -3.5 C 0 km/h
1008 09-02-2010 05:11:15 -3.5 C 2.27 g/m*3 -3.5 C 0 km/h
1009 09-02-2010 05:36:15 -3.5 C 2.27 g/m*3 -3.5 C 0 km/h
1010 09-02-2010 06:01:15 -3.7 C 2.28 g/m*3 -3.7 C 0 km/h
1011 09-02-2010 06:26:15 -3.7 C 2.32 g/m*3 -3.7 C 0 km/h
1012 09-02-2010 06:51:15 -3.7 C 2.32 g/m*3 -3.7 C 0 km/h
1013 09-02-2010 07:16:15 -3.8 C 2.26 g/m*3 -3.8 C 0 km/h
1014 09-02-2010 07:41:15 -3.8 C 2.3 g/m*3 -3.8 C 0 km/h
1015 09-02-2010 08:06:15 -3.9 C 2.28 g/m*3 -3.9 C 0 km/h
1016 09-02-2010 08:31:15 -3.9 C 2.28 g/m*3 -3.9 C 0 km/h
1017 09-02-2010 08:56:15 -4.1 C 2.25 g/m*3 -4.1 C 0 km/h
1018 09-02-2010 09:21:15 -4 C 2.27 g/m*3 -4 C 0 km/h
1019 09-02-2010 09:46:15 -3.9 C 2.32 g/m*3 -3.9 C 0 km/h
1020 09-02-2010 10:11:15 -4 C 2.38 g/m*3 -4 C 0 km/h
1021 09-02-2010 10:36:15 -3.6 C 2.52 g/m*3 -3.6 C 0 km/h
1022 09-02-2010 11:01:15 -3.2 C 2.56 g/m*3 -3.2 C 0 km/h
1023 09-02-2010 11:26:15 -3.4 C 2.37 g/m*3 -3.4 C 0 km/h
1024 09-02-2010 11:51:16 -3.5 C 2.35 g/m*3 -3.5 C 0 km/h
1025 09-02-2010 12:16:16 -3.4 C 2.25 g/m*3 -3.4 C 0 km/h
Sensor: Nr:Datum:Temp:Abs-Feuchte:Windchill:Wind:
Aussen-T/F 1026 09-02-2010 12:41:16 -3.1 C 2.18 g/m*3 -3.1 C 0 km/h
1027 09-02-2010 13:06:16 -2.8 C 2.23 g/m*3 -2.8 C 0 km/h
1028 09-02-2010 13:31:16 -2.8 C 2.11 g/m*3 -2.8 C 0 km/h
1029 09-02-2010 13:56:16 -3 C 2.04 g/m*3 -3 C 0 km/h
1030 09-02-2010 14:21:16 -3.4 C 2.02 g/m*3 -3.4 C 0 km/h
1031 09-02-2010 14:46:16 -3.5 C 2.01 g/m*3 -3.5 C 0 km/h
1032 09-02-2010 15:11:16 -3.5 C 1.97 g/m*3 -3.5 C 0 km/h
1033 09-02-2010 15:36:16 -3.6 C 2 g/m*3 -3.6 C 0 km/h
1034 09-02-2010 16:01:16 -3.8 C 1.97 g/m*3 -3.8 C 0 km/h
1035 09-02-2010 16:26:16 -3.6 C 2 g/m*3 -3.6 C 0 km/h
1036 09-02-2010 16:51:16 -3.5 C 1.97 g/m*3 -3.5 C 0 km/h
1037 09-02-2010 17:16:16 -3.9 C 2.03 g/m*3 -3.9 C 0 km/h
1038 09-02-2010 17:41:16 -4 C 2.09 g/m*3 -4 C 0 km/h
1039 09-02-2010 18:06:16 -4.1 C 2.14 g/m*3 -4.1 C 0 km/h
1040 09-02-2010 18:31:16 -4.1 C 2.14 g/m*3 -4.1 C 0 km/h
1041 09-02-2010 18:56:16 -4.2 C 2.09 g/m*3 -4.2 C 0 km/h
1042 09-02-2010 19:21:16 -4.1 C 2.18 g/m*3 -4.1 C 0 km/h
1043 09-02-2010 19:46:16 -4.1 C 2.18 g/m*3 -4.1 C 0 km/h
1044 09-02-2010 20:11:16 -4.5 C 2.08 g/m*3 -4.5 C 0 km/h
1045 09-02-2010 20:36:16 -4.6 C 2.1 g/m*3 -4.6 C 0 km/h
1046 09-02-2010 21:01:17 -4.6 C 1.93 g/m*3 -4.6 C 0 km/h
1047 09-02-2010 21:26:17 -4.6 C 1.75 g/m*3 -4.6 C 0 km/h
1048 09-02-2010 21:51:17 -4.7 C 1.77 g/m*3 -4.7 C 0 km/h
1049 09-02-2010 22:16:17 -4.6 C 1.82 g/m*3 -4.6 C 0 km/h
1050 09-02-2010 22:41:17 -4.5 C 1.87 g/m*3 -4.5 C 0 km/h
Sensor: Nr:Datum:Temp:Abs-Feuchte:Windchill:Wind:
Aussen-T/F 1051 09-02-2010 23:06:17 -4.6 C 1.93 g/m*3 -4.6 C 0 km/h
1052 09-02-2010 23:31:17 -4.5 C 1.94 g/m*3 -4.5 C 0 km/h
1053 09-02-2010 23:56:17 -4.5 C 1.94 g/m*3 -4.5 C 0 km/h
1054 10-02-2010 00:21:17 -4.6 C 2.07 g/m*3 -4.6 C 0 km/h
1055 10-02-2010 00:46:17 -4.7 C 2.12 g/m*3 -4.7 C 0 km/h
1056 10-02-2010 01:11:17 -4.7 C 2.12 g/m*3 -4.7 C 0 km/h
1057 10-02-2010 01:36:17 -4.7 C 2.16 g/m*3 -4.7 C 0 km/h
1058 10-02-2010 02:01:17 -4.7 C 2.23 g/m*3 -4.7 C 0 km/h
1059 10-02-2010 02:26:17 -4.6 C 2.28 g/m*3 -4.6 C 0 km/h
1060 10-02-2010 02:51:17 -4.7 C 2.3 g/m*3 -4.7 C 0 km/h
1061 10-02-2010 03:16:17 -4.7 C 2.33 g/m*3 -4.7 C 0 km/h
1062 10-02-2010 03:41:17 -4.9 C 2.33 g/m*3 -4.9 C 0 km/h
1063 10-02-2010 04:06:17 -4.9 C 2.3 g/m*3 -4.9 C 0 km/h
1064 10-02-2010 04:31:17 -5 C 2.32 g/m*3 -5 C 0 km/h
1065 10-02-2010 04:56:17 -5 C 2.35 g/m*3 -5 C 0 km/h
1066 10-02-2010 05:21:17 -5 C 2.38 g/m*3 -5 C 0 km/h
1067 10-02-2010 05:46:17 -5 C 2.35 g/m*3 -5 C 0 km/h
1068 10-02-2010 06:11:18 -5 C 2.35 g/m*3 -5 C 0 km/h
1069 10-02-2010 06:36:18 -5.2 C 2.32 g/m*3 -5.2 C 0 km/h
1070 10-02-2010 07:01:18 -5.4 C 2.28 g/m*3 -5.4 C 0 km/h
1071 10-02-2010 07:26:18 -5.6 C 2.31 g/m*3 -5.6 C 0 km/h
1072 10-02-2010 07:51:18 -5.4 C 2.38 g/m*3 -5.4 C 0 km/h
1073 10-02-2010 08:16:18 -5.5 C 2.36 g/m*3 -5.5 C 0 km/h
1074 10-02-2010 08:41:18 -5.3 C 2.33 g/m*3 -5.3 C 0 km/h
1075 10-02-2010 09:06:18 -5 C 2.42 g/m*3 -5 C 0 km/h
Sensor: Nr:Datum:Temp:Abs-Feuchte:Windchill:Wind:
Aussen-T/F 1076 10-02-2010 09:31:18 -4.7 C 2.4 g/m*3 -4.7 C 0 km/h
1077 10-02-2010 09:56:18 -4.7 C 2.4 g/m*3 -4.7 C 0 km/h
1078 10-02-2010 10:21:18 -4.4 C 2.45 g/m*3 -4.4 C 0 km/h
1079 10-02-2010 10:46:18 -4.4 C 2.35 g/m*3 -4.4 C 0 km/h
1080 10-02-2010 11:11:18 -4 C 2.41 g/m*3 -4 C 0 km/h
1081 10-02-2010 11:36:18 -3.7 C 2.35 g/m*3 -3.7 C 0 km/h
1082 10-02-2010 12:01:18 -3.7 C 2.39 g/m*3 -3.7 C 0 km/h
1083 10-02-2010 12:26:18 -3.2 C 2.32 g/m*3 -3.2 C 0 km/h
1084 10-02-2010 12:51:18 -3.4 C 2.37 g/m*3 -3.4 C 0 km/h
1085 10-02-2010 13:16:18 -3.2 C 2.52 g/m*3 -3.2 C 0 km/h
1086 10-02-2010 13:41:18 -2.6 C 2.26 g/m*3 -2.6 C 0 km/h
1087 10-02-2010 14:06:18 -3.2 C 2.21 g/m*3 -3.2 C 0 km/h
1088 10-02-2010 14:31:18 -3.3 C 2.27 g/m*3 -3.3 C 0 km/h
1089 10-02-2010 14:56:18 -3.2 C 2.25 g/m*3 -3.2 C 0 km/h
1090 10-02-2010 15:21:18 -3.3 C 2.42 g/m*3 -3.3 C 0 km/h
1091 10-02-2010 15:46:19 -3 C 2.24 g/m*3 -3 C 0 km/h
1092 10-02-2010 16:11:19 -3.4 C 2.29 g/m*3 -3.4 C 0 km/h
1093 10-02-2010 16:36:19 -3.5 C 2.27 g/m*3 -3.5 C 0 km/h
1094 10-02-2010 17:01:19 -3.4 C 2.29 g/m*3 -3.4 C 0 km/h
1095 10-02-2010 17:26:19 -3.8 C 2.3 g/m*3 -3.8 C 0 km/h
1096 10-02-2010 17:51:19 -4.4 C 2.42 g/m*3 -4.4 C 0 km/h
1097 10-02-2010 18:16:19 -5.2 C 2.32 g/m*3 -5.2 C 0 km/h
1098 10-02-2010 18:41:19 -5.2 C 2.45 g/m*3 -5.2 C 0 km/h
1099 10-02-2010 19:06:19 -5.3 C 2.37 g/m*3 -5.3 C 0 km/h
1100 10-02-2010 19:31:19 -6 C 2.28 g/m*3 -6 C 0 km/h
Sensor: Nr:Datum:Temp:Abs-Feuchte:Windchill:Wind:
Aussen-T/F 1101 10-02-2010 19:56:19 -6.2 C 2.31 g/m*3 -6.2 C 0 km/h
1102 10-02-2010 20:21:19 -6.5 C 2.29 g/m*3 -6.5 C 0 km/h
1103 10-02-2010 20:46:19 -6.3 C 2.35 g/m*3 -6.3 C 0 km/h
1104 10-02-2010 21:11:19 -6.1 C 2.39 g/m*3 -6.1 C 0 km/h
1105 10-02-2010 21:36:19 -6.6 C 2.27 g/m*3 -6.6 C 0 km/h
1106 10-02-2010 22:01:19 -6.3 C 2.35 g/m*3 -6.3 C 0 km/h
1107 10-02-2010 22:26:19 -6.5 C 2.26 g/m*3 -6.5 C 0 km/h
1108 10-02-2010 22:51:19 -6.9 C 2.16 g/m*3 -6.9 C 0 km/h
1109 10-02-2010 23:16:19 -7.4 C 2.09 g/m*3 -7.4 C 0 km/h
1110 10-02-2010 23:41:19 -7 C 2.18 g/m*3 -7 C 0 km/h
1111 11-02-2010 00:06:20 -6.5 C 2.29 g/m*3 -6.5 C 0 km/h
1112 11-02-2010 00:31:20 -6.5 C 2.17 g/m*3 -6.5 C 0 km/h
1113 11-02-2010 00:56:20 -6.6 C 2.12 g/m*3 -6.6 C 0 km/h
1114 11-02-2010 01:21:20 -7.5 C 1.96 g/m*3 -7.5 C 0 km/h
1115 11-02-2010 01:46:20 -8.1 C 1.9 g/m*3 -8.1 C 0 km/h
1116 11-02-2010 02:11:20 -7.7 C 2.04 g/m*3 -7.7 C 0 km/h
1117 11-02-2010 02:36:20 -7.4 C 2.09 g/m*3 -7.4 C 0 km/h
1118 11-02-2010 03:01:20 -7.2 C 2.12 g/m*3 -7.2 C 0 km/h
1119 11-02-2010 03:26:20 -6.9 C 2.14 g/m*3 -6.9 C 0 km/h
1120 11-02-2010 03:51:20 -6.8 C 2.12 g/m*3 -6.8 C 0 km/h
1121 11-02-2010 04:16:20 -6.8 C 2.09 g/m*3 -6.8 C 0 km/h
1122 11-02-2010 04:41:20 -6.4 C 2.18 g/m*3 -6.4 C 0 km/h
1123 11-02-2010 05:06:20 -6.2 C 2.18 g/m*3 -6.2 C 0 km/h
1124 11-02-2010 05:31:20 -6.1 C 2.23 g/m*3 -6.1 C 0 km/h
1125 11-02-2010 05:56:20 -6 C 2.31 g/m*3 -6 C 0 km/h
Sensor: Nr:Datum:Temp:Abs-Feuchte:Windchill:Wind:
Aussen-T/F 1126 11-02-2010 06:21:20 -5.9 C 2.36 g/m*3 -5.9 C 0 km/h
1127 11-02-2010 06:46:20 -5.8 C 2.44 g/m*3 -5.8 C 0 km/h
1128 11-02-2010 07:11:20 -5.7 C 2.46 g/m*3 -5.7 C 0 km/h
1129 11-02-2010 07:36:20 -5.6 C 2.51 g/m*3 -5.6 C 0 km/h
1130 11-02-2010 08:01:20 -5.5 C 2.56 g/m*3 -5.5 C 0 km/h
1131 11-02-2010 08:26:20 -5.4 C 2.58 g/m*3 -5.4 C 0 km/h
1132 11-02-2010 08:51:20 -5.2 C 2.62 g/m*3 -5.2 C 0 km/h
1133 11-02-2010 09:16:20 -4.9 C 2.64 g/m*3 -4.9 C 0 km/h
1134 11-02-2010 09:41:21 -4.5 C 2.68 g/m*3 -4.5 C 0 km/h
1135 11-02-2010 10:06:21 -4 C 2.74 g/m*3 -4 C 0 km/h
1136 11-02-2010 10:31:21 -3.7 C 2.77 g/m*3 -3.7 C 0 km/h
1137 11-02-2010 10:56:21 -3.3 C 2.77 g/m*3 -3.3 C 0 km/h
1138 11-02-2010 11:21:21 -2.9 C 2.77 g/m*3 -2.9 C 0 km/h
1139 11-02-2010 11:46:21 -2.7 C 2.81 g/m*3 -2.7 C 0 km/h
1140 11-02-2010 12:11:21 -2.5 C 2.89 g/m*3 -2.5 C 0 km/h
1141 11-02-2010 12:36:21 -2 C 2.99 g/m*3 -2 C 0 km/h
1142 11-02-2010 13:01:21 -1.5 C 3.1 g/m*3 -1.5 C 0 km/h
1143 11-02-2010 13:26:21 -1.1 C 3.05 g/m*3 -1.1 C 0 km/h
1144 11-02-2010 13:51:21 -1.3 C 2.92 g/m*3 -1.3 C 0 km/h
1145 11-02-2010 14:16:21 -1.1 C 3.1 g/m*3 -1.1 C 0 km/h
1146 11-02-2010 14:41:21 -1.2 C 2.94 g/m*3 -1.2 C 0 km/h
1147 11-02-2010 15:06:21 -1.2 C 2.9 g/m*3 -1.2 C 0 km/h
1148 11-02-2010 15:31:21 -1.6 C 2.86 g/m*3 -1.6 C 0 km/h
1149 11-02-2010 15:56:21 -1.3 C 2.88 g/m*3 -1.3 C 0 km/h
1150 11-02-2010 16:21:21 -1.4 C 2.9 g/m*3 -1.4 C 0 km/h
Sensor: Nr:Datum:Temp:Abs-Feuchte:Windchill:Wind:
Aussen-T/F 1151 11-02-2010 16:46:21 -1.6 C 2.9 g/m*3 -1.6 C 0 km/h
1152 11-02-2010 17:11:21 -1.7 C 2.84 g/m*3 -1.7 C 0 km/h
1153 11-02-2010 17:36:21 -1.7 C 2.76 g/m*3 -1.7 C 0 km/h
1154 11-02-2010 18:01:21 -1.8 C 2.74 g/m*3 -1.8 C 0 km/h
1155 11-02-2010 18:26:21 -1.8 C 2.74 g/m*3 -1.8 C 0 km/h
1156 11-02-2010 18:51:22 -1.8 C 2.69 g/m*3 -1.8 C 0 km/h
1157 11-02-2010 19:16:22 -1.8 C 2.65 g/m*3 -1.8 C 0 km/h
1158 11-02-2010 19:41:22 -1.8 C 2.65 g/m*3 -1.8 C 0 km/h
1159 11-02-2010 20:06:22 -1.8 C 2.65 g/m*3 -1.8 C 0 km/h
1160 11-02-2010 20:31:22 -1.8 C 2.69 g/m*3 -1.8 C 0 km/h
1161 11-02-2010 20:56:22 -1.8 C 2.74 g/m*3 -1.8 C 0 km/h
1162 11-02-2010 21:21:22 -2.1 C 2.85 g/m*3 -2.1 C 0 km/h
1163 11-02-2010 21:46:22 -2.2 C 2.95 g/m*3 -2.2 C 0 km/h
1164 11-02-2010 22:11:22 -2.5 C 3.05 g/m*3 -2.5 C 0 km/h
1165 11-02-2010 22:36:22 -2.5 C 3.09 g/m*3 -2.5 C 0 km/h
1166 11-02-2010 23:01:22 -2.5 C 3.13 g/m*3 -2.5 C 0 km/h
1167 11-02-2010 23:26:22 -2.6 C 3.15 g/m*3 -2.6 C 0 km/h
1168 11-02-2010 23:51:22 -2.5 C 3.17 g/m*3 -2.5 C 0 km/h
1169 12-02-2010 00:16:22 -2.6 C 3.19 g/m*3 -2.6 C 0 km/h
1170 12-02-2010 00:41:22 -2.7 C 3.21 g/m*3 -2.7 C 0 km/h
1171 12-02-2010 01:06:22 -2.7 C 3.21 g/m*3 -2.7 C 0 km/h
1172 12-02-2010 01:31:22 -2.7 C 3.21 g/m*3 -2.7 C 0 km/h
1173 12-02-2010 01:56:22 -2.6 C 3.19 g/m*3 -2.6 C 0 km/h
1174 12-02-2010 02:21:22 -2.6 C 3.19 g/m*3 -2.6 C 0 km/h
1175 12-02-2010 02:46:22 -2.6 C 3.15 g/m*3 -2.6 C 0 km/h
Sensor: Nr:Datum:Temp:Abs-Feuchte:Windchill:Wind:
Aussen-T/F 1176 12-02-2010 03:11:22 -2.6 C 3.19 g/m*3 -2.6 C 0 km/h
1177 12-02-2010 03:36:22 -2.7 C 3.17 g/m*3 -2.7 C 0 km/h
1178 12-02-2010 04:01:23 -2.6 C 3.23 g/m*3 -2.6 C 0 km/h
1179 12-02-2010 04:26:23 -2.6 C 3.19 g/m*3 -2.6 C 0 km/h
1180 12-02-2010 04:51:23 -2.6 C 3.19 g/m*3 -2.6 C 0 km/h
1181 12-02-2010 05:16:23 -2.6 C 3.19 g/m*3 -2.6 C 0 km/h
1182 12-02-2010 05:41:23 -2.5 C 3.21 g/m*3 -2.5 C 0 km/h
1183 12-02-2010 06:06:23 -2.6 C 3.15 g/m*3 -2.6 C 0 km/h
1184 12-02-2010 06:31:23 -2.5 C 3.17 g/m*3 -2.5 C 0 km/h
1185 12-02-2010 06:56:23 -2.6 C 3.19 g/m*3 -2.6 C 0 km/h
1186 12-02-2010 07:21:23 -2.7 C 3.17 g/m*3 -2.7 C 0 km/h
1187 12-02-2010 07:46:23 -2.8 C 3.07 g/m*3 -2.8 C 0 km/h
1188 12-02-2010 08:11:23 -2.7 C 3.01 g/m*3 -2.7 C 0 km/h
1189 12-02-2010 08:36:23 -2.6 C 3.03 g/m*3 -2.6 C 0 km/h
1190 12-02-2010 09:01:23 -2.6 C 3.03 g/m*3 -2.6 C 0 km/h
1191 12-02-2010 09:26:23 -2.5 C 3.01 g/m*3 -2.5 C 0 km/h
1192 12-02-2010 09:51:23 -2.3 C 2.97 g/m*3 -2.3 C 0 km/h
1193 12-02-2010 10:16:23 -2.1 C 2.93 g/m*3 -2.1 C 0 km/h
1194 12-02-2010 10:41:23 -1.9 C 2.84 g/m*3 -1.9 C 0 km/h
1195 12-02-2010 11:06:23 -1.2 C 2.9 g/m*3 -1.2 C 0 km/h
1196 12-02-2010 11:31:23 -1.3 C 2.74 g/m*3 -1.3 C 0 km/h
1197 12-02-2010 11:56:23 -1 C 2.71 g/m*3 -1 C 0 km/h
1198 12-02-2010 12:21:23 -1.1 C 2.69 g/m*3 -1.1 C 0 km/h
1199 12-02-2010 12:46:23 -1.4 C 2.77 g/m*3 -1.4 C 0 km/h
1200 12-02-2010 13:11:24 -1.2 C 2.85 g/m*3 -1.2 C 0 km/h
Sensor: Nr:Datum:Temp:Abs-Feuchte:Windchill:Wind:
Aussen-T/F 1201 12-02-2010 13:36:24 -1.2 C 2.9 g/m*3 -1.2 C 0 km/h
1202 12-02-2010 14:01:24 -1.1 C 2.92 g/m*3 -1.1 C 0 km/h
1203 12-02-2010 14:26:24 -0.7 C 2.95 g/m*3 -0.7 C 0 km/h
1204 12-02-2010 14:51:24 -0.5 C 2.95 g/m*3 -0.5 C 0 km/h
1205 12-02-2010 15:16:24 -0.8 C 2.84 g/m*3 -0.8 C 0 km/h
1206 12-02-2010 15:41:24 -0.8 C 2.89 g/m*3 -0.8 C 0 km/h
1207 12-02-2010 16:06:24 -0.9 C 2.91 g/m*3 -0.9 C 0 km/h
1208 12-02-2010 16:31:24 -1.2 C 2.85 g/m*3 -1.2 C 0 km/h
1209 12-02-2010 16:56:24 -1.2 C 2.76 g/m*3 -1.2 C 0 km/h
1210 12-02-2010 17:21:24 -1.4 C 2.73 g/m*3 -1.4 C 0 km/h
1211 12-02-2010 17:46:24 -1.9 C 2.76 g/m*3 -1.9 C 0 km/h
1212 12-02-2010 18:11:24 -2.1 C 2.72 g/m*3 -2.1 C 0 km/h
1213 12-02-2010 18:36:24 -2.2 C 2.78 g/m*3 -2.2 C 0 km/h
1214 12-02-2010 19:01:24 -2.4 C 2.66 g/m*3 -2.4 C 0 km/h
1215 12-02-2010 19:26:24 -2.5 C 2.69 g/m*3 -2.5 C 0 km/h
1216 12-02-2010 19:51:24 -2.5 C 2.73 g/m*3 -2.5 C 0 km/h
1217 12-02-2010 20:16:24 -2.6 C 2.71 g/m*3 -2.6 C 0 km/h
1218 12-02-2010 20:41:24 -2.6 C 2.75 g/m*3 -2.6 C 0 km/h
1219 12-02-2010 21:06:24 -2.6 C 2.71 g/m*3 -2.6 C 0 km/h
1220 12-02-2010 21:31:24 -2.7 C 2.73 g/m*3 -2.7 C 0 km/h
1221 12-02-2010 21:56:25 -2.8 C 2.71 g/m*3 -2.8 C 0 km/h
1222 12-02-2010 22:21:25 -2.8 C 2.75 g/m*3 -2.8 C 0 km/h
1223 12-02-2010 22:46:25 -2.9 C 2.73 g/m*3 -2.9 C 0 km/h
1224 12-02-2010 23:11:25 -3 C 2.71 g/m*3 -3 C 0 km/h
1225 12-02-2010 23:36:25 -3.2 C 2.67 g/m*3 -3.2 C 0 km/h
Sensor: Nr:Datum:Temp:Abs-Feuchte:Windchill:Wind:
Aussen-T/F 1226 13-02-2010 00:01:25 -3.2 C 2.71 g/m*3 -3.2 C 0 km/h
1227 13-02-2010 00:26:25 -3.4 C 2.75 g/m*3 -3.4 C 0 km/h
1228 13-02-2010 00:51:25 -3.7 C 2.73 g/m*3 -3.7 C 0 km/h
1229 13-02-2010 01:16:25 -3.9 C 2.76 g/m*3 -3.9 C 0 km/h
1230 13-02-2010 01:41:25 -4 C 2.78 g/m*3 -4 C 0 km/h
1231 13-02-2010 02:06:25 -3.9 C 2.8 g/m*3 -3.9 C 0 km/h
1232 13-02-2010 02:31:25 -4 C 2.74 g/m*3 -4 C 0 km/h
1233 13-02-2010 02:56:25 -4.1 C 2.69 g/m*3 -4.1 C 0 km/h
1234 13-02-2010 03:21:25 -4.2 C 2.7 g/m*3 -4.2 C 0 km/h
1235 13-02-2010 03:46:25 -4.2 C 2.74 g/m*3 -4.2 C 0 km/h
1236 13-02-2010 04:11:25 -4.2 C 2.74 g/m*3 -4.2 C 0 km/h
1237 13-02-2010 04:36:25 -4.1 C 2.8 g/m*3 -4.1 C 0 km/h
1238 13-02-2010 05:01:25 -4.1 C 2.8 g/m*3 -4.1 C 0 km/h
1239 13-02-2010 05:26:25 -4 C 2.82 g/m*3 -4 C 0 km/h
1240 13-02-2010 05:51:25 -3.8 C 2.86 g/m*3 -3.8 C 0 km/h
1241 13-02-2010 06:16:26 -3.9 C 2.84 g/m*3 -3.9 C 0 km/h
1242 13-02-2010 06:41:26 -3.8 C 2.86 g/m*3 -3.8 C 0 km/h
1243 13-02-2010 07:06:26 -3.7 C 2.84 g/m*3 -3.7 C 0 km/h
1244 13-02-2010 07:31:26 -3.8 C 2.78 g/m*3 -3.8 C 0 km/h
1245 13-02-2010 07:56:26 -3.8 C 2.82 g/m*3 -3.8 C 0 km/h
1246 13-02-2010 08:21:26 -3.6 C 2.86 g/m*3 -3.6 C 0 km/h
1247 13-02-2010 08:46:26 -3.2 C 2.9 g/m*3 -3.2 C 0 km/h
1248 13-02-2010 09:11:26 -2.9 C 2.89 g/m*3 -2.9 C 0 km/h
1249 13-02-2010 09:36:26 -2.6 C 2.91 g/m*3 -2.6 C 0 km/h
1250 13-02-2010 10:01:26 -2.7 C 2.73 g/m*3 -2.7 C 0 km/h
Sensor: Nr:Datum:Temp:Abs-Feuchte:Windchill:Wind:
Aussen-T/F 1251 13-02-2010 10:26:26 -2.4 C 2.7 g/m*3 -2.4 C 0 km/h
1252 13-02-2010 10:51:26 -2.3 C 2.64 g/m*3 -2.3 C 0 km/h
1253 13-02-2010 11:16:26 -1.9 C 2.76 g/m*3 -1.9 C 0 km/h
1254 13-02-2010 11:41:26 -1.5 C 2.66 g/m*3 -1.5 C 0 km/h
1255 13-02-2010 12:06:26 -1.3 C 2.7 g/m*3 -1.3 C 0 km/h
1256 13-02-2010 12:31:26 -0.5 C 2.86 g/m*3 -0.5 C 0 km/h
1257 13-02-2010 12:56:26 -1.2 C 2.67 g/m*3 -1.2 C 0 km/h
1258 13-02-2010 13:21:26 -1.4 C 2.73 g/m*3 -1.4 C 0 km/h
1259 13-02-2010 13:46:26 -1 C 2.76 g/m*3 -1 C 0 km/h
1260 13-02-2010 14:11:26 -1.1 C 2.51 g/m*3 -1.1 C 0 km/h
1261 13-02-2010 14:36:26 0 C 2.76 g/m*3 0 C 0 km/h
1262 13-02-2010 15:01:27 -0.3 C 2.56 g/m*3 -0.3 C 0 km/h
1263 13-02-2010 15:26:27 -0.5 C 2.57 g/m*3 -0.5 C 0 km/h
1264 13-02-2010 15:51:27 -0.7 C 2.54 g/m*3 -0.7 C 0 km/h
1265 13-02-2010 16:16:27 -0.9 C 2.55 g/m*3 -0.9 C 0 km/h
1266 13-02-2010 16:41:27 -1 C 2.58 g/m*3 -1 C 0 km/h
1267 13-02-2010 17:06:27 -1.4 C 2.68 g/m*3 -1.4 C 0 km/h
1268 13-02-2010 17:31:27 -1.9 C 2.8 g/m*3 -1.9 C 0 km/h
1269 13-02-2010 17:56:27 -2 C 2.91 g/m*3 -2 C 0 km/h
1270 13-02-2010 18:21:27 -2 C 2.95 g/m*3 -2 C 0 km/h
1271 13-02-2010 18:46:27 -2.1 C 2.97 g/m*3 -2.1 C 0 km/h
1272 13-02-2010 19:11:27 -2.2 C 2.99 g/m*3 -2.2 C 0 km/h
1273 13-02-2010 19:36:27 -2.1 C 3.01 g/m*3 -2.1 C 0 km/h
1274 13-02-2010 20:01:27 -2.2 C 2.99 g/m*3 -2.2 C 0 km/h
1275 13-02-2010 20:26:27 -2.3 C 3.01 g/m*3 -2.3 C 0 km/h
Sensor: Nr:Datum:Temp:Abs-Feuchte:Windchill:Wind:
Aussen-T/F 1276 13-02-2010 20:51:27 -2.4 C 2.99 g/m*3 -2.4 C 0 km/h
1277 13-02-2010 21:16:27 -2.4 C 2.99 g/m*3 -2.4 C 0 km/h
1278 13-02-2010 21:41:27 -2.4 C 2.99 g/m*3 -2.4 C 0 km/h
1279 13-02-2010 22:06:27 -2.5 C 2.97 g/m*3 -2.5 C 0 km/h
1280 13-02-2010 22:31:27 -2.6 C 2.99 g/m*3 -2.6 C 0 km/h
1281 13-02-2010 22:56:27 -2.5 C 3.05 g/m*3 -2.5 C 0 km/h
1282 13-02-2010 23:21:28 -2.7 C 3.05 g/m*3 -2.7 C 0 km/h
1283 13-02-2010 23:46:28 -2.8 C 3.03 g/m*3 -2.8 C 0 km/h
1284 14-02-2010 00:11:28 -2.9 C 3.01 g/m*3 -2.9 C 0 km/h
1285 14-02-2010 00:36:28 -3.1 C 3 g/m*3 -3.1 C 0 km/h
1286 14-02-2010 01:01:28 -3.2 C 2.98 g/m*3 -3.2 C 0 km/h
1287 14-02-2010 01:26:28 -3.3 C 2.96 g/m*3 -3.3 C 0 km/h
1288 14-02-2010 01:51:28 -3.4 C 2.94 g/m*3 -3.4 C 0 km/h
1289 14-02-2010 02:16:28 -3.4 C 2.98 g/m*3 -3.4 C 0 km/h
1290 14-02-2010 02:41:28 -3.4 C 2.98 g/m*3 -3.4 C 0 km/h
1291 14-02-2010 03:06:28 -3.4 C 3.02 g/m*3 -3.4 C 0 km/h
1292 14-02-2010 03:31:28 -3.4 C 3.02 g/m*3 -3.4 C 0 km/h
1293 14-02-2010 03:56:28 -3.6 C 2.97 g/m*3 -3.6 C 0 km/h
1294 14-02-2010 04:21:28 -3.5 C 2.99 g/m*3 -3.5 C 0 km/h
1295 14-02-2010 04:46:28 -3.6 C 2.97 g/m*3 -3.6 C 0 km/h
1296 14-02-2010 05:11:28 -3.7 C 2.95 g/m*3 -3.7 C 0 km/h
1297 14-02-2010 05:36:28 -3.6 C 3.01 g/m*3 -3.6 C 0 km/h
1298 14-02-2010 06:01:28 -3.7 C 2.99 g/m*3 -3.7 C 0 km/h
1299 14-02-2010 06:26:28 -3.7 C 2.99 g/m*3 -3.7 C 0 km/h
1300 14-02-2010 06:51:28 -3.7 C 2.99 g/m*3 -3.7 C 0 km/h
Sensor: Nr:Datum:Temp:Abs-Feuchte:Windchill:Wind:
Aussen-T/F 1301 14-02-2010 07:16:28 -3.4 C 3.05 g/m*3 -3.4 C 0 km/h
1302 14-02-2010 07:41:28 -3.6 C 3.01 g/m*3 -3.6 C 0 km/h
1303 14-02-2010 08:06:29 -3.5 C 3.03 g/m*3 -3.5 C 0 km/h
1304 14-02-2010 08:31:29 -3.5 C 3.03 g/m*3 -3.5 C 0 km/h
1305 14-02-2010 08:56:29 -3.3 C 3.08 g/m*3 -3.3 C 0 km/h
1306 14-02-2010 09:21:29 -3.2 C 3.1 g/m*3 -3.2 C 0 km/h
1307 14-02-2010 09:46:29 -3.1 C 3.12 g/m*3 -3.1 C 0 km/h
1308 14-02-2010 10:11:29 -2.8 C 3.19 g/m*3 -2.8 C 0 km/h
1309 14-02-2010 10:36:29 -2.4 C 3.24 g/m*3 -2.4 C 0 km/h
1310 14-02-2010 11:01:29 -2.1 C 3.22 g/m*3 -2.1 C 0 km/h
1311 14-02-2010 11:26:29 -1.9 C 3.23 g/m*3 -1.9 C 0 km/h
1312 14-02-2010 11:51:29 -1.5 C 3.23 g/m*3 -1.5 C 0 km/h
1313 14-02-2010 12:16:29 -1.1 C 3.19 g/m*3 -1.1 C 0 km/h
1314 14-02-2010 12:41:29 -0.6 C 3.07 g/m*3 -0.6 C 0 km/h
1315 14-02-2010 13:06:29 0.2 C 3.14 g/m*3 0.2 C 0 km/h
1316 14-02-2010 13:31:29 0.6 C 3.03 g/m*3 0.6 C 0 km/h
1317 14-02-2010 13:56:29 1 C 3.01 g/m*3 1 C 0 km/h
1318 14-02-2010 14:21:29 1.4 C 3.09 g/m*3 1.4 C 0 km/h
1319 14-02-2010 14:46:29 1.4 C 3.04 g/m*3 1.4 C 0 km/h
1320 14-02-2010 15:11:29 0.8 C 2.92 g/m*3 0.8 C 0 km/h
1321 14-02-2010 15:36:29 0.7 C 3 g/m*3 0.7 C 0 km/h
1322 14-02-2010 16:01:29 0.1 C 2.98 g/m*3 0.1 C 0 km/h
1323 14-02-2010 16:26:30 -0.3 C 2.99 g/m*3 -0.3 C 0 km/h
1324 14-02-2010 16:51:30 -0.5 C 3.09 g/m*3 -0.5 C 0 km/h
1325 14-02-2010 17:16:30 -0.7 C 3.14 g/m*3 -0.7 C 0 km/h
Sensor: Nr:Datum:Temp:Abs-Feuchte:Windchill:Wind:
Aussen-T/F 1326 14-02-2010 17:41:30 -0.9 C 3.19 g/m*3 -0.9 C 0 km/h
1327 14-02-2010 18:06:30 -1.1 C 3.23 g/m*3 -1.1 C 0 km/h
1328 14-02-2010 18:31:30 -1.3 C 3.23 g/m*3 -1.3 C 0 km/h
1329 14-02-2010 18:56:30 -1.5 C 3.27 g/m*3 -1.5 C 0 km/h
1330 14-02-2010 19:21:30 -1.7 C 3.27 g/m*3 -1.7 C 0 km/h
1331 14-02-2010 19:46:30 -1.8 C 3.29 g/m*3 -1.8 C 0 km/h
1332 14-02-2010 20:11:30 -1.7 C 3.36 g/m*3 -1.7 C 0 km/h
1333 14-02-2010 20:36:30 -1.9 C 3.31 g/m*3 -1.9 C 0 km/h
1334 14-02-2010 21:01:30 -2.2 C 3.24 g/m*3 -2.2 C 0 km/h
1335 14-02-2010 21:26:30 -2.4 C 3.16 g/m*3 -2.4 C 0 km/h
1336 14-02-2010 21:51:30 -2.6 C 3.11 g/m*3 -2.6 C 0 km/h
1337 14-02-2010 22:16:30 -2.9 C 3.01 g/m*3 -2.9 C 0 km/h
1338 14-02-2010 22:41:30 -3 C 3.02 g/m*3 -3 C 0 km/h
1339 14-02-2010 23:06:30 -3 C 2.99 g/m*3 -3 C 0 km/h
1340 14-02-2010 23:31:30 -3 C 2.99 g/m*3 -3 C 0 km/h
1341 14-02-2010 23:56:30 -3 C 2.99 g/m*3 -3 C 0 km/h
1342 15-02-2010 00:21:30 -3 C 2.99 g/m*3 -3 C 0 km/h
1343 15-02-2010 00:46:30 -3 C 2.99 g/m*3 -3 C 0 km/h
1344 15-02-2010 01:11:31 -3 C 2.99 g/m*3 -3 C 0 km/h
1345 15-02-2010 01:36:31 -2.9 C 2.97 g/m*3 -2.9 C 0 km/h
1346 15-02-2010 02:01:31 -2.8 C 2.99 g/m*3 -2.8 C 0 km/h
1347 15-02-2010 02:26:31 -2.7 C 3.01 g/m*3 -2.7 C 0 km/h
1348 15-02-2010 02:51:31 -2.6 C 3.03 g/m*3 -2.6 C 0 km/h
1349 15-02-2010 03:16:31 -2.6 C 2.99 g/m*3 -2.6 C 0 km/h
1350 15-02-2010 03:41:31 -2.6 C 2.99 g/m*3 -2.6 C 0 km/h
Sensor: Nr:Datum:Temp:Abs-Feuchte:Windchill:Wind:
Aussen-T/F 1351 15-02-2010 04:06:31 -2.6 C 2.99 g/m*3 -2.6 C 0 km/h
1352 15-02-2010 04:31:31 -2.6 C 3.03 g/m*3 -2.6 C 0 km/h
1353 15-02-2010 04:56:31 -2.6 C 3.03 g/m*3 -2.6 C 0 km/h
1354 15-02-2010 05:21:31 -2.6 C 3.07 g/m*3 -2.6 C 0 km/h
1355 15-02-2010 05:46:31 -2.6 C 3.11 g/m*3 -2.6 C 0 km/h
1356 15-02-2010 06:11:31 -2.7 C 3.05 g/m*3 -2.7 C 0 km/h
1357 15-02-2010 06:36:31 -2.8 C 3.03 g/m*3 -2.8 C 0 km/h
1358 15-02-2010 07:01:31 -2.9 C 3.01 g/m*3 -2.9 C 0 km/h
1359 15-02-2010 07:26:31 -3.2 C 2.9 g/m*3 -3.2 C 0 km/h
1360 15-02-2010 07:51:31 -3.1 C 2.96 g/m*3 -3.1 C 0 km/h
1361 15-02-2010 08:16:31 -3.1 C 2.96 g/m*3 -3.1 C 0 km/h
1362 15-02-2010 08:41:31 -3 C 2.91 g/m*3 -3 C 0 km/h
1363 15-02-2010 09:06:31 -2.7 C 2.93 g/m*3 -2.7 C 0 km/h
1364 15-02-2010 09:31:31 -2.3 C 2.97 g/m*3 -2.3 C 0 km/h
1365 15-02-2010 09:56:32 -1.8 C 3.04 g/m*3 -1.8 C 0 km/h
1366 15-02-2010 10:21:32 -1.4 C 3.03 g/m*3 -1.4 C 0 km/h
1367 15-02-2010 10:46:32 -0.2 C 3.11 g/m*3 -0.2 C 0 km/h
1368 15-02-2010 11:11:32 -0.3 C 3.04 g/m*3 -0.3 C 0 km/h
1369 15-02-2010 11:36:32 -0.2 C 3.11 g/m*3 -0.2 C 0 km/h
1370 15-02-2010 12:01:32 0.3 C 3.07 g/m*3 0.3 C 0 km/h
1371 15-02-2010 12:26:32 0.9 C 3.2 g/m*3 0.9 C 0 km/h
1372 15-02-2010 12:51:32 1.2 C 3.21 g/m*3 1.2 C 0 km/h
1373 15-02-2010 13:16:32 1.6 C 3.24 g/m*3 1.6 C 0 km/h
1374 15-02-2010 13:41:32 1.8 C 3.29 g/m*3 1.8 C 0 km/h
1375 15-02-2010 14:06:32 2.2 C 3.21 g/m*3 2.2 C 0 km/h
Sensor: Nr:Datum:Temp:Abs-Feuchte:Windchill:Wind:
Aussen-T/F 1376 15-02-2010 14:31:32 1.4 C 3.2 g/m*3 1.4 C 0 km/h
1377 15-02-2010 14:56:32 1.6 C 3.41 g/m*3 1.6 C 0 km/h
1378 15-02-2010 15:21:32 1.8 C 3.45 g/m*3 1.8 C 0 km/h
1379 15-02-2010 15:46:32 1.8 C 3.4 g/m*3 1.8 C 0 km/h
1380 15-02-2010 16:11:32 1.5 C 3.38 g/m*3 1.5 C 0 km/h
1381 15-02-2010 16:36:32 1.3 C 3.44 g/m*3 1.3 C 0 km/h
1382 15-02-2010 17:01:32 0.7 C 3.46 g/m*3 0.7 C 0 km/h
1383 15-02-2010 17:26:32 0.3 C 3.46 g/m*3 0.3 C 0 km/h
1384 15-02-2010 17:51:32 -0.2 C 3.39 g/m*3 -0.2 C 0 km/h
1385 15-02-2010 18:16:33 -0.4 C 3.44 g/m*3 -0.4 C 0 km/h
1386 15-02-2010 18:41:33 -0.6 C 3.44 g/m*3 -0.6 C 0 km/h
1387 15-02-2010 19:06:33 -0.9 C 3.46 g/m*3 -0.9 C 0 km/h
1388 15-02-2010 19:31:33 -1 C 3.44 g/m*3 -1 C 0 km/h
1389 15-02-2010 19:56:33 -1 C 3.48 g/m*3 -1 C 0 km/h
1390 15-02-2010 20:21:33 -1.2 C 3.43 g/m*3 -1.2 C 0 km/h
1391 15-02-2010 20:46:33 -1.3 C 3.41 g/m*3 -1.3 C 0 km/h
1392 15-02-2010 21:11:33 -1.2 C 3.43 g/m*3 -1.2 C 0 km/h
1393 15-02-2010 21:36:33 -1.2 C 3.48 g/m*3 -1.2 C 0 km/h
1394 15-02-2010 22:01:33 -1 C 3.57 g/m*3 -1 C 0 km/h
1395 15-02-2010 22:26:33 -1 C 3.53 g/m*3 -1 C 0 km/h
1396 15-02-2010 22:51:33 -1.2 C 3.48 g/m*3 -1.2 C 0 km/h
1397 15-02-2010 23:16:33 -1.2 C 3.48 g/m*3 -1.2 C 0 km/h
1398 15-02-2010 23:41:33 -1.3 C 3.45 g/m*3 -1.3 C 0 km/h
1399 16-02-2010 00:06:33 -1.4 C 3.43 g/m*3 -1.4 C 0 km/h
1400 16-02-2010 00:31:33 -2.1 C 3.22 g/m*3 -2.1 C 0 km/h
Sensor: Nr:Datum:Temp:Abs-Feuchte:Windchill:Wind:
Aussen-T/F 1401 16-02-2010 00:56:33 -2.7 C 3.13 g/m*3 -2.7 C 0 km/h
1402 16-02-2010 01:21:33 -2.9 C 3.13 g/m*3 -2.9 C 0 km/h
1403 16-02-2010 01:46:33 -2.9 C 3.16 g/m*3 -2.9 C 0 km/h
1404 16-02-2010 02:11:33 -2.9 C 3.16 g/m*3 -2.9 C 0 km/h
1405 16-02-2010 02:36:33 -3.2 C 3.1 g/m*3 -3.2 C 0 km/h
1406 16-02-2010 03:01:34 -3.3 C 3.08 g/m*3 -3.3 C 0 km/h
1407 16-02-2010 03:26:34 -3.4 C 3.09 g/m*3 -3.4 C 0 km/h
1408 16-02-2010 03:51:34 -3.1 C 3.16 g/m*3 -3.1 C 0 km/h
1409 16-02-2010 04:16:34 -2.9 C 3.2 g/m*3 -2.9 C 0 km/h
1410 16-02-2010 04:41:34 -2.7 C 3.29 g/m*3 -2.7 C 0 km/h
1411 16-02-2010 05:06:34 -2.7 C 3.25 g/m*3 -2.7 C 0 km/h
1412 16-02-2010 05:31:34 -2.7 C 3.25 g/m*3 -2.7 C 0 km/h
1413 16-02-2010 05:56:34 -2.6 C 3.27 g/m*3 -2.6 C 0 km/h
1414 16-02-2010 06:21:34 -2.3 C 3.34 g/m*3 -2.3 C 0 km/h
1415 16-02-2010 06:46:34 -2.3 C 3.3 g/m*3 -2.3 C 0 km/h
1416 16-02-2010 07:11:34 -2.5 C 3.26 g/m*3 -2.5 C 0 km/h
1417 16-02-2010 07:36:34 -2.8 C 3.19 g/m*3 -2.8 C 0 km/h
1418 16-02-2010 08:01:34 -2.8 C 3.19 g/m*3 -2.8 C 0 km/h
1419 16-02-2010 08:26:34 -2.5 C 3.3 g/m*3 -2.5 C 0 km/h
1420 16-02-2010 08:51:34 -1.9 C 3.4 g/m*3 -1.9 C 0 km/h
1421 16-02-2010 09:16:34 -1.4 C 3.47 g/m*3 -1.4 C 0 km/h
1422 16-02-2010 09:41:34 -0.7 C 3.51 g/m*3 -0.7 C 0 km/h
1423 16-02-2010 10:06:34 -0.6 C 3.35 g/m*3 -0.6 C 0 km/h
1424 16-02-2010 10:31:34 0.1 C 3.42 g/m*3 0.1 C 0 km/h
1425 16-02-2010 10:56:34 -0.1 C 3.27 g/m*3 -0.1 C 0 km/h
Sensor: Nr:Datum:Temp:Abs-Feuchte:Windchill:Wind:
Aussen-T/F 1426 16-02-2010 11:21:34 0.3 C 3.31 g/m*3 0.3 C 0 km/h
1427 16-02-2010 11:46:35 0.4 C 3.19 g/m*3 0.4 C 0 km/h
1428 16-02-2010 12:11:35 1.2 C 3.31 g/m*3 1.2 C 0 km/h
1429 16-02-2010 12:36:35 2.4 C 2.91 g/m*3 2.4 C 0 km/h
1430 16-02-2010 13:01:35 2.8 C 2.76 g/m*3 2.8 C 0 km/h
1431 16-02-2010 13:26:35 2.9 C 2.6 g/m*3 2.9 C 0 km/h
1432 16-02-2010 13:51:35 2.8 C 2.7 g/m*3 2.8 C 0 km/h
1433 16-02-2010 14:16:35 3.5 C 2.64 g/m*3 3.5 C 0 km/h
1434 16-02-2010 14:41:35 3.4 C 2.57 g/m*3 3.4 C 0 km/h
1435 16-02-2010 15:06:35 3.2 C 2.53 g/m*3 3.2 C 0 km/h
1436 16-02-2010 15:31:35 3.9 C 2.4 g/m*3 3.9 C 0 km/h
1437 16-02-2010 15:56:35 4.5 C 2.43 g/m*3 4.5 C 0 km/h
1438 16-02-2010 16:21:35 4.4 C 2.42 g/m*3 4.4 C 0 km/h
1439 16-02-2010 16:46:35 4.1 C 2.43 g/m*3 4.1 C 0 km/h
1440 16-02-2010 17:11:35 2.8 C 2.58 g/m*3 2.8 C 0 km/h
1441 16-02-2010 17:36:35 1.1 C 2.61 g/m*3 1.1 C 0 km/h
1442 16-02-2010 18:01:35 -0.2 C 2.63 g/m*3 -0.2 C 0 km/h
1443 16-02-2010 18:26:35 -1.4 C 2.73 g/m*3 -1.4 C 0 km/h
1444 16-02-2010 18:51:35 -2 C 2.74 g/m*3 -2 C 0 km/h
1445 16-02-2010 19:16:35 -2.5 C 2.73 g/m*3 -2.5 C 0 km/h
1446 16-02-2010 19:41:35 -2.7 C 2.77 g/m*3 -2.7 C 0 km/h
1447 16-02-2010 20:06:36 -3 C 2.75 g/m*3 -3 C 0 km/h
1448 16-02-2010 20:31:36 -3.2 C 2.75 g/m*3 -3.2 C 0 km/h
1449 16-02-2010 20:56:36 -3.6 C 2.67 g/m*3 -3.6 C 0 km/h
1450 16-02-2010 21:21:36 -3.8 C 2.67 g/m*3 -3.8 C 0 km/h
Sensor: Nr:Datum:Temp:Abs-Feuchte:Windchill:Wind:
Aussen-T/F 1451 16-02-2010 21:46:36 -4.1 C 2.62 g/m*3 -4.1 C 0 km/h
1452 16-02-2010 22:11:36 -4.2 C 2.63 g/m*3 -4.2 C 0 km/h
1453 16-02-2010 22:36:36 -4.5 C 2.58 g/m*3 -4.5 C 0 km/h
1454 16-02-2010 23:01:36 -4.7 C 2.54 g/m*3 -4.7 C 0 km/h
1455 16-02-2010 23:26:36 -4.9 C 2.5 g/m*3 -4.9 C 0 km/h
1456 16-02-2010 23:51:36 -5.1 C 2.47 g/m*3 -5.1 C 0 km/h
1457 17-02-2010 00:16:36 -5.4 C 2.41 g/m*3 -5.4 C 0 km/h
1458 17-02-2010 00:41:36 -5.7 C 2.36 g/m*3 -5.7 C 0 km/h
1459 17-02-2010 01:06:36 -6 C 2.34 g/m*3 -6 C 0 km/h
1460 17-02-2010 01:31:36 -6.2 C 2.31 g/m*3 -6.2 C 0 km/h
1461 17-02-2010 01:56:36 -6.5 C 2.26 g/m*3 -6.5 C 0 km/h
1462 17-02-2010 02:21:36 -6.6 C 2.27 g/m*3 -6.6 C 0 km/h
1463 17-02-2010 02:46:36 -6.8 C 2.24 g/m*3 -6.8 C 0 km/h
1464 17-02-2010 03:11:36 -6.9 C 2.22 g/m*3 -6.9 C 0 km/h
1465 17-02-2010 03:36:36 -6.2 C 2.37 g/m*3 -6.2 C 0 km/h
1466 17-02-2010 04:01:36 -5.8 C 2.44 g/m*3 -5.8 C 0 km/h
1467 17-02-2010 04:26:36 -5.5 C 2.5 g/m*3 -5.5 C 0 km/h
1468 17-02-2010 04:51:37 -5.3 C 2.5 g/m*3 -5.3 C 0 km/h
1469 17-02-2010 05:16:37 -5.2 C 2.48 g/m*3 -5.2 C 0 km/h
1470 17-02-2010 05:41:37 -4.9 C 2.54 g/m*3 -4.9 C 0 km/h
1471 17-02-2010 06:06:37 -4.9 C 2.54 g/m*3 -4.9 C 0 km/h
1472 17-02-2010 06:31:37 -4.7 C 2.57 g/m*3 -4.7 C 0 km/h
1473 17-02-2010 06:56:37 -4.5 C 2.61 g/m*3 -4.5 C 0 km/h
1474 17-02-2010 07:21:37 -4.4 C 2.6 g/m*3 -4.4 C 0 km/h
1475 17-02-2010 07:46:37 -4.1 C 2.62 g/m*3 -4.1 C 0 km/h
Sensor: Nr:Datum:Temp:Abs-Feuchte:Windchill:Wind:
Aussen-T/F 1476 17-02-2010 08:11:37 -3.8 C 2.67 g/m*3 -3.8 C 0 km/h
1477 17-02-2010 08:36:37 -3.4 C 2.71 g/m*3 -3.4 C 0 km/h
1478 17-02-2010 09:01:37 -3.1 C 2.65 g/m*3 -3.1 C 0 km/h
1479 17-02-2010 09:26:37 -2.9 C 2.49 g/m*3 -2.9 C 0 km/h
1480 17-02-2010 09:51:37 -2.7 C 2.53 g/m*3 -2.7 C 0 km/h
1481 17-02-2010 10:16:37 -2.7 C 2.53 g/m*3 -2.7 C 0 km/h
1482 17-02-2010 10:41:37 -2.2 C 2.54 g/m*3 -2.2 C 0 km/h
1483 17-02-2010 11:06:37 -1.4 C 2.73 g/m*3 -1.4 C 0 km/h
1484 17-02-2010 11:31:37 -0.6 C 2.79 g/m*3 -0.6 C 0 km/h
1485 17-02-2010 11:56:37 1 C 2.91 g/m*3 1 C 0 km/h
1486 17-02-2010 12:21:37 2.7 C 2.8 g/m*3 2.7 C 0 km/h
1487 17-02-2010 12:46:37 3.5 C 2.71 g/m*3 3.5 C 0 km/h
1488 17-02-2010 13:11:38 2.9 C 2.72 g/m*3 2.9 C 0 km/h
1489 17-02-2010 13:36:38 2.8 C 2.7 g/m*3 2.8 C 0 km/h
1490 17-02-2010 14:01:38 2.7 C 2.97 g/m*3 2.7 C 0 km/h
1491 17-02-2010 14:26:38 2.1 C 3.3 g/m*3 2.1 C 0 km/h
1492 17-02-2010 14:51:38 2.1 C 3.58 g/m*3 2.1 C 0 km/h
1493 17-02-2010 15:16:38 1.3 C 3.81 g/m*3 1.3 C 0 km/h
1494 17-02-2010 15:41:38 1.2 C 4 g/m*3 1.2 C 0 km/h
1495 17-02-2010 16:06:38 1.3 C 4.13 g/m*3 1.3 C 0 km/h
1496 17-02-2010 16:31:38 1 C 4.15 g/m*3 1 C 0 km/h
1497 17-02-2010 16:56:38 0.9 C 4.23 g/m*3 0.9 C 0 km/h
1498 17-02-2010 17:21:38 0.7 C 4.17 g/m*3 0.7 C 0 km/h
1499 17-02-2010 17:46:38 0.6 C 4.19 g/m*3 0.6 C 0 km/h
1500 17-02-2010 18:11:38 0.5 C 4.21 g/m*3 0.5 C 0 km/h
Sensor: Nr:Datum:Temp:Abs-Feuchte:Windchill:Wind:
Aussen-T/F 1501 17-02-2010 18:36:38 0.5 C 4.31 g/m*3 0.5 C 0 km/h
1502 17-02-2010 19:01:38 0.5 C 4.36 g/m*3 0.5 C 0 km/h
1503 17-02-2010 19:26:38 0.5 C 4.36 g/m*3 0.5 C 0 km/h
1504 17-02-2010 19:51:38 0.5 C 4.41 g/m*3 0.5 C 0 km/h
1505 17-02-2010 20:16:38 0.7 C 4.53 g/m*3 0.7 C 0 km/h
1506 17-02-2010 20:41:38 0.7 C 4.53 g/m*3 0.7 C 0 km/h
1507 17-02-2010 21:06:38 0.7 C 4.53 g/m*3 0.7 C 0 km/h
1508 17-02-2010 21:31:38 0.8 C 4.51 g/m*3 0.8 C 0 km/h
1509 17-02-2010 21:56:39 0.8 C 4.56 g/m*3 0.8 C 0 km/h
1510 17-02-2010 22:21:39 0.8 C 4.51 g/m*3 0.8 C 0 km/h
1511 17-02-2010 22:46:39 0.8 C 4.51 g/m*3 0.8 C 0 km/h
1512 17-02-2010 23:11:39 0.8 C 4.51 g/m*3 0.8 C 0 km/h
1513 17-02-2010 23:36:39 0.8 C 4.51 g/m*3 0.8 C 0 km/h
1514 18-02-2010 00:01:39 0.8 C 4.51 g/m*3 0.8 C 0 km/h
1515 18-02-2010 00:26:39 0.9 C 4.54 g/m*3 0.9 C 0 km/h
1516 18-02-2010 00:51:39 0.9 C 4.54 g/m*3 0.9 C 0 km/h
1517 18-02-2010 01:16:39 1 C 4.57 g/m*3 1 C 0 km/h
1518 18-02-2010 01:41:39 1 C 4.57 g/m*3 1 C 0 km/h
1519 18-02-2010 02:06:39 1 C 4.57 g/m*3 1 C 0 km/h
1520 18-02-2010 02:31:39 1.2 C 4.63 g/m*3 1.2 C 0 km/h
1521 18-02-2010 02:56:39 1 C 4.57 g/m*3 1 C 0 km/h
1522 18-02-2010 03:21:39 1.2 C 4.63 g/m*3 1.2 C 0 km/h
1523 18-02-2010 03:46:39 1 C 4.57 g/m*3 1 C 0 km/h
1524 18-02-2010 04:11:39 1 C 4.62 g/m*3 1 C 0 km/h
1525 18-02-2010 04:36:39 1 C 4.62 g/m*3 1 C 0 km/h
Sensor: Nr:Datum:Temp:Abs-Feuchte:Windchill:Wind:
Aussen-T/F 1526 18-02-2010 05:01:39 1.2 C 4.68 g/m*3 1.2 C 0 km/h
1527 18-02-2010 05:26:39 1 C 4.62 g/m*3 1 C 0 km/h
1528 18-02-2010 05:51:39 1.1 C 4.65 g/m*3 1.1 C 0 km/h
1529 18-02-2010 06:16:40 1.1 C 4.65 g/m*3 1.1 C 0 km/h
1530 18-02-2010 06:41:40 1.2 C 4.74 g/m*3 1.2 C 0 km/h
1531 18-02-2010 07:06:40 1.1 C 4.7 g/m*3 1.1 C 0 km/h
1532 18-02-2010 07:31:40 1.1 C 4.7 g/m*3 1.1 C 0 km/h
1533 18-02-2010 07:56:40 1.1 C 4.7 g/m*3 1.1 C 0 km/h
1534 18-02-2010 08:21:40 1.1 C 4.76 g/m*3 1.1 C 0 km/h
1535 18-02-2010 08:46:40 1.4 C 4.85 g/m*3 1.4 C 0 km/h
1536 18-02-2010 09:11:40 1.7 C 5.01 g/m*3 1.7 C 0 km/h
1537 18-02-2010 09:36:40 2 C 5.06 g/m*3 2 C 0 km/h
1538 18-02-2010 10:01:40 2.6 C 5.32 g/m*3 2.6 C 0 km/h
1539 18-02-2010 10:26:40 3.6 C 5.63 g/m*3 3.6 C 0 km/h
1540 18-02-2010 10:51:40 3.8 C 5.58 g/m*3 3.8 C 0 km/h
1541 18-02-2010 11:16:40 4.1 C 5.25 g/m*3 4.1 C 0 km/h
1542 18-02-2010 11:41:40 4.4 C 5.03 g/m*3 4.4 C 0 km/h
1543 18-02-2010 12:06:40 4.7 C 4.86 g/m*3 4.7 C 0 km/h
1544 18-02-2010 12:31:40 5.1 C 4.65 g/m*3 5.1 C 0 km/h
1545 18-02-2010 12:56:40 5.8 C 4.58 g/m*3 5.8 C 0 km/h
1546 18-02-2010 13:21:40 6.8 C 4.36 g/m*3 6.8 C 0 km/h
1547 18-02-2010 13:46:40 7.4 C 4.14 g/m*3 7.4 C 0 km/h
1548 18-02-2010 14:11:40 8 C 4.13 g/m*3 8 C 0 km/h
1549 18-02-2010 14:36:41 8.5 C 4.1 g/m*3 8.5 C 0 km/h
1550 18-02-2010 15:01:41 9.1 C 3.73 g/m*3 9.1 C 0 km/h
Sensor: Nr:Datum:Temp:Abs-Feuchte:Windchill:Wind:
Aussen-T/F 1551 18-02-2010 15:26:41 9.5 C 3.64 g/m*3 9.5 C 0 km/h
1552 18-02-2010 15:51:41 10.1 C 3.59 g/m*3 10.1 C 0 km/h
1553 18-02-2010 16:16:41 9.6 C 3.57 g/m*3 9.6 C 0 km/h
1554 18-02-2010 16:41:41 9.3 C 3.59 g/m*3 9.3 C 0 km/h
1555 18-02-2010 17:06:41 7.5 C 3.36 g/m*3 7.5 C 0 km/h
1556 18-02-2010 17:31:41 6.3 C 3.55 g/m*3 6.3 C 0 km/h
1557 18-02-2010 17:56:41 5.6 C 3.68 g/m*3 5.6 C 0 km/h
1558 18-02-2010 18:21:41 4 C 3.88 g/m*3 4 C 0 km/h
1559 18-02-2010 18:46:41 3.2 C 3.98 g/m*3 3.2 C 0 km/h
1560 18-02-2010 19:11:41 2.6 C 4.11 g/m*3 2.6 C 0 km/h
1561 18-02-2010 19:36:41 2.5 C 4.2 g/m*3 2.5 C 0 km/h
1562 18-02-2010 20:01:41 2.1 C 4.08 g/m*3 2.1 C 0 km/h
1563 18-02-2010 20:26:41 2 C 4.17 g/m*3 2 C 0 km/h
1564 18-02-2010 20:51:41 1.6 C 4.16 g/m*3 1.6 C 0 km/h
1565 18-02-2010 21:16:41 1.4 C 4.21 g/m*3 1.4 C 0 km/h
1566 18-02-2010 21:41:41 1.4 C 4.21 g/m*3 1.4 C 0 km/h
1567 18-02-2010 22:06:41 1.7 C 4.3 g/m*3 1.7 C 0 km/h
1568 18-02-2010 22:31:41 2 C 4.33 g/m*3 2 C 0 km/h
1569 18-02-2010 22:56:42 1.9 C 4.36 g/m*3 1.9 C 0 km/h
1570 18-02-2010 23:21:42 1.7 C 4.3 g/m*3 1.7 C 0 km/h
1571 18-02-2010 23:46:42 1.9 C 4.53 g/m*3 1.9 C 0 km/h
1572 19-02-2010 00:11:42 2.1 C 4.59 g/m*3 2.1 C 0 km/h
1573 19-02-2010 00:36:42 1.8 C 4.55 g/m*3 1.8 C 0 km/h
1574 19-02-2010 01:01:42 2 C 4.67 g/m*3 2 C 0 km/h
1575 19-02-2010 01:26:42 2 C 4.67 g/m*3 2 C 0 km/h
Sensor: Nr:Datum:Temp:Abs-Feuchte:Windchill:Wind:
Aussen-T/F 1576 19-02-2010 01:51:42 2.1 C 4.76 g/m*3 2.1 C 0 km/h
1577 19-02-2010 02:16:42 2.1 C 4.7 g/m*3 2.1 C 0 km/h
1578 19-02-2010 02:41:42 2 C 4.67 g/m*3 2 C 0 km/h
1579 19-02-2010 03:06:42 1.8 C 4.66 g/m*3 1.8 C 0 km/h
1580 19-02-2010 03:31:42 1.8 C 4.71 g/m*3 1.8 C 0 km/h
1581 19-02-2010 03:56:42 1.6 C 4.7 g/m*3 1.6 C 0 km/h
1582 19-02-2010 04:21:42 1.6 C 4.7 g/m*3 1.6 C 0 km/h
1583 19-02-2010 04:46:42 1.6 C 4.7 g/m*3 1.6 C 0 km/h
1584 19-02-2010 05:11:42 1.7 C 4.79 g/m*3 1.7 C 0 km/h
1585 19-02-2010 05:36:42 1.8 C 4.77 g/m*3 1.8 C 0 km/h
1586 19-02-2010 06:01:42 1.9 C 4.8 g/m*3 1.9 C 0 km/h
1587 19-02-2010 06:26:42 2.1 C 4.76 g/m*3 2.1 C 0 km/h
1588 19-02-2010 06:51:42 2 C 4.67 g/m*3 2 C 0 km/h
1589 19-02-2010 07:16:42 1.7 C 4.63 g/m*3 1.7 C 0 km/h
1590 19-02-2010 07:41:43 1.5 C 4.57 g/m*3 1.5 C 0 km/h
1591 19-02-2010 08:06:43 1.5 C 4.62 g/m*3 1.5 C 0 km/h
1592 19-02-2010 08:31:43 1.6 C 4.65 g/m*3 1.6 C 0 km/h
1593 19-02-2010 08:56:43 2.1 C 4.81 g/m*3 2.1 C 0 km/h
1594 19-02-2010 09:21:43 2.5 C 4.83 g/m*3 2.5 C 0 km/h
1595 19-02-2010 09:46:43 3.1 C 4.91 g/m*3 3.1 C 0 km/h
1596 19-02-2010 10:11:43 3.7 C 5.05 g/m*3 3.7 C 0 km/h
1597 19-02-2010 10:36:02 4.6 C 5.1 g/m*3 4.6 C 0 km/h
1598 19-02-2010 11:01:02 5.3 C 5.06 g/m*3 5.3 C 0 km/h
1599 19-02-2010 11:26:01 6 C 4.79 g/m*3 6 C 0 km/h
1600 19-02-2010 11:51:02 6.5 C 4.72 g/m*3 6.5 C 0 km/h
Sensor: Nr:Datum:Temp:Abs-Feuchte:Windchill:Wind:
Aussen-T/F 1601 19-02-2010 12:16:02 7 C 4.49 g/m*3 7 C 0 km/h
1602 19-02-2010 12:41:02 7.6 C 4.27 g/m*3 7.6 C 0 km/h
1603 19-02-2010 13:06:02 7.6 C 4.11 g/m*3 7.6 C 0 km/h
1604 19-02-2010 13:31:02 7.7 C 4.05 g/m*3 7.7 C 0 km/h
1605 19-02-2010 13:56:02 7.6 C 3.95 g/m*3 7.6 C 0 km/h
1606 19-02-2010 14:21:01 7.5 C 4 g/m*3 7.5 C 0 km/h
1607 19-02-2010 14:46:02 7.5 C 3.92 g/m*3 7.5 C 0 km/h
1608 19-02-2010 15:11:03 7.8 C 3.67 g/m*3 7.8 C 0 km/h
1609 19-02-2010 15:36:02 7.2 C 3.53 g/m*3 7.2 C 0 km/h
1610 19-02-2010 16:01:02 6.3 C 3.33 g/m*3 6.3 C 0 km/h
1611 19-02-2010 16:26:01 6.1 C 3.29 g/m*3 6.1 C 0 km/h
1612 19-02-2010 16:51:01 5.5 C 3.23 g/m*3 5.5 C 0 km/h
1613 19-02-2010 17:16:02 5 C 3.06 g/m*3 5 C 0 km/h
1614 19-02-2010 17:41:02 5.1 C 3.01 g/m*3 5.1 C 0 km/h
1615 19-02-2010 18:06:02 4.5 C 3.02 g/m*3 4.5 C 0 km/h
1616 19-02-2010 18:31:02 4.1 C 3.07 g/m*3 4.1 C 0 km/h
1617 19-02-2010 18:56:01 3.7 C 3.18 g/m*3 3.7 C 0 km/h
1618 19-02-2010 19:21:01 3.6 C 3.22 g/m*3 3.6 C 0 km/h
1619 19-02-2010 19:46:02 3.6 C 3.28 g/m*3 3.6 C 0 km/h
1620 19-02-2010 20:11:02 3.3 C 3.34 g/m*3 3.3 C 0 km/h
1621 19-02-2010 20:36:02 3.3 C 3.46 g/m*3 3.3 C 0 km/h
1622 19-02-2010 21:14:02 3.3 C 3.52 g/m*3 3.3 C 0 km/h
1623 19-02-2010 21:26:02 3.2 C 3.56 g/m*3 3.2 C 0 km/h
1624 19-02-2010 21:38:01 3.2 C 3.5 g/m*3 3.2 C 0 km/h
1625 19-02-2010 21:50:01 3.1 C 3.53 g/m*3 3.1 C 0 km/h
Sensor: Nr:Datum:Temp:Abs-Feuchte:Windchill:Wind:
Aussen-T/F 1626 19-02-2010 22:02:02 2.8 C 3.52 g/m*3 2.8 C 0 km/h
1627 19-02-2010 22:14:02 2.6 C 3.53 g/m*3 2.6 C 0 km/h
1628 19-02-2010 22:26:01 2.6 C 3.47 g/m*3 2.6 C 0 km/h
1629 19-02-2010 22:38:02 2.4 C 3.43 g/m*3 2.4 C 0 km/h
1630 19-02-2010 22:50:01 2.2 C 3.38 g/m*3 2.2 C 0 km/h
1631 19-02-2010 23:02:02 2.1 C 3.36 g/m*3 2.1 C 0 km/h
1632 19-02-2010 23:14:02 2.5 C 3.22 g/m*3 2.5 C 0 km/h
1633 19-02-2010 23:26:01 2.5 C 3.16 g/m*3 2.5 C 0 km/h
1634 19-02-2010 23:38:02 2.2 C 3.21 g/m*3 2.2 C 0 km/h
1635 19-02-2010 23:50:01 1.6 C 3.24 g/m*3 1.6 C 0 km/h
1636 20-02-2010 00:02:02 1.5 C 3.33 g/m*3 1.5 C 0 km/h
1637 20-02-2010 00:14:02 1.4 C 3.31 g/m*3 1.4 C 0 km/h
1638 20-02-2010 00:26:02 1.2 C 3.37 g/m*3 1.2 C 0 km/h
1639 20-02-2010 00:38:01 1.1 C 3.4 g/m*3 1.1 C 0 km/h
1640 20-02-2010 00:50:02 0.7 C 3.41 g/m*3 0.7 C 0 km/h
1641 20-02-2010 01:02:01 0.4 C 3.39 g/m*3 0.4 C 0 km/h
1642 20-02-2010 01:14:01 0.1 C 3.42 g/m*3 0.1 C 0 km/h
1643 20-02-2010 01:26:01 -0.1 C 3.46 g/m*3 -0.1 C 0 km/h
1644 20-02-2010 01:38:02 -0.1 C 3.51 g/m*3 -0.1 C 0 km/h
1645 20-02-2010 01:50:02 -0.1 C 3.56 g/m*3 -0.1 C 0 km/h
1646 20-02-2010 02:02:02 -0.2 C 3.58 g/m*3 -0.2 C 0 km/h
1647 20-02-2010 02:14:02 -0.3 C 3.56 g/m*3 -0.3 C 0 km/h
1648 20-02-2010 02:26:02 -0.3 C 3.61 g/m*3 -0.3 C 0 km/h
1649 20-02-2010 02:38:02 -0.4 C 3.58 g/m*3 -0.4 C 0 km/h
1650 20-02-2010 02:50:01 -0.4 C 3.58 g/m*3 -0.4 C 0 km/h
Sensor: Nr:Datum:Temp:Abs-Feuchte:Windchill:Wind:
Aussen-T/F 1651 20-02-2010 03:02:01 -0.4 C 3.58 g/m*3 -0.4 C 0 km/h
1652 20-02-2010 03:14:01 -0.7 C 3.46 g/m*3 -0.7 C 0 km/h
1653 20-02-2010 03:26:01 -0.7 C 3.51 g/m*3 -0.7 C 0 km/h
1654 20-02-2010 03:38:02 -0.8 C 3.48 g/m*3 -0.8 C 0 km/h
1655 20-02-2010 03:50:02 -1 C 3.44 g/m*3 -1 C 0 km/h
1656 20-02-2010 04:02:01 -0.9 C 3.51 g/m*3 -0.9 C 0 km/h
1657 20-02-2010 04:14:01 -0.7 C 3.55 g/m*3 -0.7 C 0 km/h
1658 20-02-2010 04:26:01 -0.7 C 3.51 g/m*3 -0.7 C 0 km/h
1659 20-02-2010 04:38:02 -0.4 C 3.58 g/m*3 -0.4 C 0 km/h
1660 20-02-2010 04:50:01 -0.2 C 3.58 g/m*3 -0.2 C 0 km/h
1661 20-02-2010 05:02:01 -0.1 C 3.61 g/m*3 -0.1 C 0 km/h
1662 20-02-2010 05:14:01 -0.2 C 3.54 g/m*3 -0.2 C 0 km/h
1663 20-02-2010 05:26:01 -0.2 C 3.58 g/m*3 -0.2 C 0 km/h
1664 20-02-2010 05:38:02 -0.2 C 3.58 g/m*3 -0.2 C 0 km/h
1665 20-02-2010 05:50:01 0 C 3.63 g/m*3 0 C 0 km/h
1666 20-02-2010 06:02:02 -0.2 C 3.58 g/m*3 -0.2 C 0 km/h
1667 20-02-2010 06:14:02 0.1 C 3.71 g/m*3 0.1 C 0 km/h
1668 20-02-2010 06:26:01 0.4 C 3.79 g/m*3 0.4 C 0 km/h
1669 20-02-2010 06:38:01 0.3 C 3.76 g/m*3 0.3 C 0 km/h
1670 20-02-2010 06:50:01 0 C 3.68 g/m*3 0 C 0 km/h
1671 20-02-2010 07:02:01 -0.2 C 3.68 g/m*3 -0.2 C 0 km/h
1672 20-02-2010 07:14:02 -0.5 C 3.65 g/m*3 -0.5 C 0 km/h
1673 20-02-2010 07:26:01 -0.6 C 3.67 g/m*3 -0.6 C 0 km/h
1674 20-02-2010 07:38:01 -0.6 C 3.72 g/m*3 -0.6 C 0 km/h
1675 20-02-2010 07:50:01 -0.6 C 3.76 g/m*3 -0.6 C 0 km/h
Sensor: Nr:Datum:Temp:Abs-Feuchte:Windchill:Wind:
Aussen-T/F 1676 20-02-2010 08:02:02 -0.2 C 3.92 g/m*3 -0.2 C 0 km/h
1677 20-02-2010 08:14:02 0.1 C 3.95 g/m*3 0.1 C 0 km/h
1678 20-02-2010 08:26:01 0.4 C 3.98 g/m*3 0.4 C 0 km/h
1679 20-02-2010 08:38:01 0.7 C 3.97 g/m*3 0.7 C 0 km/h
1680 20-02-2010 08:50:01 1 C 3.94 g/m*3 1 C 0 km/h
1681 20-02-2010 09:02:02 1.2 C 3.95 g/m*3 1.2 C 0 km/h
1682 20-02-2010 09:14:02 1.4 C 3.89 g/m*3 1.4 C 0 km/h
1683 20-02-2010 09:26:01 1.5 C 3.87 g/m*3 1.5 C 0 km/h
1684 20-02-2010 09:38:01 1.2 C 3.79 g/m*3 1.2 C 0 km/h
1685 20-02-2010 09:50:01 1.2 C 3.74 g/m*3 1.2 C 0 km/h
1686 20-02-2010 10:02:01 1.3 C 3.76 g/m*3 1.3 C 0 km/h
1687 20-02-2010 10:14:01 1.4 C 3.73 g/m*3 1.4 C 0 km/h
1688 20-02-2010 10:26:01 1.5 C 3.71 g/m*3 1.5 C 0 km/h
1689 20-02-2010 10:38:01 1.7 C 3.76 g/m*3 1.7 C 0 km/h
1690 20-02-2010 10:50:01 1.8 C 3.73 g/m*3 1.8 C 0 km/h
1691 20-02-2010 11:02:01 2.1 C 3.75 g/m*3 2.1 C 0 km/h
1692 20-02-2010 11:14:01 3 C 3.63 g/m*3 3 C 0 km/h
1693 20-02-2010 11:26:01 3.3 C 3.58 g/m*3 3.3 C 0 km/h
1694 20-02-2010 11:38:01 3.7 C 3.61 g/m*3 3.7 C 0 km/h
1695 20-02-2010 11:50:01 4.1 C 3.46 g/m*3 4.1 C 0 km/h
1696 20-02-2010 12:02:01 4.1 C 3.33 g/m*3 4.1 C 0 km/h
1697 20-02-2010 12:14:01 3.9 C 3.47 g/m*3 3.9 C 0 km/h
1698 20-02-2010 12:26:02 4.1 C 3.39 g/m*3 4.1 C 0 km/h
1699 20-02-2010 12:38:01 3.8 C 3.45 g/m*3 3.8 C 0 km/h
1700 20-02-2010 12:50:01 4.2 C 3.41 g/m*3 4.2 C 0 km/h
Sensor: Nr:Datum:Temp:Abs-Feuchte:Windchill:Wind:
Aussen-T/F 1701 20-02-2010 13:02:01 4.2 C 3.22 g/m*3 4.2 C 0 km/h
1702 20-02-2010 13:14:01 4.3 C 3.18 g/m*3 4.3 C 0 km/h
1703 20-02-2010 13:26:02 4.5 C 3.22 g/m*3 4.5 C 0 km/h
1704 20-02-2010 13:38:01 4.5 C 3.16 g/m*3 4.5 C 0 km/h
1705 20-02-2010 13:50:02 4.3 C 3.11 g/m*3 4.3 C 0 km/h
1706 20-02-2010 14:02:01 4.2 C 3.22 g/m*3 4.2 C 0 km/h
1707 20-02-2010 14:14:01 4.5 C 3.22 g/m*3 4.5 C 0 km/h
1708 20-02-2010 14:26:02 4.9 C 3.24 g/m*3 4.9 C 0 km/h
1709 20-02-2010 14:38:01 4.7 C 3.2 g/m*3 4.7 C 0 km/h
1710 20-02-2010 14:50:01 4.5 C 3.22 g/m*3 4.5 C 0 km/h
1711 20-02-2010 15:02:01 4.4 C 3.2 g/m*3 4.4 C 0 km/h
1712 20-02-2010 15:14:01 4.8 C 3.22 g/m*3 4.8 C 0 km/h
1713 20-02-2010 15:26:02 4.9 C 3.17 g/m*3 4.9 C 0 km/h
1714 20-02-2010 15:38:01 5.1 C 3.15 g/m*3 5.1 C 0 km/h
1715 20-02-2010 15:50:02 5.1 C 3.08 g/m*3 5.1 C 0 km/h
1716 20-02-2010 16:02:01 5 C 3.06 g/m*3 5 C 0 km/h
1717 20-02-2010 16:14:01 4.9 C 3.11 g/m*3 4.9 C 0 km/h
1718 20-02-2010 16:26:02 5 C 3.06 g/m*3 5 C 0 km/h
1719 20-02-2010 16:38:01 5.2 C 3.1 g/m*3 5.2 C 0 km/h
1720 20-02-2010 16:50:02 4.9 C 3.04 g/m*3 4.9 C 0 km/h
1721 20-02-2010 17:02:01 4.5 C 3.09 g/m*3 4.5 C 0 km/h
1722 20-02-2010 17:14:01 4.9 C 3.11 g/m*3 4.9 C 0 km/h
1723 20-02-2010 17:26:01 4.8 C 3.08 g/m*3 4.8 C 0 km/h
1724 20-02-2010 17:38:01 4.2 C 3.16 g/m*3 4.2 C 0 km/h
1725 20-02-2010 17:50:02 3.6 C 3.47 g/m*3 3.6 C 0 km/h
Sensor: Nr:Datum:Temp:Abs-Feuchte:Windchill:Wind:
Aussen-T/F 1726 20-02-2010 18:02:01 2.9 C 3.54 g/m*3 2.9 C 0 km/h
1727 20-02-2010 18:14:01 2.5 C 3.56 g/m*3 2.5 C 0 km/h
1728 20-02-2010 18:26:02 2.5 C 3.56 g/m*3 2.5 C 0 km/h
1729 20-02-2010 18:38:01 2.7 C 3.55 g/m*3 2.7 C 0 km/h
1730 20-02-2010 18:50:02 2.6 C 3.47 g/m*3 2.6 C 0 km/h
1731 20-02-2010 19:02:01 2.2 C 3.44 g/m*3 2.2 C 0 km/h
1732 20-02-2010 19:14:01 2 C 3.45 g/m*3 2 C 0 km/h
1733 20-02-2010 19:26:01 1.8 C 3.45 g/m*3 1.8 C 0 km/h
1734 20-02-2010 19:38:02 2 C 3.45 g/m*3 2 C 0 km/h
1735 20-02-2010 19:50:01 1.5 C 3.44 g/m*3 1.5 C 0 km/h
1736 20-02-2010 20:02:01 1.3 C 3.44 g/m*3 1.3 C 0 km/h
1737 20-02-2010 20:14:01 0.9 C 3.45 g/m*3 0.9 C 0 km/h
1738 20-02-2010 20:26:01 0.8 C 3.48 g/m*3 0.8 C 0 km/h
1739 20-02-2010 20:38:02 0.6 C 3.43 g/m*3 0.6 C 0 km/h
1740 20-02-2010 20:50:01 0.7 C 3.41 g/m*3 0.7 C 0 km/h
1741 20-02-2010 21:02:02 0.7 C 3.41 g/m*3 0.7 C 0 km/h
1742 20-02-2010 21:14:02 0.8 C 3.33 g/m*3 0.8 C 0 km/h
1743 20-02-2010 21:26:01 0.8 C 3.28 g/m*3 0.8 C 0 km/h
1744 20-02-2010 21:38:02 0.7 C 3.3 g/m*3 0.7 C 0 km/h
1745 20-02-2010 21:50:01 1 C 3.32 g/m*3 1 C 0 km/h
1746 20-02-2010 22:02:02 1.1 C 3.34 g/m*3 1.1 C 0 km/h
1747 20-02-2010 22:14:02 0.9 C 3.35 g/m*3 0.9 C 0 km/h
1748 20-02-2010 22:26:01 0.7 C 3.36 g/m*3 0.7 C 0 km/h
1749 20-02-2010 22:38:02 0.4 C 3.34 g/m*3 0.4 C 0 km/h
1750 20-02-2010 22:50:01 0.4 C 3.39 g/m*3 0.4 C 0 km/h
Sensor: Nr:Datum:Temp:Abs-Feuchte:Windchill:Wind:
Aussen-T/F 1751 20-02-2010 23:02:02 0.5 C 3.41 g/m*3 0.5 C 0 km/h
1752 20-02-2010 23:14:02 0.6 C 3.48 g/m*3 0.6 C 0 km/h
1753 20-02-2010 23:26:01 0.9 C 3.56 g/m*3 0.9 C 0 km/h
1754 20-02-2010 23:38:01 1.4 C 3.63 g/m*3 1.4 C 0 km/h
1755 20-02-2010 23:50:01 1.5 C 3.6 g/m*3 1.5 C 0 km/h
1756 21-02-2010 00:02:01 1.6 C 3.62 g/m*3 1.6 C 0 km/h
1757 21-02-2010 00:14:01 1.8 C 3.67 g/m*3 1.8 C 0 km/h
1758 21-02-2010 00:26:01 2.1 C 3.64 g/m*3 2.1 C 0 km/h
1759 21-02-2010 00:38:02 2.2 C 3.66 g/m*3 2.2 C 0 km/h
1760 21-02-2010 00:50:01 2.1 C 3.64 g/m*3 2.1 C 0 km/h
1761 21-02-2010 01:02:02 2.1 C 3.64 g/m*3 2.1 C 0 km/h
1762 21-02-2010 01:14:02 2 C 3.61 g/m*3 2 C 0 km/h
1763 21-02-2010 01:26:01 1.7 C 3.59 g/m*3 1.7 C 0 km/h
1764 21-02-2010 01:38:02 1.7 C 3.59 g/m*3 1.7 C 0 km/h
1765 21-02-2010 01:50:01 1.7 C 3.54 g/m*3 1.7 C 0 km/h
1766 21-02-2010 02:02:02 1.6 C 3.57 g/m*3 1.6 C 0 km/h
1767 21-02-2010 02:14:02 1.6 C 3.57 g/m*3 1.6 C 0 km/h
1768 21-02-2010 02:26:01 1.7 C 3.59 g/m*3 1.7 C 0 km/h
1769 21-02-2010 02:38:01 1.8 C 3.62 g/m*3 1.8 C 0 km/h
1770 21-02-2010 02:50:01 1.7 C 3.7 g/m*3 1.7 C 0 km/h
1771 21-02-2010 03:02:01 1.5 C 3.81 g/m*3 1.5 C 0 km/h
1772 21-02-2010 03:14:02 1.3 C 3.87 g/m*3 1.3 C 0 km/h
1773 21-02-2010 03:26:02 1 C 3.89 g/m*3 1 C 0 km/h
1774 21-02-2010 03:38:01 0.6 C 3.89 g/m*3 0.6 C 0 km/h
1775 21-02-2010 03:50:01 0.4 C 3.93 g/m*3 0.4 C 0 km/h
Sensor: Nr:Datum:Temp:Abs-Feuchte:Windchill:Wind:
Aussen-T/F 1776 21-02-2010 04:02:02 0.4 C 3.98 g/m*3 0.4 C 0 km/h
1777 21-02-2010 04:14:02 0.4 C 4.08 g/m*3 0.4 C 0 km/h
1778 21-02-2010 04:26:01 0.3 C 4.11 g/m*3 0.3 C 0 km/h
1779 21-02-2010 04:38:01 0.4 C 4.18 g/m*3 0.4 C 0 km/h
1780 21-02-2010 04:50:01 0.4 C 4.23 g/m*3 0.4 C 0 km/h
1781 21-02-2010 05:02:01 0.5 C 4.31 g/m*3 0.5 C 0 km/h
1782 21-02-2010 05:14:01 0.4 C 4.33 g/m*3 0.4 C 0 km/h
1783 21-02-2010 05:26:01 0.5 C 4.36 g/m*3 0.5 C 0 km/h
1784 21-02-2010 05:38:01 0.5 C 4.41 g/m*3 0.5 C 0 km/h
1785 21-02-2010 05:50:01 0.6 C 4.44 g/m*3 0.6 C 0 km/h
1786 21-02-2010 06:02:01 0.6 C 4.49 g/m*3 0.6 C 0 km/h
1787 21-02-2010 06:14:01 0.7 C 4.53 g/m*3 0.7 C 0 km/h
1788 21-02-2010 06:26:02 0.7 C 4.53 g/m*3 0.7 C 0 km/h
1789 21-02-2010 06:38:01 0.8 C 4.56 g/m*3 0.8 C 0 km/h
1790 21-02-2010 06:50:02 0.8 C 4.56 g/m*3 0.8 C 0 km/h
1791 21-02-2010 07:02:01 0.9 C 4.54 g/m*3 0.9 C 0 km/h
1792 21-02-2010 07:14:01 0.9 C 4.48 g/m*3 0.9 C 0 km/h
1793 21-02-2010 07:26:02 0.8 C 4.45 g/m*3 0.8 C 0 km/h
1794 21-02-2010 07:38:01 0.8 C 4.4 g/m*3 0.8 C 0 km/h
1795 21-02-2010 07:50:01 0.8 C 4.35 g/m*3 0.8 C 0 km/h
1796 21-02-2010 08:02:02 1.3 C 4.45 g/m*3 1.3 C 0 km/h
1797 21-02-2010 08:14:02 1.2 C 4.42 g/m*3 1.2 C 0 km/h
1798 21-02-2010 08:26:01 1.4 C 4.37 g/m*3 1.4 C 0 km/h
1799 21-02-2010 08:38:01 1.6 C 4.38 g/m*3 1.6 C 0 km/h
1800 21-02-2010 08:50:01 1.5 C 4.4 g/m*3 1.5 C 0 km/h
Sensor: Nr:Datum:Temp:Abs-Feuchte:Windchill:Wind:
Aussen-T/F 1801 21-02-2010 09:02:01 1.6 C 4.43 g/m*3 1.6 C 0 km/h
1802 21-02-2010 09:14:02 1.7 C 4.46 g/m*3 1.7 C 0 km/h
1803 21-02-2010 09:26:01 2 C 4.5 g/m*3 2 C 0 km/h
1804 21-02-2010 09:38:01 2.1 C 4.48 g/m*3 2.1 C 0 km/h
1805 21-02-2010 09:50:01 2.3 C 4.48 g/m*3 2.3 C 0 km/h
1806 21-02-2010 10:02:02 2.5 C 4.48 g/m*3 2.5 C 0 km/h
1807 21-02-2010 10:14:02 2.8 C 4.52 g/m*3 2.8 C 0 km/h
1808 21-02-2010 10:26:01 2.9 C 4.49 g/m*3 2.9 C 0 km/h
1809 21-02-2010 10:38:02 3 C 4.34 g/m*3 3 C 0 km/h
1810 21-02-2010 10:50:02 3.1 C 4.37 g/m*3 3.1 C 0 km/h
1811 21-02-2010 11:02:01 3.2 C 4.4 g/m*3 3.2 C 0 km/h
1812 21-02-2010 11:14:01 3.7 C 4.42 g/m*3 3.7 C 0 km/h
1813 21-02-2010 11:26:01 3.8 C 4.33 g/m*3 3.8 C 0 km/h
1814 21-02-2010 11:38:02 4 C 4.26 g/m*3 4 C 0 km/h
1815 21-02-2010 11:50:01 4.2 C 4.25 g/m*3 4.2 C 0 km/h
1816 21-02-2010 12:02:01 4.4 C 4.05 g/m*3 4.4 C 0 km/h
1817 21-02-2010 12:14:01 4.5 C 3.81 g/m*3 4.5 C 0 km/h
1818 21-02-2010 12:26:02 4.8 C 3.82 g/m*3 4.8 C 0 km/h
1819 21-02-2010 12:38:01 5 C 3.94 g/m*3 5 C 0 km/h
1820 21-02-2010 12:50:01 5.1 C 3.9 g/m*3 5.1 C 0 km/h
1821 21-02-2010 13:02:01 4.9 C 3.78 g/m*3 4.9 C 0 km/h
1822 21-02-2010 13:14:01 4.7 C 3.86 g/m*3 4.7 C 0 km/h
1823 21-02-2010 13:26:01 4.7 C 3.93 g/m*3 4.7 C 0 km/h
1824 21-02-2010 13:38:01 4.7 C 4.06 g/m*3 4.7 C 0 km/h
1825 21-02-2010 13:50:01 5.2 C 4.06 g/m*3 5.2 C 0 km/h
Sensor: Nr:Datum:Temp:Abs-Feuchte:Windchill:Wind:
Aussen-T/F 1826 21-02-2010 14:02:02 5.7 C 4.06 g/m*3 5.7 C 0 km/h
1827 21-02-2010 14:14:02 5.3 C 3.95 g/m*3 5.3 C 0 km/h
1828 21-02-2010 14:26:01 5.3 C 3.95 g/m*3 5.3 C 0 km/h
1829 21-02-2010 14:38:01 5.2 C 4.06 g/m*3 5.2 C 0 km/h
1830 21-02-2010 14:50:01 5.2 C 4.06 g/m*3 5.2 C 0 km/h
1831 21-02-2010 15:02:01 5.4 C 4.12 g/m*3 5.4 C 0 km/h
1832 21-02-2010 15:14:01 6.1 C 4.09 g/m*3 6.1 C 0 km/h
1833 21-02-2010 15:26:01 6.3 C 4.07 g/m*3 6.3 C 0 km/h
1834 21-02-2010 15:38:01 6.4 C 4.1 g/m*3 6.4 C 0 km/h
1835 21-02-2010 15:50:02 6.3 C 4.15 g/m*3 6.3 C 0 km/h
1836 21-02-2010 16:02:01 6.4 C 4.17 g/m*3 6.4 C 0 km/h
1837 21-02-2010 16:14:01 6.5 C 4.12 g/m*3 6.5 C 0 km/h
1838 21-02-2010 16:26:02 6.5 C 4.2 g/m*3 6.5 C 0 km/h
1839 21-02-2010 16:38:01 6.2 C 4.04 g/m*3 6.2 C 0 km/h
1840 21-02-2010 16:50:01 7.2 C 4.24 g/m*3 7.2 C 0 km/h
1841 21-02-2010 17:02:02 6.5 C 3.97 g/m*3 6.5 C 0 km/h
1842 21-02-2010 17:14:02 5.9 C 4.11 g/m*3 5.9 C 0 km/h
1843 21-02-2010 17:26:01 5.6 C 4.1 g/m*3 5.6 C 0 km/h
1844 21-02-2010 17:38:02 5.3 C 4.16 g/m*3 5.3 C 0 km/h
1845 21-02-2010 17:50:01 5.1 C 4.17 g/m*3 5.1 C 0 km/h
1846 21-02-2010 18:02:02 4.8 C 4.29 g/m*3 4.8 C 0 km/h
1847 21-02-2010 18:14:02 4.6 C 4.3 g/m*3 4.6 C 0 km/h
1848 21-02-2010 18:26:01 4.4 C 4.31 g/m*3 4.4 C 0 km/h
1849 21-02-2010 18:38:01 3.8 C 4.27 g/m*3 3.8 C 0 km/h
1850 21-02-2010 18:50:01 3.4 C 4.28 g/m*3 3.4 C 0 km/h
Sensor: Nr:Datum:Temp:Abs-Feuchte:Windchill:Wind:
Aussen-T/F 1851 21-02-2010 19:02:02 3 C 4.22 g/m*3 3 C 0 km/h
1852 21-02-2010 19:14:02 2.9 C 4.37 g/m*3 2.9 C 0 km/h
1853 21-02-2010 19:26:01 2.8 C 4.4 g/m*3 2.8 C 0 km/h
1854 21-02-2010 19:38:01 2.8 C 4.46 g/m*3 2.8 C 0 km/h
1855 21-02-2010 19:50:01 2.7 C 4.49 g/m*3 2.7 C 0 km/h
1856 21-02-2010 20:02:01 2.5 C 4.43 g/m*3 2.5 C 0 km/h
1857 21-02-2010 20:14:01 2.4 C 4.4 g/m*3 2.4 C 0 km/h
1858 21-02-2010 20:26:01 2.7 C 4.6 g/m*3 2.7 C 0 km/h
1859 21-02-2010 20:38:01 2.8 C 4.63 g/m*3 2.8 C 0 km/h
1860 21-02-2010 20:50:01 3 C 4.58 g/m*3 3 C 0 km/h
1861 21-02-2010 21:02:01 3 C 4.58 g/m*3 3 C 0 km/h
1862 21-02-2010 21:14:01 3 C 4.58 g/m*3 3 C 0 km/h
1863 21-02-2010 21:26:02 2.9 C 4.61 g/m*3 2.9 C 0 km/h
1864 21-02-2010 21:38:01 2.8 C 4.58 g/m*3 2.8 C 0 km/h
1865 21-02-2010 21:50:02 2.7 C 4.6 g/m*3 2.7 C 0 km/h
1866 21-02-2010 22:02:01 2.6 C 4.57 g/m*3 2.6 C 0 km/h
1867 21-02-2010 22:14:01 2.4 C 4.51 g/m*3 2.4 C 0 km/h
1868 21-02-2010 22:26:02 2.3 C 4.54 g/m*3 2.3 C 0 km/h
1869 21-02-2010 22:38:01 2.1 C 4.53 g/m*3 2.1 C 0 km/h
1870 21-02-2010 22:50:02 2.1 C 4.53 g/m*3 2.1 C 0 km/h
1871 21-02-2010 23:02:01 2.2 C 4.62 g/m*3 2.2 C 0 km/h
1872 21-02-2010 23:14:01 2.1 C 4.59 g/m*3 2.1 C 0 km/h
1873 21-02-2010 23:26:02 2 C 4.56 g/m*3 2 C 0 km/h
1874 21-02-2010 23:38:01 2 C 4.56 g/m*3 2 C 0 km/h
1875 21-02-2010 23:50:02 1.9 C 4.58 g/m*3 1.9 C 0 km/h
Sensor: Nr:Datum:Temp:Abs-Feuchte:Windchill:Wind:
Aussen-T/F 1876 22-02-2010 00:02:01 1.9 C 4.58 g/m*3 1.9 C 0 km/h
1877 22-02-2010 00:14:01 1.8 C 4.55 g/m*3 1.8 C 0 km/h
1878 22-02-2010 00:26:01 1.7 C 4.57 g/m*3 1.7 C 0 km/h
1879 22-02-2010 00:38:02 1.7 C 4.57 g/m*3 1.7 C 0 km/h
1880 22-02-2010 00:50:01 1.6 C 4.54 g/m*3 1.6 C 0 km/h
1881 22-02-2010 01:02:02 1.6 C 4.54 g/m*3 1.6 C 0 km/h
1882 22-02-2010 01:14:02 1.5 C 4.51 g/m*3 1.5 C 0 km/h
1883 22-02-2010 01:26:01 1.3 C 4.45 g/m*3 1.3 C 0 km/h
1884 22-02-2010 01:38:02 1.3 C 4.45 g/m*3 1.3 C 0 km/h
1885 22-02-2010 01:50:01 1.3 C 4.45 g/m*3 1.3 C 0 km/h
1886 22-02-2010 02:02:02 1.3 C 4.45 g/m*3 1.3 C 0 km/h
1887 22-02-2010 02:14:02 1.3 C 4.45 g/m*3 1.3 C 0 km/h
1888 22-02-2010 02:26:01 1 C 4.36 g/m*3 1 C 0 km/h
1889 22-02-2010 02:38:01 1 C 4.36 g/m*3 1 C 0 km/h
1890 22-02-2010 02:50:01 1 C 4.41 g/m*3 1 C 0 km/h
1891 22-02-2010 03:02:01 1.1 C 4.44 g/m*3 1.1 C 0 km/h
1892 22-02-2010 03:14:02 1.1 C 4.44 g/m*3 1.1 C 0 km/h
1893 22-02-2010 03:26:02 1 C 4.41 g/m*3 1 C 0 km/h
1894 22-02-2010 03:38:01 1.1 C 4.44 g/m*3 1.1 C 0 km/h
1895 22-02-2010 03:50:01 1.1 C 4.49 g/m*3 1.1 C 0 km/h
1896 22-02-2010 04:02:02 1.4 C 4.59 g/m*3 1.4 C 0 km/h
1897 22-02-2010 04:14:02 1.1 C 4.44 g/m*3 1.1 C 0 km/h
1898 22-02-2010 04:26:01 1 C 4.41 g/m*3 1 C 0 km/h
1899 22-02-2010 04:38:02 1.1 C 4.49 g/m*3 1.1 C 0 km/h
1900 22-02-2010 04:50:01 1.1 C 4.49 g/m*3 1.1 C 0 km/h
Sensor: Nr:Datum:Temp:Abs-Feuchte:Windchill:Wind:
Aussen-T/F 1901 22-02-2010 05:02:02 1.1 C 4.49 g/m*3 1.1 C 0 km/h
1902 22-02-2010 05:14:02 1.2 C 4.53 g/m*3 1.2 C 0 km/h
1903 22-02-2010 05:26:01 1.4 C 4.59 g/m*3 1.4 C 0 km/h
1904 22-02-2010 05:38:01 1.4 C 4.59 g/m*3 1.4 C 0 km/h
1905 22-02-2010 05:50:01 1.5 C 4.62 g/m*3 1.5 C 0 km/h
1906 22-02-2010 06:02:01 1.5 C 4.62 g/m*3 1.5 C 0 km/h
1907 22-02-2010 06:14:02 1.5 C 4.62 g/m*3 1.5 C 0 km/h
1908 22-02-2010 06:26:01 1.5 C 4.62 g/m*3 1.5 C 0 km/h
1909 22-02-2010 06:38:01 1.6 C 4.65 g/m*3 1.6 C 0 km/h
1910 22-02-2010 06:50:01 1.6 C 4.65 g/m*3 1.6 C 0 km/h
1911 22-02-2010 07:02:01 1.6 C 4.65 g/m*3 1.6 C 0 km/h
1912 22-02-2010 07:14:01 1.8 C 4.77 g/m*3 1.8 C 0 km/h
1913 22-02-2010 07:26:02 2.2 C 4.9 g/m*3 2.2 C 0 km/h
1914 22-02-2010 07:38:01 2.3 C 4.93 g/m*3 2.3 C 0 km/h
1915 22-02-2010 07:50:02 2.5 C 5 g/m*3 2.5 C 0 km/h
1916 22-02-2010 08:02:01 2.7 C 5.07 g/m*3 2.7 C 0 km/h
1917 22-02-2010 08:14:01 3 C 5.11 g/m*3 3 C 0 km/h
1918 22-02-2010 08:26:02 3.2 C 5.12 g/m*3 3.2 C 0 km/h
1919 22-02-2010 08:38:01 3.5 C 5.16 g/m*3 3.5 C 0 km/h
1920 22-02-2010 08:50:02 3.8 C 5.21 g/m*3 3.8 C 0 km/h
1921 22-02-2010 09:02:01 4.2 C 5.22 g/m*3 4.2 C 0 km/h
1922 22-02-2010 09:14:01 4.5 C 5.32 g/m*3 4.5 C 0 km/h
1923 22-02-2010 09:26:01 4.8 C 5.3 g/m*3 4.8 C 0 km/h
1924 22-02-2010 09:38:01 5.1 C 5.27 g/m*3 5.1 C 0 km/h
1925 22-02-2010 09:50:02 5.3 C 5.2 g/m*3 5.3 C 0 km/h
Sensor: Nr:Datum:Temp:Abs-Feuchte:Windchill:Wind:
Aussen-T/F 1926 22-02-2010 10:02:01 5.7 C 5.19 g/m*3 5.7 C 0 km/h
1927 22-02-2010 10:14:01 6.3 C 5.18 g/m*3 6.3 C 0 km/h
1928 22-02-2010 10:26:01 6.9 C 5.08 g/m*3 6.9 C 0 km/h
1929 22-02-2010 10:38:02 7.2 C 5.02 g/m*3 7.2 C 0 km/h
1930 22-02-2010 10:50:01 7.6 C 5.08 g/m*3 7.6 C 0 km/h
1931 22-02-2010 11:02:01 7.7 C 5.19 g/m*3 7.7 C 0 km/h
1932 22-02-2010 11:14:01 8 C 5.21 g/m*3 8 C 0 km/h
1933 22-02-2010 11:26:02 8.5 C 5.21 g/m*3 8.5 C 0 km/h
1934 22-02-2010 11:38:01 8.9 C 5.26 g/m*3 8.9 C 0 km/h
1935 22-02-2010 11:50:02 8.7 C 5.19 g/m*3 8.7 C 0 km/h
1936 22-02-2010 12:02:01 8.6 C 5.33 g/m*3 8.6 C 0 km/h
1937 22-02-2010 12:14:01 8.4 C 5.51 g/m*3 8.4 C 0 km/h
1938 22-02-2010 12:26:02 8.8 C 5.74 g/m*3 8.8 C 0 km/h
1939 22-02-2010 12:38:01 9.7 C 5.81 g/m*3 9.7 C 0 km/h
1940 22-02-2010 12:50:02 10.3 C 5.55 g/m*3 10.3 C 0 km/h
1941 22-02-2010 13:02:01 10.6 C 5.37 g/m*3 10.6 C 0 km/h
1942 22-02-2010 13:14:01 11.2 C 5.27 g/m*3 11.2 C 0 km/h
1943 22-02-2010 13:26:01 11.7 C 5.12 g/m*3 11.7 C 0 km/h
1944 22-02-2010 13:38:02 11.4 C 5.13 g/m*3 11.4 C 0 km/h
1945 22-02-2010 13:50:01 11.8 C 5.26 g/m*3 11.8 C 0 km/h
1946 22-02-2010 14:02:02 11.9 C 5.08 g/m*3 11.9 C 0 km/h
1947 22-02-2010 14:14:02 12.7 C 5.01 g/m*3 12.7 C 0 km/h
1948 22-02-2010 14:26:01 12.2 C 5.07 g/m*3 12.2 C 0 km/h
1949 22-02-2010 14:38:02 12.5 C 5.06 g/m*3 12.5 C 0 km/h
1950 22-02-2010 14:50:01 12.2 C 5.07 g/m*3 12.2 C 0 km/h
Sensor: Nr:Datum:Temp:Abs-Feuchte:Windchill:Wind:
Aussen-T/F 1951 22-02-2010 15:02:02 12.3 C 5.1 g/m*3 12.3 C 0 km/h
1952 22-02-2010 15:14:02 12.7 C 5.12 g/m*3 12.7 C 0 km/h
1953 22-02-2010 15:26:01 13.3 C 5.2 g/m*3 13.3 C 0 km/h
1954 22-02-2010 15:38:02 13.4 C 5 g/m*3 13.4 C 0 km/h
1955 22-02-2010 15:50:01 12.7 C 5.23 g/m*3 12.7 C 0 km/h
1956 22-02-2010 16:02:02 12.4 C 5.14 g/m*3 12.4 C 0 km/h
1957 22-02-2010 16:14:02 11.9 C 5.3 g/m*3 11.9 C 0 km/h
1958 22-02-2010 16:26:01 11.5 C 5.37 g/m*3 11.5 C 0 km/h
1959 22-02-2010 16:38:01 11.4 C 5.44 g/m*3 11.4 C 0 km/h
1960 22-02-2010 16:50:01 11.8 C 5.58 g/m*3 11.8 C 0 km/h
1961 22-02-2010 17:02:01 12.1 C 5.47 g/m*3 12.1 C 0 km/h
1962 22-02-2010 17:14:01 11.8 C 5.47 g/m*3 11.8 C 0 km/h
1963 22-02-2010 17:26:01 11.3 C 5.51 g/m*3 11.3 C 0 km/h
1964 22-02-2010 17:38:01 10.7 C 5.6 g/m*3 10.7 C 0 km/h
1965 22-02-2010 17:50:01 10.4 C 5.69 g/m*3 10.4 C 0 km/h
1966 22-02-2010 18:02:01 10.1 C 5.67 g/m*3 10.1 C 0 km/h
1967 22-02-2010 18:14:01 9.9 C 5.79 g/m*3 9.9 C 0 km/h
1968 22-02-2010 18:26:02 9.7 C 5.72 g/m*3 9.7 C 0 km/h
1969 22-02-2010 18:38:01 9.4 C 5.7 g/m*3 9.4 C 0 km/h
1970 22-02-2010 18:50:02 9.2 C 5.8 g/m*3 9.2 C 0 km/h
1971 22-02-2010 19:02:01 9 C 5.73 g/m*3 9 C 0 km/h
1972 22-02-2010 19:14:01 8.9 C 5.87 g/m*3 8.9 C 0 km/h
1973 22-02-2010 19:26:02 8.9 C 5.87 g/m*3 8.9 C 0 km/h
1974 22-02-2010 19:38:01 9 C 5.82 g/m*3 9 C 0 km/h
1975 22-02-2010 19:50:02 9.1 C 5.77 g/m*3 9.1 C 0 km/h
Sensor: Nr:Datum:Temp:Abs-Feuchte:Windchill:Wind:
Aussen-T/F 1976 22-02-2010 20:02:02 9.1 C 5.68 g/m*3 9.1 C 0 km/h
1977 22-02-2010 20:14:02 9.2 C 5.63 g/m*3 9.2 C 0 km/h
1978 22-02-2010 20:26:01 9.5 C 5.64 g/m*3 9.5 C 0 km/h
1979 22-02-2010 20:38:02 9.4 C 5.52 g/m*3 9.4 C 0 km/h
1980 22-02-2010 20:50:02 9 C 5.47 g/m*3 9 C 0 km/h
1981 22-02-2010 21:02:01 8.7 C 5.53 g/m*3 8.7 C 0 km/h
1982 22-02-2010 21:14:01 8.9 C 5.52 g/m*3 8.9 C 0 km/h
1983 22-02-2010 21:26:01 8.8 C 5.48 g/m*3 8.8 C 0 km/h
1984 22-02-2010 21:38:02 8.9 C 5.52 g/m*3 8.9 C 0 km/h
1985 22-02-2010 21:50:01 8.9 C 5.52 g/m*3 8.9 C 0 km/h
1986 22-02-2010 22:02:02 9.1 C 5.5 g/m*3 9.1 C 0 km/h
1987 22-02-2010 22:14:02 9.5 C 5.55 g/m*3 9.5 C 0 km/h
1988 22-02-2010 22:28:08 10.1 C 5.67 g/m*3 10.1 C 0 km/h
1989 22-02-2010 22:40:08 11.1 C 5.54 g/m*3 11.1 C 0 km/h
1990 22-02-2010 22:52:08 11.5 C 5.47 g/m*3 11.5 C 0 km/h
1991 22-02-2010 23:04:08 12 C 5.33 g/m*3 12 C 0 km/h
1992 22-02-2010 23:16:08 12.1 C 5.36 g/m*3 12.1 C 0 km/h
1993 22-02-2010 23:28:08 12.1 C 5.47 g/m*3 12.1 C 0 km/h
1994 22-02-2010 23:40:08 12 C 5.44 g/m*3 12 C 0 km/h
1995 22-02-2010 23:52:08 12.2 C 5.5 g/m*3 12.2 C 0 km/h
1996 23-02-2010 00:04:08 12.1 C 5.47 g/m*3 12.1 C 0 km/h
1997 23-02-2010 00:16:08 12.1 C 5.47 g/m*3 12.1 C 0 km/h
1998 23-02-2010 00:28:08 12.2 C 5.5 g/m*3 12.2 C 0 km/h
1999 23-02-2010 00:40:08 12.2 C 5.4 g/m*3 12.2 C 0 km/h
2000 23-02-2010 00:52:08 12.1 C 5.36 g/m*3 12.1 C 0 km/h
Sensor: Nr:Datum:Temp:Abs-Feuchte:Windchill:Wind:
Aussen-T/F 2001 23-02-2010 01:04:08 11.8 C 5.47 g/m*3 11.8 C 0 km/h
2002 23-02-2010 01:16:08 11.5 C 5.58 g/m*3 11.5 C 0 km/h
2003 23-02-2010 01:28:08 11.4 C 5.75 g/m*3 11.4 C 0 km/h
2004 23-02-2010 01:40:08 11.4 C 5.75 g/m*3 11.4 C 0 km/h
2005 23-02-2010 01:52:08 11.4 C 5.85 g/m*3 11.4 C 0 km/h
2006 23-02-2010 02:04:08 11.2 C 5.78 g/m*3 11.2 C 0 km/h
2007 23-02-2010 02:16:08 11.2 C 5.88 g/m*3 11.2 C 0 km/h
2008 23-02-2010 02:28:08 10.6 C 6.25 g/m*3 10.6 C 0 km/h
2009 23-02-2010 02:40:08 10.4 C 6.46 g/m*3 10.4 C 0 km/h
2010 23-02-2010 02:52:08 9.6 C 6.78 g/m*3 9.6 C 0 km/h
2011 23-02-2010 03:04:09 9.3 C 6.83 g/m*3 9.3 C 0 km/h
2012 23-02-2010 03:16:09 9.2 C 6.97 g/m*3 9.2 C 0 km/h
2013 23-02-2010 03:28:09 9.1 C 6.92 g/m*3 9.1 C 0 km/h
2014 23-02-2010 03:40:09 9.1 C 7.01 g/m*3 9.1 C 0 km/h
2015 23-02-2010 03:52:09 8.9 C 7.1 g/m*3 8.9 C 0 km/h
2016 23-02-2010 04:04:09 8.6 C 7.13 g/m*3 8.6 C 0 km/h
2017 23-02-2010 04:16:09 8.6 C 7.22 g/m*3 8.6 C 0 km/h
2018 23-02-2010 04:28:09 8.5 C 7.17 g/m*3 8.5 C 0 km/h
2019 23-02-2010 04:40:09 8.6 C 7.22 g/m*3 8.6 C 0 km/h
2020 23-02-2010 04:52:09 8.5 C 7.17 g/m*3 8.5 C 0 km/h
2021 23-02-2010 05:04:09 8.4 C 7.04 g/m*3 8.4 C 0 km/h
2022 23-02-2010 05:16:09 8.5 C 7.17 g/m*3 8.5 C 0 km/h
2023 23-02-2010 05:28:09 8.3 C 7.08 g/m*3 8.3 C 0 km/h
2024 23-02-2010 05:40:09 8.5 C 7.17 g/m*3 8.5 C 0 km/h
2025 23-02-2010 05:52:09 8.5 C 7.09 g/m*3 8.5 C 0 km/h
Sensor: Nr:Datum:Temp:Abs-Feuchte:Windchill:Wind:
Aussen-T/F 2026 23-02-2010 06:04:09 8.5 C 7.09 g/m*3 8.5 C 0 km/h
2027 23-02-2010 06:16:09 8.5 C 7.09 g/m*3 8.5 C 0 km/h
2028 23-02-2010 06:28:09 8.5 C 7.09 g/m*3 8.5 C 0 km/h
2029 23-02-2010 06:40:09 8.5 C 7.09 g/m*3 8.5 C 0 km/h
2030 23-02-2010 06:52:09 8.5 C 7.09 g/m*3 8.5 C 0 km/h
2031 23-02-2010 07:04:09 8.4 C 7.04 g/m*3 8.4 C 0 km/h
2032 23-02-2010 07:16:08 8.2 C 6.95 g/m*3 8.2 C 0 km/h
2033 23-02-2010 07:28:08 8.1 C 6.99 g/m*3 8.1 C 0 km/h
2034 23-02-2010 07:40:08 8.2 C 7.03 g/m*3 8.2 C 0 km/h
2035 23-02-2010 07:52:01 8.2 C 7.03 g/m*3 8.2 C 0 km/h
2036 23-02-2010 08:04:02 8.3 C 7.16 g/m*3 8.3 C 0 km/h
2037 23-02-2010 08:16:01 8.5 C 7.26 g/m*3 8.5 C 0 km/h
2038 23-02-2010 08:28:01 8.6 C 7.22 g/m*3 8.6 C 0 km/h
2039 23-02-2010 08:40:02 8.8 C 7.31 g/m*3 8.8 C 0 km/h
2040 23-02-2010 08:52:02 8.9 C 7.27 g/m*3 8.9 C 0 km/h
2041 23-02-2010 09:04:02 9 C 7.23 g/m*3 9 C 0 km/h
2042 23-02-2010 09:16:01 9.1 C 7.28 g/m*3 9.1 C 0 km/h
2043 23-02-2010 09:28:01 9.1 C 7.1 g/m*3 9.1 C 0 km/h
2044 23-02-2010 09:40:02 9.1 C 7.01 g/m*3 9.1 C 0 km/h
2045 23-02-2010 09:52:02 9.3 C 7.19 g/m*3 9.3 C 0 km/h
2046 23-02-2010 10:04:02 9.7 C 7.19 g/m*3 9.7 C 0 km/h
2047 23-02-2010 10:16:01 10.4 C 7.04 g/m*3 10.4 C 0 km/h
2048 23-02-2010 10:28:01 10.7 C 6.88 g/m*3 10.7 C 0 km/h
2049 23-02-2010 10:40:02 10.6 C 6.83 g/m*3 10.6 C 0 km/h
2050 23-02-2010 10:52:01 10.6 C 6.73 g/m*3 10.6 C 0 km/h
Sensor: Nr:Datum:Temp:Abs-Feuchte:Windchill:Wind:
Aussen-T/F 2051 23-02-2010 11:04:02 10.8 C 6.92 g/m*3 10.8 C 0 km/h
2052 23-02-2010 11:16:02 11 C 6.81 g/m*3 11 C 0 km/h
2053 23-02-2010 11:28:02 11.2 C 6.69 g/m*3 11.2 C 0 km/h
2054 23-02-2010 11:40:02 11.4 C 6.57 g/m*3 11.4 C 0 km/h
2055 23-02-2010 11:52:01 11.6 C 6.55 g/m*3 11.6 C 0 km/h
2056 23-02-2010 12:04:02 11.2 C 6.49 g/m*3 11.2 C 0 km/h
2057 23-02-2010 12:16:02 10.9 C 6.66 g/m*3 10.9 C 0 km/h
2058 23-02-2010 12:28:02 10.3 C 6.9 g/m*3 10.3 C 0 km/h
2059 23-02-2010 12:40:01 10.5 C 7.27 g/m*3 10.5 C 0 km/h
2060 23-02-2010 12:52:02 10.4 C 7.13 g/m*3 10.4 C 0 km/h
2061 23-02-2010 13:04:01 10.3 C 7.18 g/m*3 10.3 C 0 km/h
2062 23-02-2010 13:16:02 10.4 C 7.32 g/m*3 10.4 C 0 km/h
2063 23-02-2010 13:28:02 10.5 C 7.37 g/m*3 10.5 C 0 km/h
2064 23-02-2010 13:40:01 10.3 C 7.47 g/m*3 10.3 C 0 km/h
2065 23-02-2010 13:52:02 10.6 C 7.71 g/m*3 10.6 C 0 km/h
2066 23-02-2010 14:04:02 10.9 C 7.76 g/m*3 10.9 C 0 km/h
2067 23-02-2010 14:16:02 11 C 7.81 g/m*3 11 C 0 km/h
2068 23-02-2010 14:28:02 10.8 C 7.71 g/m*3 10.8 C 0 km/h
2069 23-02-2010 14:40:03 10.9 C 7.76 g/m*3 10.9 C 0 km/h
2070 23-02-2010 14:52:02 11 C 7.61 g/m*3 11 C 0 km/h
2071 23-02-2010 15:04:01 11 C 7.71 g/m*3 11 C 0 km/h
2072 23-02-2010 15:16:02 11 C 7.71 g/m*3 11 C 0 km/h
2073 23-02-2010 15:28:02 11 C 7.81 g/m*3 11 C 0 km/h
2074 23-02-2010 15:40:02 11.1 C 7.66 g/m*3 11.1 C 0 km/h
2075 23-02-2010 15:52:02 11 C 7.51 g/m*3 11 C 0 km/h
Sensor: Nr:Datum:Temp:Abs-Feuchte:Windchill:Wind:
Aussen-T/F 2076 23-02-2010 16:04:03 10.7 C 7.46 g/m*3 10.7 C 0 km/h
2077 23-02-2010 16:16:02 10.5 C 7.47 g/m*3 10.5 C 0 km/h
2078 23-02-2010 16:28:02 10.6 C 7.52 g/m*3 10.6 C 0 km/h
2079 23-02-2010 16:40:02 10.6 C 7.52 g/m*3 10.6 C 0 km/h
2080 23-02-2010 16:52:01 10.4 C 7.32 g/m*3 10.4 C 0 km/h
2081 23-02-2010 17:04:02 10.4 C 7.32 g/m*3 10.4 C 0 km/h
2082 23-02-2010 17:16:01 10.2 C 7.23 g/m*3 10.2 C 0 km/h
2083 23-02-2010 17:28:01 10.1 C 7.09 g/m*3 10.1 C 0 km/h
2084 23-02-2010 17:40:02 10.1 C 7.19 g/m*3 10.1 C 0 km/h
2085 23-02-2010 17:52:01 10 C 7.14 g/m*3 10 C 0 km/h
2086 23-02-2010 18:04:02 9.8 C 7.24 g/m*3 9.8 C 0 km/h
2087 23-02-2010 18:16:01 9.6 C 7.33 g/m*3 9.6 C 0 km/h
2088 23-02-2010 18:28:01 9.6 C 7.33 g/m*3 9.6 C 0 km/h
2089 23-02-2010 18:40:02 9.5 C 7.37 g/m*3 9.5 C 0 km/h
2090 23-02-2010 18:52:01 9.5 C 7.46 g/m*3 9.5 C 0 km/h
2091 23-02-2010 19:04:02 9.2 C 7.41 g/m*3 9.2 C 0 km/h
2092 23-02-2010 19:16:02 9.1 C 7.45 g/m*3 9.1 C 0 km/h
2093 23-02-2010 19:28:02 9.2 C 7.59 g/m*3 9.2 C 0 km/h
2094 23-02-2010 19:40:02 9.2 C 7.68 g/m*3 9.2 C 0 km/h
2095 23-02-2010 19:52:02 9.2 C 7.68 g/m*3 9.2 C 0 km/h
2096 23-02-2010 20:04:02 9 C 7.67 g/m*3 9 C 0 km/h
2097 23-02-2010 20:16:02 9.1 C 7.81 g/m*3 9.1 C 0 km/h
2098 23-02-2010 20:28:02 9 C 7.76 g/m*3 9 C 0 km/h
2099 23-02-2010 20:40:02 9 C 7.76 g/m*3 9 C 0 km/h
2100 23-02-2010 20:52:01 9.2 C 7.86 g/m*3 9.2 C 0 km/h
Sensor: Nr:Datum:Temp:Abs-Feuchte:Windchill:Wind:
Aussen-T/F 2101 23-02-2010 21:04:02 9.3 C 7.91 g/m*3 9.3 C 0 km/h
2102 23-02-2010 21:16:01 9.4 C 7.78 g/m*3 9.4 C 0 km/h
2103 23-02-2010 21:28:01 9.6 C 7.6 g/m*3 9.6 C 0 km/h
2104 23-02-2010 21:40:02 9.6 C 7.33 g/m*3 9.6 C 0 km/h
2105 23-02-2010 21:52:02 9.5 C 7.1 g/m*3 9.5 C 0 km/h
2106 23-02-2010 22:04:02 9.3 C 6.92 g/m*3 9.3 C 0 km/h
2107 23-02-2010 22:16:02 9.3 C 6.92 g/m*3 9.3 C 0 km/h
2108 23-02-2010 22:28:02 9.3 C 6.74 g/m*3 9.3 C 0 km/h
2109 23-02-2010 22:40:02 8.9 C 6.75 g/m*3 8.9 C 0 km/h
2110 23-02-2010 22:52:01 8.7 C 6.75 g/m*3 8.7 C 0 km/h
2111 23-02-2010 23:04:02 8.5 C 6.66 g/m*3 8.5 C 0 km/h
2112 23-02-2010 23:16:02 8.5 C 6.66 g/m*3 8.5 C 0 km/h
2113 23-02-2010 23:28:02 8.2 C 6.62 g/m*3 8.2 C 0 km/h
2114 23-02-2010 23:40:01 8.2 C 6.7 g/m*3 8.2 C 0 km/h
2115 23-02-2010 23:52:02 8.2 C 6.7 g/m*3 8.2 C 0 km/h
2116 24-02-2010 00:04:01 8.1 C 6.66 g/m*3 8.1 C 0 km/h
2117 24-02-2010 00:16:02 7.9 C 6.74 g/m*3 7.9 C 0 km/h
2118 24-02-2010 00:28:02 7.9 C 6.82 g/m*3 7.9 C 0 km/h
2119 24-02-2010 00:40:01 7.8 C 6.77 g/m*3 7.8 C 0 km/h
2120 24-02-2010 00:52:02 7.5 C 6.64 g/m*3 7.5 C 0 km/h
2121 24-02-2010 01:04:01 7.3 C 6.64 g/m*3 7.3 C 0 km/h
2122 24-02-2010 01:16:02 7.5 C 6.8 g/m*3 7.5 C 0 km/h
2123 24-02-2010 01:28:02 8.1 C 6.99 g/m*3 8.1 C 0 km/h
2124 24-02-2010 01:40:01 8.7 C 6.92 g/m*3 8.7 C 0 km/h
2125 24-02-2010 01:52:02 8.6 C 6.7 g/m*3 8.6 C 0 km/h
Sensor: Nr:Datum:Temp:Abs-Feuchte:Windchill:Wind:
Aussen-T/F 2126 24-02-2010 02:04:02 8.3 C 6.57 g/m*3 8.3 C 0 km/h
2127 24-02-2010 02:16:02 8.1 C 6.57 g/m*3 8.1 C 0 km/h
2128 24-02-2010 02:28:02 7.9 C 6.74 g/m*3 7.9 C 0 km/h
2129 24-02-2010 02:40:02 7.9 C 6.82 g/m*3 7.9 C 0 km/h
2130 24-02-2010 02:52:01 7.8 C 6.77 g/m*3 7.8 C 0 km/h
2131 24-02-2010 03:04:01 7.7 C 6.73 g/m*3 7.7 C 0 km/h
2132 24-02-2010 03:16:01 7.9 C 6.9 g/m*3 7.9 C 0 km/h
2133 24-02-2010 03:28:01 8 C 6.86 g/m*3 8 C 0 km/h
2134 24-02-2010 03:40:02 8 C 6.78 g/m*3 8 C 0 km/h
2135 24-02-2010 03:52:02 8 C 6.78 g/m*3 8 C 0 km/h
2136 24-02-2010 04:04:01 8 C 6.78 g/m*3 8 C 0 km/h
2137 24-02-2010 04:16:02 8 C 6.86 g/m*3 8 C 0 km/h
2138 24-02-2010 04:28:02 8 C 6.86 g/m*3 8 C 0 km/h
2139 24-02-2010 04:40:01 8 C 6.86 g/m*3 8 C 0 km/h
2140 24-02-2010 04:52:02 8.1 C 6.91 g/m*3 8.1 C 0 km/h
2141 24-02-2010 05:04:01 8.3 C 7 g/m*3 8.3 C 0 km/h
2142 24-02-2010 05:16:01 8.4 C 6.96 g/m*3 8.4 C 0 km/h
2143 24-02-2010 05:28:01 8.2 C 6.78 g/m*3 8.2 C 0 km/h
2144 24-02-2010 05:40:01 8.3 C 6.83 g/m*3 8.3 C 0 km/h
2145 24-02-2010 05:52:02 8.4 C 6.79 g/m*3 8.4 C 0 km/h
2146 24-02-2010 06:04:01 8.2 C 6.62 g/m*3 8.2 C 0 km/h
2147 24-02-2010 06:16:01 7.9 C 6.65 g/m*3 7.9 C 0 km/h
2148 24-02-2010 06:28:01 7.8 C 6.61 g/m*3 7.8 C 0 km/h
2149 24-02-2010 06:40:02 7.6 C 6.53 g/m*3 7.6 C 0 km/h
2150 24-02-2010 06:52:01 7.3 C 6.4 g/m*3 7.3 C 0 km/h
Sensor: Nr:Datum:Temp:Abs-Feuchte:Windchill:Wind:
Aussen-T/F 2151 24-02-2010 07:04:01 7.3 C 6.56 g/m*3 7.3 C 0 km/h
2152 24-02-2010 07:16:01 7.4 C 6.6 g/m*3 7.4 C 0 km/h
2153 24-02-2010 07:28:01 7.5 C 6.64 g/m*3 7.5 C 0 km/h
2154 24-02-2010 07:40:02 7.5 C 6.56 g/m*3 7.5 C 0 km/h
2155 24-02-2010 07:52:01 7.4 C 6.6 g/m*3 7.4 C 0 km/h
2156 24-02-2010 08:04:02 7.5 C 6.64 g/m*3 7.5 C 0 km/h
2157 24-02-2010 08:16:01 7.5 C 6.56 g/m*3 7.5 C 0 km/h
2158 24-02-2010 08:28:01 7.9 C 6.82 g/m*3 7.9 C 0 km/h
2159 24-02-2010 08:40:02 8.1 C 6.74 g/m*3 8.1 C 0 km/h
2160 24-02-2010 08:52:01 8.5 C 6.92 g/m*3 8.5 C 0 km/h
2161 24-02-2010 09:04:02 8.6 C 6.79 g/m*3 8.6 C 0 km/h
2162 24-02-2010 09:16:01 8.9 C 6.83 g/m*3 8.9 C 0 km/h
2163 24-02-2010 09:28:01 9.1 C 6.65 g/m*3 9.1 C 0 km/h
2164 24-02-2010 09:40:01 9.2 C 6.52 g/m*3 9.2 C 0 km/h
2165 24-02-2010 09:52:01 9.4 C 6.51 g/m*3 9.4 C 0 km/h
2166 24-02-2010 10:04:02 9.7 C 6.55 g/m*3 9.7 C 0 km/h
2167 24-02-2010 10:16:01 10 C 6.39 g/m*3 10 C 0 km/h
2168 24-02-2010 10:28:01 10.2 C 6.28 g/m*3 10.2 C 0 km/h
2169 24-02-2010 10:40:01 10.4 C 6.26 g/m*3 10.4 C 0 km/h
2170 24-02-2010 10:52:01 10.9 C 6.17 g/m*3 10.9 C 0 km/h
2171 24-02-2010 11:04:01 10.9 C 5.97 g/m*3 10.9 C 0 km/h
2172 24-02-2010 11:16:02 11.1 C 5.74 g/m*3 11.1 C 0 km/h
2173 24-02-2010 11:28:02 11.2 C 5.68 g/m*3 11.2 C 0 km/h
2174 24-02-2010 11:40:01 11.2 C 5.57 g/m*3 11.2 C 0 km/h
2175 24-02-2010 11:52:01 11.3 C 5.61 g/m*3 11.3 C 0 km/h
Sensor: Nr:Datum:Temp:Abs-Feuchte:Windchill:Wind:
Aussen-T/F 2176 24-02-2010 12:04:01 11.1 C 5.64 g/m*3 11.1 C 0 km/h
2177 24-02-2010 12:16:02 11.2 C 5.57 g/m*3 11.2 C 0 km/h
2178 24-02-2010 12:28:02 11.6 C 5.72 g/m*3 11.6 C 0 km/h
2179 24-02-2010 12:40:01 11.8 C 5.58 g/m*3 11.8 C 0 km/h
2180 24-02-2010 12:52:02 12 C 5.54 g/m*3 12 C 0 km/h
2181 24-02-2010 13:04:01 12 C 5.54 g/m*3 12 C 0 km/h
2182 24-02-2010 13:16:02 11.8 C 5.58 g/m*3 11.8 C 0 km/h
2183 24-02-2010 13:28:02 12 C 5.44 g/m*3 12 C 0 km/h
2184 24-02-2010 13:40:01 12.2 C 5.61 g/m*3 12.2 C 0 km/h
2185 24-02-2010 13:52:02 12.4 C 5.35 g/m*3 12.4 C 0 km/h
2186 24-02-2010 14:04:01 12.3 C 5.32 g/m*3 12.3 C 0 km/h
2187 24-02-2010 14:16:01 12.6 C 5.53 g/m*3 12.6 C 0 km/h
2188 24-02-2010 14:28:01 12.7 C 5.45 g/m*3 12.7 C 0 km/h
2189 24-02-2010 14:40:01 12.8 C 5.38 g/m*3 12.8 C 0 km/h
2190 24-02-2010 14:52:02 13.1 C 5.36 g/m*3 13.1 C 0 km/h
2191 24-02-2010 15:04:01 13.2 C 5.4 g/m*3 13.2 C 0 km/h
2192 24-02-2010 15:16:01 13.1 C 5.36 g/m*3 13.1 C 0 km/h
2193 24-02-2010 15:28:01 13.2 C 5.4 g/m*3 13.2 C 0 km/h
2194 24-02-2010 15:40:02 13.7 C 5.45 g/m*3 13.7 C 0 km/h
2195 24-02-2010 15:52:01 14.1 C 5.46 g/m*3 14.1 C 0 km/h
2196 24-02-2010 16:04:01 15.2 C 5.58 g/m*3 15.2 C 0 km/h
2197 24-02-2010 16:16:01 14.4 C 5.19 g/m*3 14.4 C 0 km/h
2198 24-02-2010 16:28:01 14 C 5.43 g/m*3 14 C 0 km/h
2199 24-02-2010 16:40:02 14.4 C 5.32 g/m*3 14.4 C 0 km/h
2200 24-02-2010 16:52:01 14.2 C 5.13 g/m*3 14.2 C 0 km/h
Sensor: Nr:Datum:Temp:Abs-Feuchte:Windchill:Wind:
Aussen-T/F 2201 24-02-2010 17:04:02 13.6 C 5.3 g/m*3 13.6 C 0 km/h
2202 24-02-2010 17:16:01 12.8 C 5.38 g/m*3 12.8 C 0 km/h
2203 24-02-2010 17:28:01 11.8 C 5.68 g/m*3 11.8 C 0 km/h
2204 24-02-2010 17:40:02 11.2 C 5.68 g/m*3 11.2 C 0 km/h
2205 24-02-2010 17:52:01 10.7 C 5.8 g/m*3 10.7 C 0 km/h
2206 24-02-2010 18:04:02 10.2 C 5.8 g/m*3 10.2 C 0 km/h
2207 24-02-2010 18:16:01 9.8 C 5.85 g/m*3 9.8 C 0 km/h
2208 24-02-2010 18:28:02 9.7 C 5.9 g/m*3 9.7 C 0 km/h
2209 24-02-2010 18:40:01 9.6 C 5.95 g/m*3 9.6 C 0 km/h
2210 24-02-2010 18:52:01 9.6 C 6.05 g/m*3 9.6 C 0 km/h
2211 24-02-2010 19:04:01 9.7 C 6.18 g/m*3 9.7 C 0 km/h
2212 24-02-2010 19:16:01 9.5 C 6.55 g/m*3 9.5 C 0 km/h
2213 24-02-2010 19:28:01 8.8 C 6.7 g/m*3 8.8 C 0 km/h
2214 24-02-2010 19:40:01 8.5 C 6.92 g/m*3 8.5 C 0 km/h
2215 24-02-2010 19:52:01 8.5 C 7.09 g/m*3 8.5 C 0 km/h
2216 24-02-2010 20:04:01 8.4 C 7.13 g/m*3 8.4 C 0 km/h
2217 24-02-2010 20:16:02 8.3 C 7.16 g/m*3 8.3 C 0 km/h
2218 24-02-2010 20:28:02 8.4 C 7.3 g/m*3 8.4 C 0 km/h
2219 24-02-2010 20:40:01 8.3 C 7.33 g/m*3 8.3 C 0 km/h
2220 24-02-2010 20:52:01 8.5 C 7.43 g/m*3 8.5 C 0 km/h
2221 24-02-2010 21:04:01 8.5 C 7.51 g/m*3 8.5 C 0 km/h
2222 24-02-2010 21:16:02 8.4 C 7.38 g/m*3 8.4 C 0 km/h
2223 24-02-2010 21:28:02 7.9 C 7.23 g/m*3 7.9 C 0 km/h
2224 24-02-2010 21:40:01 7.8 C 7.18 g/m*3 7.8 C 0 km/h
2225 24-02-2010 21:52:02 7.6 C 7.09 g/m*3 7.6 C 0 km/h
Sensor: Nr:Datum:Temp:Abs-Feuchte:Windchill:Wind:
Aussen-T/F 2226 24-02-2010 22:04:01 7.5 C 6.96 g/m*3 7.5 C 0 km/h
2227 24-02-2010 22:16:02 7.6 C 7.01 g/m*3 7.6 C 0 km/h
2228 24-02-2010 22:28:02 7.7 C 7.05 g/m*3 7.7 C 0 km/h
2229 24-02-2010 22:40:01 8 C 7.03 g/m*3 8 C 0 km/h
2230 24-02-2010 22:52:02 8.1 C 6.82 g/m*3 8.1 C 0 km/h
2231 24-02-2010 23:04:01 8.2 C 6.7 g/m*3 8.2 C 0 km/h
2232 24-02-2010 23:16:01 8.3 C 6.74 g/m*3 8.3 C 0 km/h
2233 24-02-2010 23:28:01 8.4 C 6.62 g/m*3 8.4 C 0 km/h
2234 24-02-2010 23:40:01 8.4 C 6.53 g/m*3 8.4 C 0 km/h
2235 24-02-2010 23:52:02 8.4 C 6.45 g/m*3 8.4 C 0 km/h
2236 25-02-2010 00:04:01 8.7 C 6.49 g/m*3 8.7 C 0 km/h
2237 25-02-2010 00:16:02 8.7 C 6.4 g/m*3 8.7 C 0 km/h
2238 25-02-2010 00:28:02 8.6 C 6.36 g/m*3 8.6 C 0 km/h
2239 25-02-2010 00:40:01 8.4 C 6.28 g/m*3 8.4 C 0 km/h
2240 25-02-2010 00:52:02 8.1 C 6.24 g/m*3 8.1 C 0 km/h
2241 25-02-2010 01:04:01 8.1 C 6.41 g/m*3 8.1 C 0 km/h
2242 25-02-2010 01:16:01 8.4 C 6.36 g/m*3 8.4 C 0 km/h
2243 25-02-2010 01:28:01 8.5 C 6.23 g/m*3 8.5 C 0 km/h
2244 25-02-2010 01:40:02 8.6 C 6.19 g/m*3 8.6 C 0 km/h
2245 25-02-2010 01:52:01 8.6 C 6.19 g/m*3 8.6 C 0 km/h
2246 25-02-2010 02:04:01 8.4 C 6.11 g/m*3 8.4 C 0 km/h
2247 25-02-2010 02:16:01 8 C 6.12 g/m*3 8 C 0 km/h
2248 25-02-2010 02:28:01 7.9 C 6.32 g/m*3 7.9 C 0 km/h
2249 25-02-2010 02:40:02 7.9 C 6.41 g/m*3 7.9 C 0 km/h
2250 25-02-2010 02:52:01 7.8 C 6.28 g/m*3 7.8 C 0 km/h
Sensor: Nr:Datum:Temp:Abs-Feuchte:Windchill:Wind:
Aussen-T/F 2251 25-02-2010 03:04:01 7.7 C 6.32 g/m*3 7.7 C 0 km/h
2252 25-02-2010 03:16:02 7.5 C 6.48 g/m*3 7.5 C 0 km/h
2253 25-02-2010 03:28:02 7.4 C 6.6 g/m*3 7.4 C 0 km/h
2254 25-02-2010 03:40:02 7.3 C 6.56 g/m*3 7.3 C 0 km/h
2255 25-02-2010 03:52:02 7.3 C 6.56 g/m*3 7.3 C 0 km/h
2256 25-02-2010 04:04:01 7.2 C 6.52 g/m*3 7.2 C 0 km/h
2257 25-02-2010 04:16:01 7.2 C 6.52 g/m*3 7.2 C 0 km/h
2258 25-02-2010 04:28:01 7.2 C 6.52 g/m*3 7.2 C 0 km/h
2259 25-02-2010 04:40:02 7.1 C 6.47 g/m*3 7.1 C 0 km/h
2260 25-02-2010 04:52:01 7.1 C 6.55 g/m*3 7.1 C 0 km/h
2261 25-02-2010 05:04:02 7.3 C 6.56 g/m*3 7.3 C 0 km/h
2262 25-02-2010 05:16:01 7.2 C 6.52 g/m*3 7.2 C 0 km/h
2263 25-02-2010 05:28:01 7.4 C 6.6 g/m*3 7.4 C 0 km/h
2264 25-02-2010 05:40:02 7.6 C 6.53 g/m*3 7.6 C 0 km/h
2265 25-02-2010 05:52:01 7.9 C 6.32 g/m*3 7.9 C 0 km/h
2266 25-02-2010 06:04:02 8.1 C 6.07 g/m*3 8.1 C 0 km/h
2267 25-02-2010 06:16:01 8.3 C 5.98 g/m*3 8.3 C 0 km/h
2268 25-02-2010 06:28:01 8.5 C 5.89 g/m*3 8.5 C 0 km/h
2269 25-02-2010 06:40:02 8.6 C 5.84 g/m*3 8.6 C 0 km/h
2270 25-02-2010 06:52:02 8.7 C 5.79 g/m*3 8.7 C 0 km/h
2271 25-02-2010 07:04:01 8.7 C 5.79 g/m*3 8.7 C 0 km/h
2272 25-02-2010 07:16:01 8.8 C 5.74 g/m*3 8.8 C 0 km/h
2273 25-02-2010 07:28:01 8.8 C 5.83 g/m*3 8.8 C 0 km/h
2274 25-02-2010 07:40:01 8.7 C 5.88 g/m*3 8.7 C 0 km/h
2275 25-02-2010 07:52:02 8.6 C 5.93 g/m*3 8.6 C 0 km/h
Sensor: Nr:Datum:Temp:Abs-Feuchte:Windchill:Wind:
Aussen-T/F 2276 25-02-2010 08:04:01 8.4 C 6.02 g/m*3 8.4 C 0 km/h
2277 25-02-2010 08:16:01 8.6 C 5.93 g/m*3 8.6 C 0 km/h
2278 25-02-2010 08:28:01 8.9 C 5.78 g/m*3 8.9 C 0 km/h
2279 25-02-2010 08:40:02 9 C 5.64 g/m*3 9 C 0 km/h
2280 25-02-2010 08:52:01 9.1 C 5.68 g/m*3 9.1 C 0 km/h
2281 25-02-2010 09:04:02 9.3 C 5.66 g/m*3 9.3 C 0 km/h
2282 25-02-2010 09:16:01 9.5 C 5.64 g/m*3 9.5 C 0 km/h
2283 25-02-2010 09:28:01 9.6 C 5.5 g/m*3 9.6 C 0 km/h
2284 25-02-2010 09:40:02 9.6 C 5.59 g/m*3 9.6 C 0 km/h
2285 25-02-2010 09:52:01 9.9 C 5.6 g/m*3 9.9 C 0 km/h
2286 25-02-2010 10:04:02 9.9 C 5.51 g/m*3 9.9 C 0 km/h
2287 25-02-2010 10:16:01 9.9 C 5.6 g/m*3 9.9 C 0 km/h
2288 25-02-2010 10:28:01 10.2 C 5.42 g/m*3 10.2 C 0 km/h
2289 25-02-2010 10:40:02 10.6 C 5.37 g/m*3 10.6 C 0 km/h
2290 25-02-2010 10:52:01 10.7 C 5.21 g/m*3 10.7 C 0 km/h
2291 25-02-2010 11:04:01 10.6 C 5.17 g/m*3 10.6 C 0 km/h
2292 25-02-2010 11:16:01 11.2 C 5.17 g/m*3 11.2 C 0 km/h
2293 25-02-2010 11:28:01 10.9 C 5.17 g/m*3 10.9 C 0 km/h
2294 25-02-2010 11:40:02 11.2 C 5.07 g/m*3 11.2 C 0 km/h
2295 25-02-2010 11:52:01 11.3 C 5.1 g/m*3 11.3 C 0 km/h
2296 25-02-2010 12:04:02 11.4 C 4.82 g/m*3 11.4 C 0 km/h
2297 25-02-2010 12:16:01 11.4 C 4.82 g/m*3 11.4 C 0 km/h
2298 25-02-2010 12:28:01 11.4 C 4.82 g/m*3 11.4 C 0 km/h
2299 25-02-2010 12:40:02 11.1 C 4.73 g/m*3 11.1 C 0 km/h
2300 25-02-2010 12:52:01 11.4 C 4.82 g/m*3 11.4 C 0 km/h
Sensor: Nr:Datum:Temp:Abs-Feuchte:Windchill:Wind:
Aussen-T/F 2301 25-02-2010 13:04:02 11.7 C 4.81 g/m*3 11.7 C 0 km/h
2302 25-02-2010 13:16:01 12.9 C 4.85 g/m*3 12.9 C 0 km/h
2303 25-02-2010 13:28:01 13 C 4.54 g/m*3 13 C 0 km/h
2304 25-02-2010 13:40:02 12.7 C 4.68 g/m*3 12.7 C 0 km/h
2305 25-02-2010 13:52:01 11.9 C 4.77 g/m*3 11.9 C 0 km/h
2306 25-02-2010 14:04:02 12.2 C 4.96 g/m*3 12.2 C 0 km/h
2307 25-02-2010 14:16:01 13 C 4.88 g/m*3 13 C 0 km/h
2308 25-02-2010 14:28:01 12.8 C 4.82 g/m*3 12.8 C 0 km/h
2309 25-02-2010 14:40:01 12.4 C 4.7 g/m*3 12.4 C 0 km/h
2310 25-02-2010 14:52:01 12.6 C 4.87 g/m*3 12.6 C 0 km/h
2311 25-02-2010 15:04:02 12.7 C 4.68 g/m*3 12.7 C 0 km/h
2312 25-02-2010 15:16:01 12.8 C 4.59 g/m*3 12.8 C 0 km/h
2313 25-02-2010 15:28:01 12.5 C 4.4 g/m*3 12.5 C 0 km/h
2314 25-02-2010 15:40:01 12.5 C 4.4 g/m*3 12.5 C 0 km/h
2315 25-02-2010 15:52:01 12.3 C 4.34 g/m*3 12.3 C 0 km/h
2316 25-02-2010 16:04:01 12.2 C 4.32 g/m*3 12.2 C 0 km/h
2317 25-02-2010 16:16:02 12 C 4.26 g/m*3 12 C 0 km/h
2318 25-02-2010 16:28:02 11.8 C 4.53 g/m*3 11.8 C 0 km/h
2319 25-02-2010 16:40:01 11.6 C 4.68 g/m*3 11.6 C 0 km/h
2320 25-02-2010 16:52:01 11.5 C 4.75 g/m*3 11.5 C 0 km/h
2321 25-02-2010 17:04:01 11.2 C 5.07 g/m*3 11.2 C 0 km/h
2322 25-02-2010 17:16:01 11.2 C 4.97 g/m*3 11.2 C 0 km/h
2323 25-02-2010 17:28:01 11 C 4.8 g/m*3 11 C 0 km/h
2324 25-02-2010 17:40:01 11 C 4.8 g/m*3 11 C 0 km/h
2325 25-02-2010 17:52:01 10.9 C 4.87 g/m*3 10.9 C 0 km/h
Sensor: Nr:Datum:Temp:Abs-Feuchte:Windchill:Wind:
Aussen-T/F 2326 25-02-2010 18:04:02 10.5 C 5.14 g/m*3 10.5 C 0 km/h
2327 25-02-2010 18:16:01 9.7 C 5.35 g/m*3 9.7 C 0 km/h
2328 25-02-2010 18:28:01 9.3 C 5.93 g/m*3 9.3 C 0 km/h
2329 25-02-2010 18:40:02 8.9 C 6.22 g/m*3 8.9 C 0 km/h
2330 25-02-2010 18:52:02 8.8 C 6.53 g/m*3 8.8 C 0 km/h
2331 25-02-2010 19:04:01 8.5 C 6.57 g/m*3 8.5 C 0 km/h
2332 25-02-2010 19:16:01 8.6 C 6.79 g/m*3 8.6 C 0 km/h
2333 25-02-2010 19:28:01 8.5 C 6.83 g/m*3 8.5 C 0 km/h
2334 25-02-2010 19:40:02 8.4 C 6.87 g/m*3 8.4 C 0 km/h
2335 25-02-2010 19:52:01 8.5 C 6.83 g/m*3 8.5 C 0 km/h
2336 25-02-2010 20:04:02 8.6 C 6.79 g/m*3 8.6 C 0 km/h
2337 25-02-2010 20:16:01 8.6 C 6.7 g/m*3 8.6 C 0 km/h
2338 25-02-2010 20:28:01 8.6 C 6.7 g/m*3 8.6 C 0 km/h
2339 25-02-2010 20:40:02 8.7 C 6.66 g/m*3 8.7 C 0 km/h
2340 25-02-2010 20:52:01 8.8 C 6.61 g/m*3 8.8 C 0 km/h
2341 25-02-2010 21:04:02 8.9 C 6.66 g/m*3 8.9 C 0 km/h
2342 25-02-2010 21:16:01 9 C 6.52 g/m*3 9 C 0 km/h
2343 25-02-2010 21:28:01 9.2 C 6.61 g/m*3 9.2 C 0 km/h
2344 25-02-2010 21:40:02 9.2 C 6.52 g/m*3 9.2 C 0 km/h
2345 25-02-2010 21:52:01 9.2 C 6.52 g/m*3 9.2 C 0 km/h
2346 25-02-2010 22:04:01 9.1 C 6.57 g/m*3 9.1 C 0 km/h
2347 25-02-2010 22:16:01 9.1 C 6.65 g/m*3 9.1 C 0 km/h
2348 25-02-2010 22:28:01 9.2 C 6.61 g/m*3 9.2 C 0 km/h
2349 25-02-2010 22:40:01 9.3 C 6.65 g/m*3 9.3 C 0 km/h
2350 25-02-2010 22:52:02 9.2 C 6.61 g/m*3 9.2 C 0 km/h
Sensor: Nr:Datum:Temp:Abs-Feuchte:Windchill:Wind:
Aussen-T/F 2351 25-02-2010 23:04:01 9.2 C 6.7 g/m*3 9.2 C 0 km/h
2352 25-02-2010 23:16:01 9.5 C 6.83 g/m*3 9.5 C 0 km/h
2353 25-02-2010 23:28:01 9.4 C 6.78 g/m*3 9.4 C 0 km/h
2354 25-02-2010 23:40:02 9.3 C 6.74 g/m*3 9.3 C 0 km/h
2355 25-02-2010 23:52:01 9.4 C 6.78 g/m*3 9.4 C 0 km/h
2356 26-02-2010 00:04:02 9.3 C 6.83 g/m*3 9.3 C 0 km/h
2357 26-02-2010 00:16:01 9.4 C 6.87 g/m*3 9.4 C 0 km/h
2358 26-02-2010 00:28:01 9.4 C 6.87 g/m*3 9.4 C 0 km/h
2359 26-02-2010 00:40:02 9.3 C 6.83 g/m*3 9.3 C 0 km/h
2360 26-02-2010 00:52:01 9.3 C 6.92 g/m*3 9.3 C 0 km/h
2361 26-02-2010 01:04:02 9.4 C 6.96 g/m*3 9.4 C 0 km/h
2362 26-02-2010 01:16:01 9.5 C 7.01 g/m*3 9.5 C 0 km/h
2363 26-02-2010 01:28:01 9.4 C 6.96 g/m*3 9.4 C 0 km/h
2364 26-02-2010 01:40:01 9.6 C 7.05 g/m*3 9.6 C 0 km/h
2365 26-02-2010 01:52:01 9.6 C 6.96 g/m*3 9.6 C 0 km/h
2366 26-02-2010 02:04:01 9.8 C 7.05 g/m*3 9.8 C 0 km/h
2367 26-02-2010 02:16:01 9.8 C 7.05 g/m*3 9.8 C 0 km/h
2368 26-02-2010 02:28:01 9.7 C 7.01 g/m*3 9.7 C 0 km/h
2369 26-02-2010 02:40:01 9.8 C 7.05 g/m*3 9.8 C 0 km/h
2370 26-02-2010 02:53:06 9.8 C 7.05 g/m*3 9.8 C 0 km/h
2371 26-02-2010 03:05:06 9.8 C 7.05 g/m*3 9.8 C 0 km/h
2372 26-02-2010 03:17:06 10 C 6.95 g/m*3 10 C 0 km/h
2373 26-02-2010 03:29:06 9.9 C 7 g/m*3 9.9 C 0 km/h
2374 26-02-2010 03:41:02 9.9 C 6.91 g/m*3 9.9 C 0 km/h
2375 26-02-2010 03:53:02 9.7 C 6.82 g/m*3 9.7 C 0 km/h
Sensor: Nr:Datum:Temp:Abs-Feuchte:Windchill:Wind:
Aussen-T/F 2376 26-02-2010 04:05:03 9.5 C 6.83 g/m*3 9.5 C 0 km/h
2377 26-02-2010 04:17:02 9.5 C 6.83 g/m*3 9.5 C 0 km/h
2378 26-02-2010 04:29:02 9.5 C 6.83 g/m*3 9.5 C 0 km/h
2379 26-02-2010 04:41:02 9.7 C 6.73 g/m*3 9.7 C 0 km/h
2380 26-02-2010 04:53:01 9.5 C 6.64 g/m*3 9.5 C 0 km/h
2381 26-02-2010 05:05:02 9.4 C 6.51 g/m*3 9.4 C 0 km/h
2382 26-02-2010 05:17:01 9.4 C 6.42 g/m*3 9.4 C 0 km/h
2383 26-02-2010 05:29:01 9.6 C 6.32 g/m*3 9.6 C 0 km/h
2384 26-02-2010 05:41:02 9.2 C 6.34 g/m*3 9.2 C 0 km/h
2385 26-02-2010 05:53:01 9.1 C 6.3 g/m*3 9.1 C 0 km/h
2386 26-02-2010 06:05:02 8.8 C 6.27 g/m*3 8.8 C 0 km/h
2387 26-02-2010 06:17:01 9 C 6.26 g/m*3 9 C 0 km/h
2388 26-02-2010 06:29:01 9.1 C 6.21 g/m*3 9.1 C 0 km/h
2389 26-02-2010 06:41:02 9.2 C 6.07 g/m*3 9.2 C 0 km/h
2390 26-02-2010 06:53:01 9.4 C 6.15 g/m*3 9.4 C 0 km/h
2391 26-02-2010 07:05:02 9.1 C 6.03 g/m*3 9.1 C 0 km/h
2392 26-02-2010 07:17:02 8.9 C 6.31 g/m*3 8.9 C 0 km/h
2393 26-02-2010 07:29:02 9 C 6.26 g/m*3 9 C 0 km/h
2394 26-02-2010 07:41:02 9.2 C 6.07 g/m*3 9.2 C 0 km/h
2395 26-02-2010 07:53:02 9.5 C 5.92 g/m*3 9.5 C 0 km/h
2396 26-02-2010 08:05:02 9.6 C 5.77 g/m*3 9.6 C 0 km/h
2397 26-02-2010 08:17:02 9.6 C 5.68 g/m*3 9.6 C 0 km/h
2398 26-02-2010 08:29:02 9.8 C 5.57 g/m*3 9.8 C 0 km/h
2399 26-02-2010 08:41:02 9.7 C 5.72 g/m*3 9.7 C 0 km/h
2400 26-02-2010 08:53:02 9.8 C 5.66 g/m*3 9.8 C 0 km/h
Sensor: Nr:Datum:Temp:Abs-Feuchte:Windchill:Wind:
Aussen-T/F 2401 26-02-2010 09:05:02 10.2 C 5.52 g/m*3 10.2 C 0 km/h
2402 26-02-2010 09:17:02 10.2 C 5.42 g/m*3 10.2 C 0 km/h
2403 26-02-2010 09:29:02 10.1 C 5.58 g/m*3 10.1 C 0 km/h
2404 26-02-2010 09:41:02 10.1 C 5.39 g/m*3 10.1 C 0 km/h
2405 26-02-2010 09:53:02 10.5 C 5.33 g/m*3 10.5 C 0 km/h
2406 26-02-2010 10:05:02 9.8 C 5.66 g/m*3 9.8 C 0 km/h
2407 26-02-2010 10:17:02 9.5 C 5.92 g/m*3 9.5 C 0 km/h
2408 26-02-2010 10:29:02 9.9 C 5.88 g/m*3 9.9 C 0 km/h
2409 26-02-2010 10:41:02 10.1 C 5.48 g/m*3 10.1 C 0 km/h
2410 26-02-2010 10:53:02 10.3 C 5.36 g/m*3 10.3 C 0 km/h
2411 26-02-2010 11:05:02 10.6 C 5.47 g/m*3 10.6 C 0 km/h
2412 26-02-2010 11:17:03 10.8 C 5.34 g/m*3 10.8 C 0 km/h
2413 26-02-2010 11:29:03 11 C 5.2 g/m*3 11 C 0 km/h
2414 26-02-2010 11:41:02 11.2 C 5.17 g/m*3 11.2 C 0 km/h
2415 26-02-2010 11:53:02 10.2 C 5.52 g/m*3 10.2 C 0 km/h
2416 26-02-2010 12:05:02 9.7 C 5.72 g/m*3 9.7 C 0 km/h
2417 26-02-2010 12:17:02 10 C 5.64 g/m*3 10 C 0 km/h
2418 26-02-2010 12:29:02 10.8 C 5.73 g/m*3 10.8 C 0 km/h
2419 26-02-2010 12:41:02 10.8 C 5.44 g/m*3 10.8 C 0 km/h
2420 26-02-2010 12:53:02 10.3 C 5.84 g/m*3 10.3 C 0 km/h
2421 26-02-2010 13:05:02 10.4 C 5.78 g/m*3 10.4 C 0 km/h
2422 26-02-2010 13:17:03 10.7 C 5.6 g/m*3 10.7 C 0 km/h
2423 26-02-2010 13:29:03 11.4 C 5.44 g/m*3 11.4 C 0 km/h
2424 26-02-2010 13:41:02 11.1 C 5.24 g/m*3 11.1 C 0 km/h
2425 26-02-2010 13:53:01 10.9 C 5.07 g/m*3 10.9 C 0 km/h
Sensor: Nr:Datum:Temp:Abs-Feuchte:Windchill:Wind:
Aussen-T/F 2426 26-02-2010 14:05:01 11.1 C 5.34 g/m*3 11.1 C 0 km/h
2427 26-02-2010 14:17:02 10.8 C 5.14 g/m*3 10.8 C 0 km/h
2428 26-02-2010 14:29:02 10.6 C 5.17 g/m*3 10.6 C 0 km/h
2429 26-02-2010 14:41:02 10.1 C 5.01 g/m*3 10.1 C 0 km/h
2430 26-02-2010 14:53:03 9.4 C 5.25 g/m*3 9.4 C 0 km/h
2431 26-02-2010 15:05:03 9.2 C 5.36 g/m*3 9.2 C 0 km/h
2432 26-02-2010 15:17:02 8.9 C 5.26 g/m*3 8.9 C 0 km/h
2433 26-02-2010 15:29:03 8.7 C 5.28 g/m*3 8.7 C 0 km/h
2434 26-02-2010 15:41:02 8.4 C 5.34 g/m*3 8.4 C 0 km/h
2435 26-02-2010 15:53:02 8.3 C 4.89 g/m*3 8.3 C 0 km/h
2436 26-02-2010 16:05:02 8.2 C 4.69 g/m*3 8.2 C 0 km/h
2437 26-02-2010 16:17:02 8 C 4.3 g/m*3 8 C 0 km/h
2438 26-02-2010 16:29:02 7.9 C 4.19 g/m*3 7.9 C 0 km/h
2439 26-02-2010 16:41:04 7.9 C 4.02 g/m*3 7.9 C 0 km/h
2440 26-02-2010 16:53:02 7.9 C 4.11 g/m*3 7.9 C 0 km/h
2441 26-02-2010 17:05:01 8.1 C 4.08 g/m*3 8.1 C 0 km/h
2442 26-02-2010 17:17:02 8 C 4.05 g/m*3 8 C 0 km/h
2443 26-02-2010 17:29:02 7.9 C 4.11 g/m*3 7.9 C 0 km/h
2444 26-02-2010 17:41:02 7.8 C 4.16 g/m*3 7.8 C 0 km/h
2445 26-02-2010 17:53:02 7.7 C 4.22 g/m*3 7.7 C 0 km/h
2446 26-02-2010 18:05:02 7.6 C 4.27 g/m*3 7.6 C 0 km/h
2447 26-02-2010 18:17:01 7.3 C 4.42 g/m*3 7.3 C 0 km/h
2448 26-02-2010 18:29:01 6.6 C 4.76 g/m*3 6.6 C 0 km/h
2449 26-02-2010 18:41:02 6.3 C 4.44 g/m*3 6.3 C 0 km/h
2450 26-02-2010 18:53:02 6.3 C 4.22 g/m*3 6.3 C 0 km/h
Sensor: Nr:Datum:Temp:Abs-Feuchte:Windchill:Wind:
Aussen-T/F 2451 26-02-2010 19:05:02 6.5 C 4.2 g/m*3 6.5 C 0 km/h
2452 26-02-2010 19:17:02 6.3 C 4.29 g/m*3 6.3 C 0 km/h
2453 26-02-2010 19:29:02 5.8 C 4.3 g/m*3 5.8 C 0 km/h
2454 26-02-2010 19:41:04 5.8 C 4.01 g/m*3 5.8 C 0 km/h
2455 26-02-2010 19:53:04 5.8 C 3.94 g/m*3 5.8 C 0 km/h
2456 26-02-2010 20:05:02 5.9 C 4.04 g/m*3 5.9 C 0 km/h
2457 26-02-2010 20:17:02 6 C 4.14 g/m*3 6 C 0 km/h
2458 26-02-2010 20:29:02 5.9 C 4.18 g/m*3 5.9 C 0 km/h
2459 26-02-2010 20:41:03 6 C 3.92 g/m*3 6 C 0 km/h
2460 26-02-2010 20:53:02 5.9 C 3.89 g/m*3 5.9 C 0 km/h
2461 26-02-2010 21:05:02 5.8 C 3.94 g/m*3 5.8 C 0 km/h
2462 26-02-2010 21:17:03 5.6 C 4.03 g/m*3 5.6 C 0 km/h
2463 26-02-2010 21:29:03 5.5 C 4 g/m*3 5.5 C 0 km/h
2464 26-02-2010 21:41:02 5.6 C 3.89 g/m*3 5.6 C 0 km/h
2465 26-02-2010 21:53:03 5.7 C 3.91 g/m*3 5.7 C 0 km/h
2466 26-02-2010 22:05:02 5.5 C 3.86 g/m*3 5.5 C 0 km/h
2467 26-02-2010 22:17:03 5.4 C 3.84 g/m*3 5.4 C 0 km/h
2468 26-02-2010 22:29:03 5.3 C 3.81 g/m*3 5.3 C 0 km/h
2469 26-02-2010 22:42:04 5.2 C 3.65 g/m*3 5.2 C 0 km/h
2470 26-02-2010 22:54:04 5.1 C 3.69 g/m*3 5.1 C 0 km/h
2471 26-02-2010 23:06:04 5.1 C 3.63 g/m*3 5.1 C 0 km/h
2472 26-02-2010 23:18:04 5.1 C 3.63 g/m*3 5.1 C 0 km/h
2473 26-02-2010 23:30:04 4.9 C 3.71 g/m*3 4.9 C 0 km/h
2474 26-02-2010 23:42:04 4.7 C 3.66 g/m*3 4.7 C 0 km/h
2475 26-02-2010 23:54:05 4.7 C 3.6 g/m*3 4.7 C 0 km/h
Sensor: Nr:Datum:Temp:Abs-Feuchte:Windchill:Wind:
Aussen-T/F 2476 27-02-2010 00:06:05 4.5 C 3.62 g/m*3 4.5 C 0 km/h
2477 27-02-2010 00:18:05 4.4 C 3.59 g/m*3 4.4 C 0 km/h
2478 27-02-2010 00:30:05 4.4 C 3.59 g/m*3 4.4 C 0 km/h
2479 27-02-2010 00:42:05 4.3 C 3.57 g/m*3 4.3 C 0 km/h
2480 27-02-2010 00:54:05 4.1 C 3.58 g/m*3 4.1 C 0 km/h
2481 27-02-2010 01:06:05 3.8 C 3.64 g/m*3 3.8 C 0 km/h
2482 27-02-2010 01:18:05 3.9 C 3.73 g/m*3 3.9 C 0 km/h
2483 27-02-2010 01:30:05 4 C 3.62 g/m*3 4 C 0 km/h
2484 27-02-2010 01:42:05 4.1 C 3.58 g/m*3 4.1 C 0 km/h
2485 27-02-2010 01:54:05 3.7 C 3.68 g/m*3 3.7 C 0 km/h
2486 27-02-2010 02:06:05 3.2 C 3.74 g/m*3 3.2 C 0 km/h
2487 27-02-2010 02:18:05 2.8 C 3.75 g/m*3 2.8 C 0 km/h
2488 27-02-2010 02:30:05 3.1 C 3.77 g/m*3 3.1 C 0 km/h
2489 27-02-2010 02:42:05 3.1 C 3.77 g/m*3 3.1 C 0 km/h
2490 27-02-2010 02:54:05 3.2 C 3.74 g/m*3 3.2 C 0 km/h
2491 27-02-2010 03:06:05 3.3 C 3.76 g/m*3 3.3 C 0 km/h
2492 27-02-2010 03:18:05 3.5 C 3.69 g/m*3 3.5 C 0 km/h
2493 27-02-2010 03:30:05 3.7 C 3.74 g/m*3 3.7 C 0 km/h
2494 27-02-2010 03:42:05 3.6 C 3.78 g/m*3 3.6 C 0 km/h
2495 27-02-2010 03:54:05 3.5 C 3.81 g/m*3 3.5 C 0 km/h
2496 27-02-2010 04:06:06 3.4 C 3.79 g/m*3 3.4 C 0 km/h
2497 27-02-2010 04:18:06 3.3 C 3.88 g/m*3 3.3 C 0 km/h
2498 27-02-2010 04:30:06 3.4 C 3.97 g/m*3 3.4 C 0 km/h
2499 27-02-2010 04:42:06 3.6 C 4.09 g/m*3 3.6 C 0 km/h
2500 27-02-2010 04:54:06 4.1 C 4.16 g/m*3 4.1 C 0 km/h
Sensor: Nr:Datum:Temp:Abs-Feuchte:Windchill:Wind:
Aussen-T/F 2501 27-02-2010 05:06:06 4 C 4.07 g/m*3 4 C 0 km/h
2502 27-02-2010 05:18:06 3.9 C 4.17 g/m*3 3.9 C 0 km/h
2503 27-02-2010 05:30:06 3.9 C 4.23 g/m*3 3.9 C 0 km/h
2504 27-02-2010 05:42:06 3.8 C 4.2 g/m*3 3.8 C 0 km/h
2505 27-02-2010 05:54:06 3.6 C 4.21 g/m*3 3.6 C 0 km/h
2506 27-02-2010 06:06:06 4 C 4.26 g/m*3 4 C 0 km/h
2507 27-02-2010 06:18:06 4.3 C 4.28 g/m*3 4.3 C 0 km/h
2508 27-02-2010 06:30:06 4.3 C 4.22 g/m*3 4.3 C 0 km/h
2509 27-02-2010 06:42:06 4.4 C 4.31 g/m*3 4.4 C 0 km/h
2510 27-02-2010 06:54:06 4.6 C 4.37 g/m*3 4.6 C 0 km/h
2511 27-02-2010 07:06:06 4.4 C 4.31 g/m*3 4.4 C 0 km/h
2512 27-02-2010 07:18:06 4.7 C 4.46 g/m*3 4.7 C 0 km/h
2513 27-02-2010 07:30:06 4.8 C 4.49 g/m*3 4.8 C 0 km/h
2514 27-02-2010 07:42:06 5.2 C 4.54 g/m*3 5.2 C 0 km/h
2515 27-02-2010 07:54:06 5.3 C 4.57 g/m*3 5.3 C 0 km/h
2516 27-02-2010 08:06:07 5.4 C 4.6 g/m*3 5.4 C 0 km/h
2517 27-02-2010 08:18:07 5.6 C 4.67 g/m*3 5.6 C 0 km/h
2518 27-02-2010 08:30:07 5.8 C 4.66 g/m*3 5.8 C 0 km/h
2519 27-02-2010 08:42:03 6.4 C 4.62 g/m*3 6.4 C 0 km/h
2520 27-02-2010 08:54:01 6.5 C 4.57 g/m*3 6.5 C 0 km/h
2521 27-02-2010 09:06:02 6.6 C 4.6 g/m*3 6.6 C 0 km/h
2522 27-02-2010 09:18:02 6.8 C 4.59 g/m*3 6.8 C 0 km/h
2523 27-02-2010 09:30:02 7 C 4.49 g/m*3 7 C 0 km/h
2524 27-02-2010 09:42:01 7.1 C 4.45 g/m*3 7.1 C 0 km/h
2525 27-02-2010 09:54:02 7.3 C 4.5 g/m*3 7.3 C 0 km/h
Sensor: Nr:Datum:Temp:Abs-Feuchte:Windchill:Wind:
Aussen-T/F 2526 27-02-2010 10:06:01 7.5 C 4.48 g/m*3 7.5 C 0 km/h
2527 27-02-2010 10:18:02 7.6 C 4.43 g/m*3 7.6 C 0 km/h
2528 27-02-2010 10:30:02 8.1 C 4.49 g/m*3 8.1 C 0 km/h
2529 27-02-2010 10:42:01 8.7 C 4.58 g/m*3 8.7 C 0 km/h
2530 27-02-2010 10:54:03 8.6 C 4.55 g/m*3 8.6 C 0 km/h
2531 27-02-2010 11:06:02 8.7 C 4.5 g/m*3 8.7 C 0 km/h
2532 27-02-2010 11:18:02 9.1 C 4.53 g/m*3 9.1 C 0 km/h
2533 27-02-2010 11:30:03 9.3 C 4.49 g/m*3 9.3 C 0 km/h
2534 27-02-2010 11:42:02 9.3 C 4.31 g/m*3 9.3 C 0 km/h
2535 27-02-2010 11:54:02 9.3 C 4.31 g/m*3 9.3 C 0 km/h
2536 27-02-2010 12:06:02 9.4 C 4.34 g/m*3 9.4 C 0 km/h
2537 27-02-2010 12:18:02 9.8 C 4.36 g/m*3 9.8 C 0 km/h
2538 27-02-2010 12:30:02 10.1 C 4.35 g/m*3 10.1 C 0 km/h
2539 27-02-2010 12:42:02 10.8 C 4.35 g/m*3 10.8 C 0 km/h
2540 27-02-2010 12:54:02 11.2 C 4.16 g/m*3 11.2 C 0 km/h
2541 27-02-2010 13:06:01 11.8 C 4.1 g/m*3 11.8 C 0 km/h
2542 27-02-2010 13:18:01 11.8 C 3.68 g/m*3 11.8 C 0 km/h
2543 27-02-2010 13:30:01 12.3 C 3.58 g/m*3 12.3 C 0 km/h
2544 27-02-2010 13:42:02 12.9 C 3.49 g/m*3 12.9 C 0 km/h
2545 27-02-2010 13:54:02 12.9 C 3.38 g/m*3 12.9 C 0 km/h
2546 27-02-2010 14:06:02 13.4 C 3.49 g/m*3 13.4 C 0 km/h
2547 27-02-2010 14:18:02 14.2 C 3.42 g/m*3 14.2 C 0 km/h
2548 27-02-2010 14:30:02 14.5 C 3.23 g/m*3 14.5 C 0 km/h
2549 27-02-2010 14:42:02 14.8 C 3.17 g/m*3 14.8 C 0 km/h
2550 27-02-2010 14:54:01 14.9 C 2.8 g/m*3 14.9 C 0 km/h
Sensor: Nr:Datum:Temp:Abs-Feuchte:Windchill:Wind:
Aussen-T/F 2551 27-02-2010 15:06:02 14.8 C 2.79 g/m*3 14.8 C 0 km/h
2552 27-02-2010 15:18:01 15.5 C 2.78 g/m*3 15.5 C 0 km/h
2553 27-02-2010 15:30:01 15.9 C 2.84 g/m*3 15.9 C 0 km/h
2554 27-02-2010 15:42:02 15.6 C 2.93 g/m*3 15.6 C 0 km/h
2555 27-02-2010 15:54:02 15.7 C 3.08 g/m*3 15.7 C 0 km/h
2556 27-02-2010 16:06:02 15.7 C 2.81 g/m*3 15.7 C 0 km/h
2557 27-02-2010 16:18:01 14.8 C 2.66 g/m*3 14.8 C 0 km/h
2558 27-02-2010 16:30:01 15 C 2.56 g/m*3 15 C 0 km/h
2559 27-02-2010 16:42:02 14.3 C 2.46 g/m*3 14.3 C 0 km/h
2560 27-02-2010 16:54:02 14.6 C 2.5 g/m*3 14.6 C 0 km/h
2561 27-02-2010 17:06:02 15.7 C 2.68 g/m*3 15.7 C 0 km/h
2562 27-02-2010 17:18:02 14.4 C 2.47 g/m*3 14.4 C 0 km/h
2563 27-02-2010 17:30:02 13.5 C 2.57 g/m*3 13.5 C 0 km/h
2564 27-02-2010 17:42:02 12.9 C 3.38 g/m*3 12.9 C 0 km/h
2565 27-02-2010 17:54:02 11.7 C 3.66 g/m*3 11.7 C 0 km/h
2566 27-02-2010 18:06:02 11 C 3.7 g/m*3 11 C 0 km/h
2567 27-02-2010 18:18:03 10.5 C 3.88 g/m*3 10.5 C 0 km/h
2568 27-02-2010 18:30:03 10.2 C 3.81 g/m*3 10.2 C 0 km/h
2569 27-02-2010 18:42:02 10 C 3.95 g/m*3 10 C 0 km/h
2570 27-02-2010 18:54:02 9.9 C 4.2 g/m*3 9.9 C 0 km/h
2571 27-02-2010 19:06:02 9.8 C 4.27 g/m*3 9.8 C 0 km/h
2572 27-02-2010 19:18:02 10 C 4.23 g/m*3 10 C 0 km/h
2573 27-02-2010 19:30:02 10 C 4.23 g/m*3 10 C 0 km/h
2574 27-02-2010 19:42:02 9.8 C 4.18 g/m*3 9.8 C 0 km/h
2575 27-02-2010 19:54:02 9.8 C 4.18 g/m*3 9.8 C 0 km/h
Sensor: Nr:Datum:Temp:Abs-Feuchte:Windchill:Wind:
Aussen-T/F 2576 27-02-2010 20:06:02 10 C 4.13 g/m*3 10 C 0 km/h
2577 27-02-2010 20:18:02 9.9 C 4.2 g/m*3 9.9 C 0 km/h
2578 27-02-2010 20:30:02 9.7 C 4.15 g/m*3 9.7 C 0 km/h
2579 27-02-2010 20:42:02 9.9 C 4.01 g/m*3 9.9 C 0 km/h
2580 27-02-2010 20:54:02 9.8 C 4.18 g/m*3 9.8 C 0 km/h
2581 27-02-2010 21:06:01 9.6 C 3.94 g/m*3 9.6 C 0 km/h
2582 27-02-2010 21:18:02 9.6 C 3.94 g/m*3 9.6 C 0 km/h
2583 27-02-2010 21:30:02 9.6 C 3.94 g/m*3 9.6 C 0 km/h
2584 27-02-2010 21:42:01 9.7 C 3.69 g/m*3 9.7 C 0 km/h
2585 27-02-2010 21:54:03 9.6 C 3.66 g/m*3 9.6 C 0 km/h
2586 27-02-2010 22:06:03 9.7 C 3.78 g/m*3 9.7 C 0 km/h
2587 27-02-2010 22:18:02 9.8 C 3.71 g/m*3 9.8 C 0 km/h
2588 27-02-2010 22:30:02 9.8 C 3.71 g/m*3 9.8 C 0 km/h
2589 27-02-2010 22:43:02 9.9 C 3.64 g/m*3 9.9 C 0 km/h
2590 27-02-2010 22:55:02 9.8 C 3.71 g/m*3 9.8 C 0 km/h
2591 27-02-2010 23:07:02 9.8 C 3.71 g/m*3 9.8 C 0 km/h
2592 27-02-2010 23:19:02 9.7 C 3.69 g/m*3 9.7 C 0 km/h
2593 27-02-2010 23:31:02 9.6 C 3.66 g/m*3 9.6 C 0 km/h
2594 27-02-2010 23:43:03 9.6 C 3.76 g/m*3 9.6 C 0 km/h
2595 27-02-2010 23:55:03 9.4 C 3.8 g/m*3 9.4 C 0 km/h
2596 28-02-2010 00:07:03 9.3 C 3.77 g/m*3 9.3 C 0 km/h
2597 28-02-2010 00:19:03 8.9 C 4.2 g/m*3 8.9 C 0 km/h
2598 28-02-2010 00:31:03 8.6 C 4.04 g/m*3 8.6 C 0 km/h
2599 28-02-2010 00:43:03 8.5 C 4.44 g/m*3 8.5 C 0 km/h
2600 28-02-2010 00:55:03 7.3 C 4.98 g/m*3 7.3 C 0 km/h
Sensor: Nr:Datum:Temp:Abs-Feuchte:Windchill:Wind:
Aussen-T/F 2601 28-02-2010 01:07:03 6.9 C 5.54 g/m*3 6.9 C 0 km/h
2602 28-02-2010 01:19:03 6.6 C 5.59 g/m*3 6.6 C 0 km/h
2603 28-02-2010 01:31:03 6.4 C 5.74 g/m*3 6.4 C 0 km/h
2604 28-02-2010 01:43:03 6.4 C 5.89 g/m*3 6.4 C 0 km/h
2605 28-02-2010 01:55:03 6.2 C 5.88 g/m*3 6.2 C 0 km/h
2606 28-02-2010 02:07:03 6.2 C 6.03 g/m*3 6.2 C 0 km/h
2607 28-02-2010 02:19:03 6.2 C 6.1 g/m*3 6.2 C 0 km/h
2608 28-02-2010 02:31:03 5.9 C 6.06 g/m*3 5.9 C 0 km/h
2609 28-02-2010 02:43:03 5.9 C 6.13 g/m*3 5.9 C 0 km/h
2610 28-02-2010 02:55:03 5.8 C 6.09 g/m*3 5.8 C 0 km/h
2611 28-02-2010 03:07:03 5.8 C 6.16 g/m*3 5.8 C 0 km/h
2612 28-02-2010 03:19:03 5.7 C 6.12 g/m*3 5.7 C 0 km/h
2613 28-02-2010 03:31:03 5.7 C 6.12 g/m*3 5.7 C 0 km/h
2614 28-02-2010 03:43:03 5.7 C 6.12 g/m*3 5.7 C 0 km/h
2615 28-02-2010 03:55:04 5.8 C 6.09 g/m*3 5.8 C 0 km/h
2616 28-02-2010 04:07:04 5.9 C 6.13 g/m*3 5.9 C 0 km/h
2617 28-02-2010 04:19:04 6 C 6.17 g/m*3 6 C 0 km/h
2618 28-02-2010 04:31:04 6.3 C 6.29 g/m*3 6.3 C 0 km/h
2619 28-02-2010 04:43:04 6.3 C 6.37 g/m*3 6.3 C 0 km/h
2620 28-02-2010 04:55:04 6.1 C 6.28 g/m*3 6.1 C 0 km/h
2621 28-02-2010 05:07:04 6.1 C 6.36 g/m*3 6.1 C 0 km/h
2622 28-02-2010 05:19:04 6.3 C 6.44 g/m*3 6.3 C 0 km/h
2623 28-02-2010 05:31:04 6.3 C 6.44 g/m*3 6.3 C 0 km/h
2624 28-02-2010 05:43:04 6.3 C 6.44 g/m*3 6.3 C 0 km/h
2625 28-02-2010 05:55:04 6.3 C 6.44 g/m*3 6.3 C 0 km/h
Sensor: Nr:Datum:Temp:Abs-Feuchte:Windchill:Wind:
Aussen-T/F 2626 28-02-2010 06:07:04 6.1 C 6.43 g/m*3 6.1 C 0 km/h
2627 28-02-2010 06:19:04 6.3 C 6.51 g/m*3 6.3 C 0 km/h
2628 28-02-2010 06:31:04 6.2 C 6.47 g/m*3 6.2 C 0 km/h
2629 28-02-2010 06:43:04 6.1 C 6.5 g/m*3 6.1 C 0 km/h
2630 28-02-2010 06:55:04 6.1 C 6.5 g/m*3 6.1 C 0 km/h
2631 28-02-2010 07:07:04 6.3 C 6.66 g/m*3 6.3 C 0 km/h
2632 28-02-2010 07:19:04 6.3 C 6.66 g/m*3 6.3 C 0 km/h
2633 28-02-2010 07:31:04 6.2 C 6.69 g/m*3 6.2 C 0 km/h
2634 28-02-2010 07:43:04 6.3 C 6.74 g/m*3 6.3 C 0 km/h
2635 28-02-2010 07:55:04 6.4 C 6.85 g/m*3 6.4 C 0 km/h
2636 28-02-2010 08:07:01 6.5 C 6.9 g/m*3 6.5 C 0 km/h
2637 28-02-2010 08:19:02 6.7 C 7.07 g/m*3 6.7 C 0 km/h
2638 28-02-2010 08:31:02 6.9 C 7.16 g/m*3 6.9 C 0 km/h
2639 28-02-2010 08:43:02 7 C 7.13 g/m*3 7 C 0 km/h
2640 28-02-2010 08:55:01 7.3 C 7.35 g/m*3 7.3 C 0 km/h
2641 28-02-2010 09:07:02 7.9 C 7.47 g/m*3 7.9 C 0 km/h
2642 28-02-2010 09:19:02 8.2 C 7.2 g/m*3 8.2 C 0 km/h
2643 28-02-2010 09:31:01 8.5 C 7.09 g/m*3 8.5 C 0 km/h
2644 28-02-2010 09:43:01 8.8 C 6.96 g/m*3 8.8 C 0 km/h
2645 28-02-2010 09:55:01 8.8 C 6.88 g/m*3 8.8 C 0 km/h
2646 28-02-2010 10:07:02 8.9 C 6.75 g/m*3 8.9 C 0 km/h
2647 28-02-2010 10:19:02 9.3 C 6.65 g/m*3 9.3 C 0 km/h
2648 28-02-2010 10:31:01 9.6 C 6.69 g/m*3 9.6 C 0 km/h
2649 28-02-2010 10:43:01 9.8 C 6.87 g/m*3 9.8 C 0 km/h
2650 28-02-2010 10:55:01 10.2 C 6.66 g/m*3 10.2 C 0 km/h
Sensor: Nr:Datum:Temp:Abs-Feuchte:Windchill:Wind:
Aussen-T/F 2651 28-02-2010 11:07:02 10.7 C 6.78 g/m*3 10.7 C 0 km/h
2652 28-02-2010 11:19:02 12.3 C 5.97 g/m*3 12.3 C 0 km/h
2653 28-02-2010 11:31:01 13.2 C 5.28 g/m*3 13.2 C 0 km/h
2654 28-02-2010 11:43:01 13 C 5.22 g/m*3 13 C 0 km/h
2655 28-02-2010 11:55:01 13 C 4.65 g/m*3 13 C 0 km/h
2656 28-02-2010 12:07:01 13 C 4.65 g/m*3 13 C 0 km/h
2657 28-02-2010 12:19:02 12.7 C 4.56 g/m*3 12.7 C 0 km/h
2658 28-02-2010 12:31:01 13 C 4.31 g/m*3 13 C 0 km/h
2659 28-02-2010 12:43:01 12.6 C 4.54 g/m*3 12.6 C 0 km/h
2660 28-02-2010 12:55:02 12.5 C 4.29 g/m*3 12.5 C 0 km/h
2661 28-02-2010 13:07:01 12.5 C 4.18 g/m*3 12.5 C 0 km/h
2662 28-02-2010 13:19:02 12.2 C 4.1 g/m*3 12.2 C 0 km/h
2663 28-02-2010 13:31:01 11.9 C 3.92 g/m*3 11.9 C 0 km/h
2664 28-02-2010 13:43:01 11.8 C 3.89 g/m*3 11.8 C 0 km/h
2665 28-02-2010 13:55:02 11.8 C 3.79 g/m*3 11.8 C 0 km/h
2666 28-02-2010 14:07:42 11.6 C 3.64 g/m*3 11.6 C 0 km/h
2667 28-02-2010 14:19:02 11.4 C 3.59 g/m*3 11.4 C 0 km/h
2668 28-02-2010 14:31:02 11.1 C 3.63 g/m*3 11.1 C 0 km/h
2669 28-02-2010 14:43:02 10.7 C 3.83 g/m*3 10.7 C 0 km/h
2670 28-02-2010 14:55:02 10.5 C 3.88 g/m*3 10.5 C 0 km/h
2671 28-02-2010 15:07:01 10.6 C 3.9 g/m*3 10.6 C 0 km/h
2672 28-02-2010 15:19:02 10.5 C 3.88 g/m*3 10.5 C 0 km/h
2673 28-02-2010 15:31:01 9.7 C 4.52 g/m*3 9.7 C 0 km/h
2674 28-02-2010 15:43:01 10 C 4.51 g/m*3 10 C 0 km/h
2675 28-02-2010 15:55:03 10 C 4.32 g/m*3 10 C 0 km/h
Sensor: Nr:Datum:Temp:Abs-Feuchte:Windchill:Wind:
Aussen-T/F 2676 28-02-2010 16:07:02 10 C 4.42 g/m*3 10 C 0 km/h
2677 28-02-2010 16:19:02 9.8 C 4.45 g/m*3 9.8 C 0 km/h
2678 28-02-2010 16:31:02 9.6 C 4.49 g/m*3 9.6 C 0 km/h
2679 28-02-2010 16:43:02 9.5 C 4.64 g/m*3 9.5 C 0 km/h
2680 28-02-2010 16:55:02 9.2 C 4.64 g/m*3 9.2 C 0 km/h
2681 28-02-2010 17:07:02 9.2 C 4.64 g/m*3 9.2 C 0 km/h
2682 28-02-2010 17:19:02 9.2 C 4.64 g/m*3 9.2 C 0 km/h
2683 28-02-2010 17:31:02 9.1 C 4.53 g/m*3 9.1 C 0 km/h
2684 28-02-2010 17:43:02 8.9 C 4.56 g/m*3 8.9 C 0 km/h
2685 28-02-2010 17:55:02 8.7 C 4.76 g/m*3 8.7 C 0 km/h
2686 28-02-2010 18:07:01 8.2 C 5.02 g/m*3 8.2 C 0 km/h
2687 28-02-2010 18:19:02 8.1 C 4.99 g/m*3 8.1 C 0 km/h
2688 28-02-2010 18:31:01 8.2 C 5.02 g/m*3 8.2 C 0 km/h
2689 28-02-2010 18:43:01 8.2 C 4.94 g/m*3 8.2 C 0 km/h
2690 28-02-2010 18:55:03 8 C 5.13 g/m*3 8 C 0 km/h
2691 28-02-2010 19:07:02 7.9 C 5.09 g/m*3 7.9 C 0 km/h
2692 28-02-2010 19:19:03 8 C 4.88 g/m*3 8 C 0 km/h
2693 28-02-2010 19:31:03 8.1 C 4.74 g/m*3 8.1 C 0 km/h
2694 28-02-2010 19:43:03 8 C 4.71 g/m*3 8 C 0 km/h
2695 28-02-2010 19:55:02 8.1 C 4.74 g/m*3 8.1 C 0 km/h
2696 28-02-2010 20:07:03 8 C 4.71 g/m*3 8 C 0 km/h
2697 28-02-2010 20:19:02 7.8 C 4.9 g/m*3 7.8 C 0 km/h
2698 28-02-2010 20:31:01 7.8 C 4.98 g/m*3 7.8 C 0 km/h
2699 28-02-2010 20:43:01 7.7 C 4.95 g/m*3 7.7 C 0 km/h
2700 28-02-2010 20:55:01 7.8 C 4.73 g/m*3 7.8 C 0 km/h
Sensor: Nr:Datum:Temp:Abs-Feuchte:Windchill:Wind:
Aussen-T/F 2701 28-02-2010 21:07:02 7.8 C 4.57 g/m*3 7.8 C 0 km/h
2702 28-02-2010 21:19:02 7.6 C 4.51 g/m*3 7.6 C 0 km/h
2703 28-02-2010 21:31:02 7.5 C 4.56 g/m*3 7.5 C 0 km/h
2704 28-02-2010 21:43:02 7.6 C 4.51 g/m*3 7.6 C 0 km/h
2705 28-02-2010 21:55:02 7.7 C 4.54 g/m*3 7.7 C 0 km/h
2706 28-02-2010 22:08:03 7.6 C 4.51 g/m*3 7.6 C 0 km/h
2707 28-02-2010 22:20:03 7.5 C 4.48 g/m*3 7.5 C 0 km/h
2708 28-02-2010 22:32:03 7.4 C 4.53 g/m*3 7.4 C 0 km/h
2709 28-02-2010 22:44:03 7.1 C 4.68 g/m*3 7.1 C 0 km/h
2710 28-02-2010 22:56:03 7 C 4.65 g/m*3 7 C 0 km/h
2711 28-02-2010 23:08:03 7 C 4.8 g/m*3 7 C 0 km/h
2712 28-02-2010 23:20:03 7 C 4.8 g/m*3 7 C 0 km/h
2713 28-02-2010 23:32:03 6.9 C 4.93 g/m*3 6.9 C 0 km/h
2714 28-02-2010 23:44:03 6.7 C 4.94 g/m*3 6.7 C 0 km/h
2715 28-02-2010 23:56:03 6.6 C 4.98 g/m*3 6.6 C 0 km/h
2716 01-03-2010 00:08:03 6.3 C 4.89 g/m*3 6.3 C 0 km/h
2717 01-03-2010 00:20:04 6.1 C 4.89 g/m*3 6.1 C 0 km/h
2718 01-03-2010 00:32:04 6.2 C 4.85 g/m*3 6.2 C 0 km/h
2719 01-03-2010 00:44:04 6.1 C 4.75 g/m*3 6.1 C 0 km/h
2720 01-03-2010 00:56:04 6.1 C 4.6 g/m*3 6.1 C 0 km/h
2721 01-03-2010 01:08:04 5.9 C 4.76 g/m*3 5.9 C 0 km/h
2722 01-03-2010 01:20:04 5.7 C 4.7 g/m*3 5.7 C 0 km/h
2723 01-03-2010 01:32:04 5.8 C 4.37 g/m*3 5.8 C 0 km/h
2724 01-03-2010 01:44:04 5.7 C 4.34 g/m*3 5.7 C 0 km/h
2725 01-03-2010 01:56:04 5.8 C 4.23 g/m*3 5.8 C 0 km/h
Sensor: Nr:Datum:Temp:Abs-Feuchte:Windchill:Wind:
Aussen-T/F 2726 01-03-2010 02:08:04 5.8 C 4.23 g/m*3 5.8 C 0 km/h
2727 01-03-2010 02:20:04 5.7 C 3.99 g/m*3 5.7 C 0 km/h
2728 01-03-2010 02:32:04 5.6 C 3.96 g/m*3 5.6 C 0 km/h
2729 01-03-2010 02:44:05 5.5 C 3.93 g/m*3 5.5 C 0 km/h
2730 01-03-2010 02:56:05 5.4 C 4.05 g/m*3 5.4 C 0 km/h
2731 01-03-2010 03:08:05 5.3 C 4.09 g/m*3 5.3 C 0 km/h
2732 01-03-2010 03:20:05 5 C 4.14 g/m*3 5 C 0 km/h
2733 01-03-2010 03:32:05 5 C 4.14 g/m*3 5 C 0 km/h
2734 01-03-2010 03:44:05 4.9 C 4.12 g/m*3 4.9 C 0 km/h
2735 01-03-2010 03:56:05 4.8 C 4.09 g/m*3 4.8 C 0 km/h
2736 01-03-2010 04:08:05 4.7 C 4.13 g/m*3 4.7 C 0 km/h
2737 01-03-2010 04:20:05 4.6 C 4.17 g/m*3 4.6 C 0 km/h
2738 01-03-2010 04:32:05 4.6 C 4.23 g/m*3 4.6 C 0 km/h
2739 01-03-2010 04:44:05 4.7 C 4.33 g/m*3 4.7 C 0 km/h
2740 01-03-2010 04:56:05 4.8 C 4.36 g/m*3 4.8 C 0 km/h
2741 01-03-2010 05:08:05 4.4 C 4.7 g/m*3 4.4 C 0 km/h
2742 01-03-2010 05:20:05 4.1 C 4.99 g/m*3 4.1 C 0 km/h
2743 01-03-2010 05:32:05 3.8 C 5.08 g/m*3 3.8 C 0 km/h
2744 01-03-2010 05:44:05 3.5 C 5.04 g/m*3 3.5 C 0 km/h
2745 01-03-2010 05:56:05 3.5 C 5.04 g/m*3 3.5 C 0 km/h
2746 01-03-2010 06:08:05 3.4 C 5.01 g/m*3 3.4 C 0 km/h
2747 01-03-2010 06:20:05 3.4 C 5.01 g/m*3 3.4 C 0 km/h
2748 01-03-2010 06:32:05 3.6 C 4.89 g/m*3 3.6 C 0 km/h
2749 01-03-2010 06:44:05 3.8 C 4.77 g/m*3 3.8 C 0 km/h
2750 01-03-2010 06:56:05 4 C 4.64 g/m*3 4 C 0 km/h
Sensor: Nr:Datum:Temp:Abs-Feuchte:Windchill:Wind:
Aussen-T/F 2751 01-03-2010 07:08:05 4.1 C 4.48 g/m*3 4.1 C 0 km/h
2752 01-03-2010 07:20:03 4.2 C 4.38 g/m*3 4.2 C 0 km/h
2753 01-03-2010 07:32:03 4.2 C 4.12 g/m*3 4.2 C 0 km/h
2754 01-03-2010 07:44:03 4.4 C 3.92 g/m*3 4.4 C 0 km/h
2755 01-03-2010 07:56:02 4.6 C 3.77 g/m*3 4.6 C 0 km/h
2756 01-03-2010 08:08:02 4.6 C 3.71 g/m*3 4.6 C 0 km/h
2757 01-03-2010 08:20:02 4.8 C 3.69 g/m*3 4.8 C 0 km/h
2758 01-03-2010 08:32:02 4.9 C 3.71 g/m*3 4.9 C 0 km/h
2759 01-03-2010 08:44:02 5 C 3.67 g/m*3 5 C 0 km/h
2760 01-03-2010 08:56:01 5.1 C 3.69 g/m*3 5.1 C 0 km/h
2761 01-03-2010 09:08:02 5.2 C 3.86 g/m*3 5.2 C 0 km/h
2762 01-03-2010 09:20:01 5.3 C 4.02 g/m*3 5.3 C 0 km/h
2763 01-03-2010 09:32:02 5.4 C 3.91 g/m*3 5.4 C 0 km/h
2764 01-03-2010 09:44:02 5.6 C 3.96 g/m*3 5.6 C 0 km/h
2765 01-03-2010 09:56:01 5.8 C 4.01 g/m*3 5.8 C 0 km/h
2766 01-03-2010 10:08:02 6 C 3.7 g/m*3 6 C 0 km/h
2767 01-03-2010 10:20:01 6.2 C 3.6 g/m*3 6.2 C 0 km/h
2768 01-03-2010 10:32:02 6.4 C 3.65 g/m*3 6.4 C 0 km/h
2769 01-03-2010 10:44:02 6.3 C 3.48 g/m*3 6.3 C 0 km/h
2770 01-03-2010 10:56:01 6.4 C 3.5 g/m*3 6.4 C 0 km/h
2771 01-03-2010 11:08:02 6.7 C 3.5 g/m*3 6.7 C 0 km/h
2772 01-03-2010 11:20:02 6.6 C 3.47 g/m*3 6.6 C 0 km/h
2773 01-03-2010 11:32:02 6.3 C 3.41 g/m*3 6.3 C 0 km/h
2774 01-03-2010 11:44:02 6.6 C 3.47 g/m*3 6.6 C 0 km/h
2775 01-03-2010 11:56:01 7 C 3.33 g/m*3 7 C 0 km/h
Sensor: Nr:Datum:Temp:Abs-Feuchte:Windchill:Wind:
Aussen-T/F 2776 01-03-2010 12:08:02 7 C 3.33 g/m*3 7 C 0 km/h
2777 01-03-2010 12:20:02 7.2 C 3.3 g/m*3 7.2 C 0 km/h
2778 01-03-2010 12:32:01 7.5 C 3.2 g/m*3 7.5 C 0 km/h
2779 01-03-2010 12:44:01 7.9 C 3.2 g/m*3 7.9 C 0 km/h
2780 01-03-2010 12:56:02 7.8 C 3.18 g/m*3 7.8 C 0 km/h
2781 01-03-2010 13:08:01 7.7 C 3.16 g/m*3 7.7 C 0 km/h
2782 01-03-2010 13:20:02 8 C 3.14 g/m*3 8 C 0 km/h
2783 01-03-2010 13:32:01 8 C 3.06 g/m*3 8 C 0 km/h
2784 01-03-2010 13:44:01 7.8 C 3.02 g/m*3 7.8 C 0 km/h
2785 01-03-2010 13:56:01 7.7 C 3 g/m*3 7.7 C 0 km/h
2786 01-03-2010 14:08:01 7.3 C 3.16 g/m*3 7.3 C 0 km/h
2787 01-03-2010 14:20:01 7.1 C 3.2 g/m*3 7.1 C 0 km/h
2788 01-03-2010 14:32:02 7.6 C 3.22 g/m*3 7.6 C 0 km/h
2789 01-03-2010 14:44:02 7.5 C 3.2 g/m*3 7.5 C 0 km/h
2790 01-03-2010 14:56:02 7.4 C 3.18 g/m*3 7.4 C 0 km/h
2791 01-03-2010 15:08:02 7.3 C 3.24 g/m*3 7.3 C 0 km/h
2792 01-03-2010 15:20:02 7.6 C 3.3 g/m*3 7.6 C 0 km/h
2793 01-03-2010 15:32:02 7.5 C 3.28 g/m*3 7.5 C 0 km/h
2794 01-03-2010 15:44:02 7.4 C 3.1 g/m*3 7.4 C 0 km/h
2795 01-03-2010 15:56:02 7.3 C 3 g/m*3 7.3 C 0 km/h
2796 01-03-2010 16:08:01 7.3 C 3.08 g/m*3 7.3 C 0 km/h
2797 01-03-2010 16:20:02 7.3 C 3.08 g/m*3 7.3 C 0 km/h
2798 01-03-2010 16:32:02 7.3 C 3.08 g/m*3 7.3 C 0 km/h
2799 01-03-2010 16:44:02 7.3 C 3.08 g/m*3 7.3 C 0 km/h
2800 01-03-2010 16:56:02 7.2 C 3.06 g/m*3 7.2 C 0 km/h
Sensor: Nr:Datum:Temp:Abs-Feuchte:Windchill:Wind:
Aussen-T/F 2801 01-03-2010 17:08:03 7.1 C 3.12 g/m*3 7.1 C 0 km/h
2802 01-03-2010 17:20:02 6.9 C 3.08 g/m*3 6.9 C 0 km/h
2803 01-03-2010 17:32:02 6.8 C 3.06 g/m*3 6.8 C 0 km/h
2804 01-03-2010 17:44:02 6.8 C 3.14 g/m*3 6.8 C 0 km/h
2805 01-03-2010 17:56:01 6.7 C 3.12 g/m*3 6.7 C 0 km/h
2806 01-03-2010 18:08:02 6.5 C 3.22 g/m*3 6.5 C 0 km/h
2807 01-03-2010 18:20:01 6.4 C 3.5 g/m*3 6.4 C 0 km/h
2808 01-03-2010 18:32:01 6 C 3.56 g/m*3 6 C 0 km/h
2809 01-03-2010 18:44:01 5.8 C 3.72 g/m*3 5.8 C 0 km/h
2810 01-03-2010 18:56:01 5.7 C 3.77 g/m*3 5.7 C 0 km/h
2811 01-03-2010 19:08:02 5.6 C 3.68 g/m*3 5.6 C 0 km/h
2812 01-03-2010 19:20:01 5.6 C 3.53 g/m*3 5.6 C 0 km/h
2813 01-03-2010 19:32:02 5.4 C 3.56 g/m*3 5.4 C 0 km/h
2814 01-03-2010 19:44:02 5.3 C 3.53 g/m*3 5.3 C 0 km/h
2815 01-03-2010 19:56:02 5.1 C 3.42 g/m*3 5.1 C 0 km/h
2816 01-03-2010 20:08:03 5 C 3.4 g/m*3 5 C 0 km/h
2817 01-03-2010 20:20:02 5.1 C 3.42 g/m*3 5.1 C 0 km/h
2818 01-03-2010 20:32:02 4.6 C 3.44 g/m*3 4.6 C 0 km/h
2819 01-03-2010 20:44:02 4.4 C 3.46 g/m*3 4.4 C 0 km/h
2820 01-03-2010 20:56:02 4.4 C 3.4 g/m*3 4.4 C 0 km/h
2821 01-03-2010 21:08:02 3.8 C 3.51 g/m*3 3.8 C 0 km/h
2822 01-03-2010 21:20:02 3.4 C 3.54 g/m*3 3.4 C 0 km/h
2823 01-03-2010 21:32:01 3.4 C 3.6 g/m*3 3.4 C 0 km/h
2824 01-03-2010 21:44:01 3.3 C 3.64 g/m*3 3.3 C 0 km/h
2825 01-03-2010 21:56:02 3.1 C 3.71 g/m*3 3.1 C 0 km/h
Sensor: Nr:Datum:Temp:Abs-Feuchte:Windchill:Wind:
Aussen-T/F 2826 01-03-2010 22:08:02 2.8 C 3.64 g/m*3 2.8 C 0 km/h
2827 01-03-2010 22:21:03 2.6 C 3.82 g/m*3 2.6 C 0 km/h
2828 01-03-2010 22:33:03 2.4 C 3.83 g/m*3 2.4 C 0 km/h
2829 01-03-2010 22:45:03 2.1 C 3.86 g/m*3 2.1 C 0 km/h
2830 01-03-2010 22:57:03 2 C 3.89 g/m*3 2 C 0 km/h
2831 01-03-2010 23:09:03 1.8 C 3.95 g/m*3 1.8 C 0 km/h
2832 01-03-2010 23:21:03 1.5 C 3.92 g/m*3 1.5 C 0 km/h
2833 01-03-2010 23:33:03 1.2 C 3.89 g/m*3 1.2 C 0 km/h
2834 01-03-2010 23:45:03 1.1 C 3.92 g/m*3 1.1 C 0 km/h
2835 01-03-2010 23:57:03 1.1 C 3.97 g/m*3 1.1 C 0 km/h
2836 02-03-2010 00:09:03 0.9 C 3.97 g/m*3 0.9 C 0 km/h
2837 02-03-2010 00:21:03 0.7 C 3.97 g/m*3 0.7 C 0 km/h
2838 02-03-2010 00:33:03 0.5 C 3.96 g/m*3 0.5 C 0 km/h
2839 02-03-2010 00:45:03 0.2 C 3.88 g/m*3 0.2 C 0 km/h
2840 02-03-2010 00:57:03 0.2 C 3.88 g/m*3 0.2 C 0 km/h
2841 02-03-2010 01:09:03 0.1 C 3.9 g/m*3 0.1 C 0 km/h
2842 02-03-2010 01:21:03 0.2 C 3.98 g/m*3 0.2 C 0 km/h
2843 02-03-2010 01:33:03 0.3 C 4.01 g/m*3 0.3 C 0 km/h
2844 02-03-2010 01:45:03 0 C 3.92 g/m*3 0 C 0 km/h
2845 02-03-2010 01:57:03 0 C 3.97 g/m*3 0 C 0 km/h
2846 02-03-2010 02:09:03 0 C 3.97 g/m*3 0 C 0 km/h
2847 02-03-2010 02:21:04 -0.2 C 3.92 g/m*3 -0.2 C 0 km/h
2848 02-03-2010 02:33:04 -0.2 C 3.97 g/m*3 -0.2 C 0 km/h
2849 02-03-2010 02:45:04 -0.4 C 3.91 g/m*3 -0.4 C 0 km/h
2850 02-03-2010 02:57:04 -0.6 C 3.86 g/m*3 -0.6 C 0 km/h
Sensor: Nr:Datum:Temp:Abs-Feuchte:Windchill:Wind:
Aussen-T/F 2851 02-03-2010 03:09:04 -0.7 C 3.83 g/m*3 -0.7 C 0 km/h
2852 02-03-2010 03:21:04 -0.6 C 3.86 g/m*3 -0.6 C 0 km/h
2853 02-03-2010 03:33:04 -0.7 C 3.83 g/m*3 -0.7 C 0 km/h
2854 02-03-2010 03:45:04 -0.9 C 3.82 g/m*3 -0.9 C 0 km/h
2855 02-03-2010 03:57:04 -1 C 3.8 g/m*3 -1 C 0 km/h
2856 02-03-2010 04:09:04 -1.3 C 3.72 g/m*3 -1.3 C 0 km/h
2857 02-03-2010 04:21:04 -1.3 C 3.72 g/m*3 -1.3 C 0 km/h
2858 02-03-2010 04:33:04 -1.4 C 3.69 g/m*3 -1.4 C 0 km/h
2859 02-03-2010 04:45:04 -1.2 C 3.79 g/m*3 -1.2 C 0 km/h
2860 02-03-2010 04:57:04 -1.2 C 3.79 g/m*3 -1.2 C 0 km/h
2861 02-03-2010 05:09:04 -1.1 C 3.86 g/m*3 -1.1 C 0 km/h
2862 02-03-2010 05:21:04 -1.1 C 3.86 g/m*3 -1.1 C 0 km/h
2863 02-03-2010 05:33:04 -1.1 C 3.86 g/m*3 -1.1 C 0 km/h
2864 02-03-2010 05:45:04 -1.1 C 3.86 g/m*3 -1.1 C 0 km/h
2865 02-03-2010 05:57:04 -1.4 C 3.74 g/m*3 -1.4 C 0 km/h
2866 02-03-2010 06:09:04 -1.6 C 3.68 g/m*3 -1.6 C 0 km/h
2867 02-03-2010 06:21:04 -1.7 C 3.66 g/m*3 -1.7 C 0 km/h
2868 02-03-2010 06:33:05 -1.8 C 3.63 g/m*3 -1.8 C 0 km/h
2869 02-03-2010 06:45:05 -1.9 C 3.65 g/m*3 -1.9 C 0 km/h
2870 02-03-2010 06:57:05 -1.9 C 3.65 g/m*3 -1.9 C 0 km/h
2871 02-03-2010 07:09:02 -2 C 3.63 g/m*3 -2 C 0 km/h
2872 02-03-2010 07:21:03 -1.8 C 3.72 g/m*3 -1.8 C 0 km/h
2873 02-03-2010 07:33:02 -1.8 C 3.72 g/m*3 -1.8 C 0 km/h
2874 02-03-2010 07:45:02 -1.6 C 3.77 g/m*3 -1.6 C 0 km/h
2875 02-03-2010 07:57:02 -1.2 C 3.92 g/m*3 -1.2 C 0 km/h
Sensor: Nr:Datum:Temp:Abs-Feuchte:Windchill:Wind:
Aussen-T/F 2876 02-03-2010 08:09:02 -0.9 C 4.01 g/m*3 -0.9 C 0 km/h
2877 02-03-2010 08:21:02 -0.7 C 4.06 g/m*3 -0.7 C 0 km/h
2878 02-03-2010 08:33:03 -0.7 C 4.06 g/m*3 -0.7 C 0 km/h
2879 02-03-2010 08:45:02 -0.6 C 4.09 g/m*3 -0.6 C 0 km/h
2880 02-03-2010 08:57:03 -0.6 C 4.09 g/m*3 -0.6 C 0 km/h
2881 02-03-2010 09:09:01 -0.5 C 4.07 g/m*3 -0.5 C 0 km/h
2882 02-03-2010 09:21:02 0 C 4.26 g/m*3 0 C 0 km/h
2883 02-03-2010 09:33:02 0.1 C 4.24 g/m*3 0.1 C 0 km/h
2884 02-03-2010 09:45:02 -0.1 C 4.14 g/m*3 -0.1 C 0 km/h
2885 02-03-2010 09:57:02 -0.1 C 4.14 g/m*3 -0.1 C 0 km/h
2886 02-03-2010 10:09:03 0.3 C 4.25 g/m*3 0.3 C 0 km/h
2887 02-03-2010 10:21:02 0.7 C 4.32 g/m*3 0.7 C 0 km/h
2888 02-03-2010 10:33:02 1.2 C 4.42 g/m*3 1.2 C 0 km/h
2889 02-03-2010 10:45:01 1.6 C 4.49 g/m*3 1.6 C 0 km/h
2890 02-03-2010 10:57:01 2.1 C 4.48 g/m*3 2.1 C 0 km/h
2891 02-03-2010 11:09:02 2.6 C 4.57 g/m*3 2.6 C 0 km/h
2892 02-03-2010 11:21:01 3.1 C 4.61 g/m*3 3.1 C 0 km/h
2893 02-03-2010 11:33:02 4 C 4.7 g/m*3 4 C 0 km/h
2894 02-03-2010 11:45:02 4 C 4.51 g/m*3 4 C 0 km/h
2895 02-03-2010 11:57:02 4.2 C 4.25 g/m*3 4.2 C 0 km/h
2896 02-03-2010 12:09:02 5.1 C 3.63 g/m*3 5.1 C 0 km/h
2897 02-03-2010 12:21:01 6.1 C 3.29 g/m*3 6.1 C 0 km/h
2898 02-03-2010 12:33:02 6.3 C 3.26 g/m*3 6.3 C 0 km/h
2899 02-03-2010 12:45:02 7 C 3.02 g/m*3 7 C 0 km/h
2900 02-03-2010 12:57:02 7.4 C 2.86 g/m*3 7.4 C 0 km/h
Sensor: Nr:Datum:Temp:Abs-Feuchte:Windchill:Wind:
Aussen-T/F 2901 02-03-2010 13:09:02 8.1 C 2.91 g/m*3 8.1 C 0 km/h
2902 02-03-2010 13:21:01 9.1 C 2.75 g/m*3 9.1 C 0 km/h
2903 02-03-2010 13:33:02 8.5 C 2.65 g/m*3 8.5 C 0 km/h
2904 02-03-2010 13:45:01 9.5 C 2.73 g/m*3 9.5 C 0 km/h
2905 02-03-2010 13:57:01 10.3 C 2.49 g/m*3 10.3 C 0 km/h
2906 02-03-2010 14:09:02 10.2 C 2.38 g/m*3 10.2 C 0 km/h
2907 02-03-2010 14:21:02 10.1 C 2.65 g/m*3 10.1 C 0 km/h
2908 02-03-2010 14:33:02 9.5 C 2.28 g/m*3 9.5 C 0 km/h
2909 02-03-2010 14:45:02 9.5 C 2.46 g/m*3 9.5 C 0 km/h
2910 02-03-2010 14:57:02 9 C 2.29 g/m*3 9 C 0 km/h
2911 02-03-2010 15:09:02 8.7 C 2.42 g/m*3 8.7 C 0 km/h
2912 02-03-2010 15:21:02 9.5 C 2.55 g/m*3 9.5 C 0 km/h
2913 02-03-2010 15:33:01 10.3 C 2.49 g/m*3 10.3 C 0 km/h
2914 02-03-2010 15:45:02 11 C 2.4 g/m*3 11 C 0 km/h
2915 02-03-2010 15:57:02 10.7 C 1.96 g/m*3 10.7 C 0 km/h
2916 02-03-2010 16:09:01 9.7 C 1.84 g/m*3 9.7 C 0 km/h
2917 02-03-2010 16:21:02 9.5 C 1.82 g/m*3 9.5 C 0 km/h
2918 02-03-2010 16:33:01 8.7 C 2.51 g/m*3 8.7 C 0 km/h
2919 02-03-2010 16:45:02 8.4 C 2.63 g/m*3 8.4 C 0 km/h
2920 02-03-2010 16:57:03 8.7 C 2.77 g/m*3 8.7 C 0 km/h
2921 02-03-2010 17:09:02 8.7 C 2.77 g/m*3 8.7 C 0 km/h
2922 02-03-2010 17:21:02 9 C 2.73 g/m*3 9 C 0 km/h
2923 02-03-2010 17:33:02 8.4 C 2.71 g/m*3 8.4 C 0 km/h
2924 02-03-2010 17:45:02 8.2 C 2.93 g/m*3 8.2 C 0 km/h
2925 02-03-2010 17:57:03 7.9 C 2.96 g/m*3 7.9 C 0 km/h
Sensor: Nr:Datum:Temp:Abs-Feuchte:Windchill:Wind:
Aussen-T/F 2926 02-03-2010 18:09:01 7.5 C 3.04 g/m*3 7.5 C 0 km/h
2927 02-03-2010 18:21:02 7 C 3.1 g/m*3 7 C 0 km/h
2928 02-03-2010 18:33:02 6.5 C 3.3 g/m*3 6.5 C 0 km/h
2929 02-03-2010 18:45:02 6.2 C 3.38 g/m*3 6.2 C 0 km/h
2930 02-03-2010 18:57:02 5.9 C 3.53 g/m*3 5.9 C 0 km/h
2931 02-03-2010 19:09:01 5.9 C 3.53 g/m*3 5.9 C 0 km/h
2932 02-03-2010 19:21:02 5.9 C 3.39 g/m*3 5.9 C 0 km/h
2933 02-03-2010 19:33:02 5.8 C 3.3 g/m*3 5.8 C 0 km/h
2934 02-03-2010 19:45:01 5.8 C 3.3 g/m*3 5.8 C 0 km/h
2935 02-03-2010 19:57:01 5.8 C 3.3 g/m*3 5.8 C 0 km/h
2936 02-03-2010 20:09:02 6 C 3.19 g/m*3 6 C 0 km/h
2937 02-03-2010 20:21:01 5.8 C 3.22 g/m*3 5.8 C 0 km/h
2938 02-03-2010 20:33:01 5.5 C 3.3 g/m*3 5.5 C 0 km/h
2939 02-03-2010 20:45:01 5 C 3.47 g/m*3 5 C 0 km/h
2940 02-03-2010 20:57:02 4.4 C 3.66 g/m*3 4.4 C 0 km/h
2941 02-03-2010 21:09:01 4.3 C 3.83 g/m*3 4.3 C 0 km/h
2942 02-03-2010 21:21:02 3.8 C 4.02 g/m*3 3.8 C 0 km/h
2943 02-03-2010 21:33:02 3.2 C 4.34 g/m*3 3.2 C 0 km/h
2944 02-03-2010 21:45:02 2.9 C 4.43 g/m*3 2.9 C 0 km/h
2945 02-03-2010 21:57:02 2.7 C 4.43 g/m*3 2.7 C 0 km/h
2946 02-03-2010 22:10:02 2.5 C 4.37 g/m*3 2.5 C 0 km/h
2947 02-03-2010 22:22:02 2.5 C 4.43 g/m*3 2.5 C 0 km/h
2948 02-03-2010 22:34:02 2.4 C 4.34 g/m*3 2.4 C 0 km/h
2949 02-03-2010 22:46:02 2.2 C 4.34 g/m*3 2.2 C 0 km/h
2950 02-03-2010 22:58:02 2 C 4.28 g/m*3 2 C 0 km/h
Sensor: Nr:Datum:Temp:Abs-Feuchte:Windchill:Wind:
Aussen-T/F 2951 02-03-2010 23:10:02 1.8 C 4.28 g/m*3 1.8 C 0 km/h
2952 02-03-2010 23:22:02 1.7 C 4.3 g/m*3 1.7 C 0 km/h
2953 02-03-2010 23:34:02 1.5 C 4.24 g/m*3 1.5 C 0 km/h
2954 02-03-2010 23:46:02 1.3 C 4.19 g/m*3 1.3 C 0 km/h
2955 02-03-2010 23:58:02 1.3 C 4.13 g/m*3 1.3 C 0 km/h
2956 03-03-2010 00:10:03 1.1 C 4.08 g/m*3 1.1 C 0 km/h
2957 03-03-2010 00:22:03 1.2 C 4.05 g/m*3 1.2 C 0 km/h
2958 03-03-2010 00:34:03 1.1 C 3.92 g/m*3 1.1 C 0 km/h
2959 03-03-2010 00:46:03 0.9 C 3.87 g/m*3 0.9 C 0 km/h
2960 03-03-2010 00:58:03 0.9 C 3.81 g/m*3 0.9 C 0 km/h
2961 03-03-2010 01:10:03 0.8 C 3.79 g/m*3 0.8 C 0 km/h
2962 03-03-2010 01:22:03 0.5 C 3.71 g/m*3 0.5 C 0 km/h
2963 03-03-2010 01:34:03 0.3 C 3.66 g/m*3 0.3 C 0 km/h
2964 03-03-2010 01:46:03 0.1 C 3.66 g/m*3 0.1 C 0 km/h
2965 03-03-2010 01:58:03 -0.1 C 3.66 g/m*3 -0.1 C 0 km/h
2966 03-03-2010 02:10:03 0 C 3.78 g/m*3 0 C 0 km/h
2967 03-03-2010 02:22:03 -0.1 C 3.8 g/m*3 -0.1 C 0 km/h
2968 03-03-2010 02:34:03 -0.4 C 3.72 g/m*3 -0.4 C 0 km/h
2969 03-03-2010 02:46:03 -0.5 C 3.74 g/m*3 -0.5 C 0 km/h
2970 03-03-2010 02:58:03 -0.6 C 3.76 g/m*3 -0.6 C 0 km/h
2971 03-03-2010 03:10:03 -0.7 C 3.74 g/m*3 -0.7 C 0 km/h
2972 03-03-2010 03:22:03 -0.9 C 3.69 g/m*3 -0.9 C 0 km/h
2973 03-03-2010 03:34:03 -0.9 C 3.73 g/m*3 -0.9 C 0 km/h
2974 03-03-2010 03:46:03 -1 C 3.71 g/m*3 -1 C 0 km/h
2975 03-03-2010 03:58:04 -1.1 C 3.68 g/m*3 -1.1 C 0 km/h
Sensor: Nr:Datum:Temp:Abs-Feuchte:Windchill:Wind:
Aussen-T/F 2976 03-03-2010 04:10:04 -1.2 C 3.7 g/m*3 -1.2 C 0 km/h
2977 03-03-2010 04:22:04 -1.3 C 3.67 g/m*3 -1.3 C 0 km/h
2978 03-03-2010 04:34:04 -1.5 C 3.62 g/m*3 -1.5 C 0 km/h
2979 03-03-2010 04:46:04 -1.4 C 3.69 g/m*3 -1.4 C 0 km/h
2980 03-03-2010 04:58:04 -1.6 C 3.64 g/m*3 -1.6 C 0 km/h
2981 03-03-2010 05:10:04 -1.7 C 3.62 g/m*3 -1.7 C 0 km/h
2982 03-03-2010 05:22:04 -2 C 3.54 g/m*3 -2 C 0 km/h
2983 03-03-2010 05:34:04 -2 C 3.54 g/m*3 -2 C 0 km/h
2984 03-03-2010 05:46:04 -2.1 C 3.52 g/m*3 -2.1 C 0 km/h
2985 03-03-2010 05:58:04 -2.1 C 3.56 g/m*3 -2.1 C 0 km/h
2986 03-03-2010 06:10:04 -2.2 C 3.53 g/m*3 -2.2 C 0 km/h
2987 03-03-2010 06:22:04 -1.8 C 3.68 g/m*3 -1.8 C 0 km/h
2988 03-03-2010 06:34:04 -1.4 C 3.82 g/m*3 -1.4 C 0 km/h
2989 03-03-2010 06:46:04 -1.1 C 3.91 g/m*3 -1.1 C 0 km/h
2990 03-03-2010 06:58:04 -1.1 C 3.91 g/m*3 -1.1 C 0 km/h
2991 03-03-2010 07:10:02 -1.1 C 3.86 g/m*3 -1.1 C 0 km/h
2992 03-03-2010 07:22:02 -1.1 C 3.86 g/m*3 -1.1 C 0 km/h
2993 03-03-2010 07:34:02 -1.1 C 3.82 g/m*3 -1.1 C 0 km/h
2994 03-03-2010 07:46:02 -1.3 C 3.72 g/m*3 -1.3 C 0 km/h
2995 03-03-2010 07:58:02 -1.5 C 3.67 g/m*3 -1.5 C 0 km/h
2996 03-03-2010 08:10:02 -1.4 C 3.69 g/m*3 -1.4 C 0 km/h
2997 03-03-2010 08:22:02 -1.3 C 3.72 g/m*3 -1.3 C 0 km/h
2998 03-03-2010 08:34:02 -1.2 C 3.79 g/m*3 -1.2 C 0 km/h
2999 03-03-2010 08:46:02 -0.7 C 3.92 g/m*3 -0.7 C 0 km/h
3000 03-03-2010 08:58:02 0.1 C 4.2 g/m*3 0.1 C 0 km/h
Sensor: Nr:Datum:Temp:Abs-Feuchte:Windchill:Wind:
Aussen-T/F 3001 03-03-2010 09:10:01 0.6 C 4.29 g/m*3 0.6 C 0 km/h
3002 03-03-2010 09:22:02 0.8 C 4.15 g/m*3 0.8 C 0 km/h
3003 03-03-2010 09:34:02 1 C 3.84 g/m*3 1 C 0 km/h
3004 03-03-2010 09:46:02 1.2 C 3.68 g/m*3 1.2 C 0 km/h
3005 03-03-2010 09:58:02 1.5 C 3.54 g/m*3 1.5 C 0 km/h
3006 03-03-2010 10:10:03 1.4 C 3.41 g/m*3 1.4 C 0 km/h
3007 03-03-2010 10:22:02 1.1 C 3.4 g/m*3 1.1 C 0 km/h
3008 03-03-2010 10:34:02 1.2 C 3.47 g/m*3 1.2 C 0 km/h
3009 03-03-2010 10:46:01 1.3 C 3.5 g/m*3 1.3 C 0 km/h
3010 03-03-2010 10:58:01 1.7 C 3.54 g/m*3 1.7 C 0 km/h
3011 03-03-2010 11:10:02 2.2 C 3.49 g/m*3 2.2 C 0 km/h
3012 03-03-2010 11:22:01 2.5 C 3.45 g/m*3 2.5 C 0 km/h
3013 03-03-2010 11:34:01 2.8 C 3.46 g/m*3 2.8 C 0 km/h
3014 03-03-2010 11:46:01 3.1 C 3.35 g/m*3 3.1 C 0 km/h
3015 03-03-2010 11:58:01 3.7 C 3.24 g/m*3 3.7 C 0 km/h
3016 03-03-2010 12:10:02 4.3 C 3.24 g/m*3 4.3 C 0 km/h
3017 03-03-2010 12:22:01 4.8 C 3.22 g/m*3 4.8 C 0 km/h
3018 03-03-2010 12:34:02 5.1 C 3.15 g/m*3 5.1 C 0 km/h
3019 03-03-2010 12:46:01 5.8 C 3.15 g/m*3 5.8 C 0 km/h
3020 03-03-2010 12:58:01 6.5 C 3 g/m*3 6.5 C 0 km/h
3021 03-03-2010 13:10:02 7 C 2.94 g/m*3 7 C 0 km/h
3022 03-03-2010 13:22:01 7.8 C 2.86 g/m*3 7.8 C 0 km/h
3023 03-03-2010 13:34:02 8.5 C 2.48 g/m*3 8.5 C 0 km/h
3024 03-03-2010 13:46:01 8.9 C 2.19 g/m*3 8.9 C 0 km/h
3025 03-03-2010 13:58:01 9.1 C 1.77 g/m*3 9.1 C 0 km/h
Sensor: Nr:Datum:Temp:Abs-Feuchte:Windchill:Wind:
Aussen-T/F 3026 03-03-2010 14:10:02 9.4 C 1.81 g/m*3 9.4 C 0 km/h
3027 03-03-2010 14:22:02 9.8 C 1.86 g/m*3 9.8 C 0 km/h
3028 03-03-2010 14:34:01 10.3 C 1.92 g/m*3 10.3 C 0 km/h
3029 03-03-2010 14:46:02 10.5 C 1.94 g/m*3 10.5 C 0 km/h
3030 03-03-2010 14:58:02 10.2 C 1.9 g/m*3 10.2 C 0 km/h
3031 03-03-2010 15:10:01 10.7 C 1.96 g/m*3 10.7 C 0 km/h
3032 03-03-2010 15:22:02 11 C 2 g/m*3 11 C 0 km/h
3033 03-03-2010 15:34:01 11 C 2 g/m*3 11 C 0 km/h
3034 03-03-2010 15:46:03 10.5 C 1.94 g/m*3 10.5 C 0 km/h
3035 03-03-2010 15:58:03 11 C 2 g/m*3 11 C 0 km/h
3036 03-03-2010 16:10:02 11.2 C 2.03 g/m*3 11.2 C 0 km/h
3037 03-03-2010 16:22:02 11.5 C 2.07 g/m*3 11.5 C 0 km/h
3038 03-03-2010 16:34:02 11.1 C 2.01 g/m*3 11.1 C 0 km/h
3039 03-03-2010 16:46:02 10.3 C 1.92 g/m*3 10.3 C 0 km/h
3040 03-03-2010 16:58:02 10.3 C 1.92 g/m*3 10.3 C 0 km/h
3041 03-03-2010 17:10:01 9.3 C 1.8 g/m*3 9.3 C 0 km/h
3042 03-03-2010 17:22:02 8.5 C 1.71 g/m*3 8.5 C 0 km/h
3043 03-03-2010 17:34:02 7.8 C 1.63 g/m*3 7.8 C 0 km/h
3044 03-03-2010 17:46:02 7.2 C 1.96 g/m*3 7.2 C 0 km/h
3045 03-03-2010 17:58:03 6.6 C 1.89 g/m*3 6.6 C 0 km/h
3046 03-03-2010 18:10:02 6.2 C 2.21 g/m*3 6.2 C 0 km/h
3047 03-03-2010 18:22:02 5.7 C 2.13 g/m*3 5.7 C 0 km/h
3048 03-03-2010 18:34:03 5.4 C 2.02 g/m*3 5.4 C 0 km/h
3049 03-03-2010 18:46:02 5.1 C 2.05 g/m*3 5.1 C 0 km/h
3050 03-03-2010 18:58:02 4.8 C 2.15 g/m*3 4.8 C 0 km/h
Sensor: Nr:Datum:Temp:Abs-Feuchte:Windchill:Wind:
Aussen-T/F 3051 03-03-2010 19:10:02 4.6 C 2.12 g/m*3 4.6 C 0 km/h
3052 03-03-2010 19:22:02 4.4 C 2.15 g/m*3 4.4 C 0 km/h
3053 03-03-2010 19:34:02 4.2 C 2.19 g/m*3 4.2 C 0 km/h
3054 03-03-2010 19:46:02 4.1 C 2.24 g/m*3 4.1 C 0 km/h
3055 03-03-2010 19:58:02 3.9 C 2.46 g/m*3 3.9 C 0 km/h
3056 03-03-2010 20:10:02 3.7 C 2.49 g/m*3 3.7 C 0 km/h
3057 03-03-2010 20:22:02 3.7 C 2.49 g/m*3 3.7 C 0 km/h
3058 03-03-2010 20:34:02 3.6 C 2.54 g/m*3 3.6 C 0 km/h
3059 03-03-2010 20:46:01 3.4 C 2.57 g/m*3 3.4 C 0 km/h
3060 03-03-2010 20:58:01 3.3 C 2.55 g/m*3 3.3 C 0 km/h
3061 03-03-2010 21:10:02 3.2 C 2.59 g/m*3 3.2 C 0 km/h
3062 03-03-2010 21:22:01 3 C 2.62 g/m*3 3 C 0 km/h
3063 03-03-2010 21:34:02 3 C 2.68 g/m*3 3 C 0 km/h
3064 03-03-2010 21:46:02 2.9 C 2.72 g/m*3 2.9 C 0 km/h
3065 03-03-2010 21:58:02 2.8 C 2.76 g/m*3 2.8 C 0 km/h
3066 03-03-2010 22:11:02 2.7 C 2.8 g/m*3 2.7 C 0 km/h
3067 03-03-2010 22:23:02 2.6 C 2.84 g/m*3 2.6 C 0 km/h
3068 03-03-2010 22:35:02 2.5 C 2.82 g/m*3 2.5 C 0 km/h
3069 03-03-2010 22:47:03 2.4 C 2.8 g/m*3 2.4 C 0 km/h
3070 03-03-2010 22:59:03 2.2 C 2.82 g/m*3 2.2 C 0 km/h
3071 03-03-2010 23:11:03 1.9 C 2.87 g/m*3 1.9 C 0 km/h
3072 03-03-2010 23:23:03 1.7 C 2.89 g/m*3 1.7 C 0 km/h
3073 03-03-2010 23:35:03 1.6 C 2.92 g/m*3 1.6 C 0 km/h
3074 03-03-2010 23:47:03 1.5 C 2.95 g/m*3 1.5 C 0 km/h
3075 03-03-2010 23:59:03 1.4 C 2.93 g/m*3 1.4 C 0 km/h
Sensor: Nr:Datum:Temp:Abs-Feuchte:Windchill:Wind:
Aussen-T/F 3076 04-03-2010 00:11:03 1.3 C 2.97 g/m*3 1.3 C 0 km/h
3077 04-03-2010 00:23:03 1.2 C 2.89 g/m*3 1.2 C 0 km/h
3078 04-03-2010 00:35:03 1.2 C 2.89 g/m*3 1.2 C 0 km/h
3079 04-03-2010 00:47:03 1.2 C 2.89 g/m*3 1.2 C 0 km/h
3080 04-03-2010 00:59:03 1.3 C 2.91 g/m*3 1.3 C 0 km/h
3081 04-03-2010 01:11:03 1.3 C 2.91 g/m*3 1.3 C 0 km/h
3082 04-03-2010 01:23:03 1.2 C 2.89 g/m*3 1.2 C 0 km/h
3083 04-03-2010 01:35:03 1.1 C 2.87 g/m*3 1.1 C 0 km/h
3084 04-03-2010 01:47:03 1.2 C 2.89 g/m*3 1.2 C 0 km/h
3085 04-03-2010 01:59:03 1 C 2.85 g/m*3 1 C 0 km/h
3086 04-03-2010 02:11:03 0.8 C 2.92 g/m*3 0.8 C 0 km/h
3087 04-03-2010 02:23:03 0.5 C 2.96 g/m*3 0.5 C 0 km/h
3088 04-03-2010 02:35:03 0.2 C 2.95 g/m*3 0.2 C 0 km/h
3089 04-03-2010 02:47:03 0.1 C 2.98 g/m*3 0.1 C 0 km/h
3090 04-03-2010 02:59:04 0 C 2.96 g/m*3 0 C 0 km/h
3091 04-03-2010 03:11:04 -0.2 C 2.96 g/m*3 -0.2 C 0 km/h
3092 04-03-2010 03:23:04 -0.4 C 2.87 g/m*3 -0.4 C 0 km/h
3093 04-03-2010 03:35:04 -0.6 C 2.88 g/m*3 -0.6 C 0 km/h
3094 04-03-2010 03:47:04 -0.7 C 2.86 g/m*3 -0.7 C 0 km/h
3095 04-03-2010 03:59:04 -0.8 C 2.89 g/m*3 -0.8 C 0 km/h
3096 04-03-2010 04:11:04 -0.9 C 2.87 g/m*3 -0.9 C 0 km/h
3097 04-03-2010 04:23:04 -0.7 C 2.95 g/m*3 -0.7 C 0 km/h
3098 04-03-2010 04:35:04 -0.7 C 2.91 g/m*3 -0.7 C 0 km/h
3099 04-03-2010 04:47:04 -0.7 C 2.95 g/m*3 -0.7 C 0 km/h
3100 04-03-2010 04:59:04 -0.8 C 2.89 g/m*3 -0.8 C 0 km/h
Sensor: Nr:Datum:Temp:Abs-Feuchte:Windchill:Wind:
Aussen-T/F 3101 04-03-2010 05:11:04 -0.7 C 2.95 g/m*3 -0.7 C 0 km/h
3102 04-03-2010 05:23:04 -0.8 C 2.93 g/m*3 -0.8 C 0 km/h
3103 04-03-2010 05:35:04 -0.9 C 2.96 g/m*3 -0.9 C 0 km/h
3104 04-03-2010 05:47:04 -0.7 C 3 g/m*3 -0.7 C 0 km/h
3105 04-03-2010 05:59:04 -1 C 2.94 g/m*3 -1 C 0 km/h
3106 04-03-2010 06:11:04 -1 C 2.98 g/m*3 -1 C 0 km/h
3107 04-03-2010 06:23:04 -1.1 C 2.96 g/m*3 -1.1 C 0 km/h
3108 04-03-2010 06:35:04 -1.3 C 2.92 g/m*3 -1.3 C 0 km/h
3109 04-03-2010 06:47:04 -1.4 C 2.95 g/m*3 -1.4 C 0 km/h
3110 04-03-2010 06:59:04 -1.4 C 2.99 g/m*3 -1.4 C 0 km/h
3111 04-03-2010 07:11:01 -1.4 C 3.03 g/m*3 -1.4 C 0 km/h
3112 04-03-2010 07:23:02 -1.3 C 3.05 g/m*3 -1.3 C 0 km/h
3113 04-03-2010 07:35:02 -1.3 C 3.01 g/m*3 -1.3 C 0 km/h
3114 04-03-2010 07:47:01 -1.2 C 3.08 g/m*3 -1.2 C 0 km/h
3115 04-03-2010 07:59:01 -1.1 C 3.1 g/m*3 -1.1 C 0 km/h
3116 04-03-2010 08:11:02 -1.1 C 3.1 g/m*3 -1.1 C 0 km/h
3117 04-03-2010 08:23:01 -1 C 3.12 g/m*3 -1 C 0 km/h
3118 04-03-2010 08:35:01 -1.1 C 3.1 g/m*3 -1.1 C 0 km/h
3119 04-03-2010 08:47:02 -1.1 C 3.1 g/m*3 -1.1 C 0 km/h
3120 04-03-2010 08:59:02 -1 C 3.16 g/m*3 -1 C 0 km/h
3121 04-03-2010 09:11:02 -0.5 C 3.23 g/m*3 -0.5 C 0 km/h
3122 04-03-2010 09:23:02 0 C 3.29 g/m*3 0 C 0 km/h
3123 04-03-2010 09:35:01 0.2 C 3.24 g/m*3 0.2 C 0 km/h
3124 04-03-2010 09:47:02 0.5 C 3.26 g/m*3 0.5 C 0 km/h
3125 04-03-2010 09:59:02 1.3 C 3.34 g/m*3 1.3 C 0 km/h
Sensor: Nr:Datum:Temp:Abs-Feuchte:Windchill:Wind:
Aussen-T/F 3126 04-03-2010 10:11:01 2 C 3.28 g/m*3 2 C 0 km/h
3127 04-03-2010 10:23:02 3 C 3.21 g/m*3 3 C 0 km/h
3128 04-03-2010 10:35:02 3.6 C 2.85 g/m*3 3.6 C 0 km/h
3129 04-03-2010 10:47:02 3.4 C 2.63 g/m*3 3.4 C 0 km/h
3130 04-03-2010 10:59:03 3.9 C 2.59 g/m*3 3.9 C 0 km/h
3131 04-03-2010 11:11:01 3.8 C 2.45 g/m*3 3.8 C 0 km/h
3132 04-03-2010 11:23:02 4.1 C 2.24 g/m*3 4.1 C 0 km/h
3133 04-03-2010 11:35:02 4.4 C 2.35 g/m*3 4.4 C 0 km/h
3134 04-03-2010 11:47:01 4.6 C 2.32 g/m*3 4.6 C 0 km/h
3135 04-03-2010 11:59:01 4.3 C 2.08 g/m*3 4.3 C 0 km/h
3136 04-03-2010 12:11:02 4.2 C 2.19 g/m*3 4.2 C 0 km/h
3137 04-03-2010 12:23:01 4.5 C 2.3 g/m*3 4.5 C 0 km/h
3138 04-03-2010 12:35:01 4.8 C 2.28 g/m*3 4.8 C 0 km/h
3139 04-03-2010 12:47:02 4.8 C 2.08 g/m*3 4.8 C 0 km/h
3140 04-03-2010 12:59:02 5.8 C 2.08 g/m*3 5.8 C 0 km/h
3141 04-03-2010 13:11:02 6.3 C 1.92 g/m*3 6.3 C 0 km/h
3142 04-03-2010 13:23:01 6.8 C 1.53 g/m*3 6.8 C 0 km/h
3143 04-03-2010 13:35:02 7.1 C 1.56 g/m*3 7.1 C 0 km/h
3144 04-03-2010 13:47:02 6.9 C 1.54 g/m*3 6.9 C 0 km/h
3145 04-03-2010 13:59:02 7.1 C 1.56 g/m*3 7.1 C 0 km/h
3146 04-03-2010 14:11:02 7.9 C 1.64 g/m*3 7.9 C 0 km/h
3147 04-03-2010 14:23:01 8.2 C 1.67 g/m*3 8.2 C 0 km/h
3148 04-03-2010 14:35:02 9 C 1.76 g/m*3 9 C 0 km/h
3149 04-03-2010 14:47:02 8.9 C 1.75 g/m*3 8.9 C 0 km/h
3150 04-03-2010 14:59:02 9.2 C 1.79 g/m*3 9.2 C 0 km/h
Sensor: Nr:Datum:Temp:Abs-Feuchte:Windchill:Wind:
Aussen-T/F 3151 04-03-2010 15:11:02 9.2 C 1.79 g/m*3 9.2 C 0 km/h
3152 04-03-2010 15:23:01 9.3 C 1.8 g/m*3 9.3 C 0 km/h
3153 04-03-2010 15:35:02 8.2 C 1.67 g/m*3 8.2 C 0 km/h
3154 04-03-2010 15:47:02 8.9 C 1.75 g/m*3 8.9 C 0 km/h
3155 04-03-2010 15:59:02 9.2 C 1.79 g/m*3 9.2 C 0 km/h
3156 04-03-2010 16:11:02 9.4 C 1.81 g/m*3 9.4 C 0 km/h
3157 04-03-2010 16:23:01 9.3 C 1.8 g/m*3 9.3 C 0 km/h
3158 04-03-2010 16:35:02 9.1 C 1.77 g/m*3 9.1 C 0 km/h
3159 04-03-2010 16:47:01 9 C 1.76 g/m*3 9 C 0 km/h
3160 04-03-2010 16:59:01 8.5 C 1.71 g/m*3 8.5 C 0 km/h
3161 04-03-2010 17:11:02 8.3 C 1.69 g/m*3 8.3 C 0 km/h
3162 04-03-2010 17:23:02 7.7 C 1.62 g/m*3 7.7 C 0 km/h
3163 04-03-2010 17:35:01 7.3 C 1.58 g/m*3 7.3 C 0 km/h
3164 04-03-2010 17:47:02 6.9 C 1.54 g/m*3 6.9 C 0 km/h
3165 04-03-2010 17:59:02 5.7 C 1.42 g/m*3 5.7 C 0 km/h
3166 04-03-2010 18:11:01 4.9 C 1.42 g/m*3 4.9 C 0 km/h
3167 04-03-2010 18:23:02 4.3 C 1.62 g/m*3 4.3 C 0 km/h
3168 04-03-2010 18:35:01 4 C 1.78 g/m*3 4 C 0 km/h
3169 04-03-2010 18:47:02 3.5 C 1.91 g/m*3 3.5 C 0 km/h
3170 04-03-2010 18:59:02 3.2 C 1.93 g/m*3 3.2 C 0 km/h
3171 04-03-2010 19:11:02 3 C 2.08 g/m*3 3 C 0 km/h
3172 04-03-2010 19:23:02 2.6 C 2.14 g/m*3 2.6 C 0 km/h
3173 04-03-2010 19:35:02 2.2 C 2.25 g/m*3 2.2 C 0 km/h
3174 04-03-2010 19:47:01 1.9 C 2.32 g/m*3 1.9 C 0 km/h
3175 04-03-2010 19:59:01 1.6 C 2.33 g/m*3 1.6 C 0 km/h
Sensor: Nr:Datum:Temp:Abs-Feuchte:Windchill:Wind:
Aussen-T/F 3176 04-03-2010 20:11:02 1.5 C 2.36 g/m*3 1.5 C 0 km/h
3177 04-03-2010 20:23:02 1.4 C 2.35 g/m*3 1.4 C 0 km/h
3178 04-03-2010 20:35:01 1.3 C 2.38 g/m*3 1.3 C 0 km/h
3179 04-03-2010 20:47:02 1.1 C 2.35 g/m*3 1.1 C 0 km/h
3180 04-03-2010 20:59:02 1.1 C 2.51 g/m*3 1.1 C 0 km/h
3181 04-03-2010 21:11:02 1.1 C 2.51 g/m*3 1.1 C 0 km/h
3182 04-03-2010 21:23:01 1.1 C 2.51 g/m*3 1.1 C 0 km/h
3183 04-03-2010 21:35:02 0.8 C 2.56 g/m*3 0.8 C 0 km/h
3184 04-03-2010 21:47:02 0.6 C 2.58 g/m*3 0.6 C 0 km/h
3185 04-03-2010 21:59:02 0.7 C 2.59 g/m*3 0.7 C 0 km/h
3186 04-03-2010 22:11:02 0.9 C 2.68 g/m*3 0.9 C 0 km/h
3187 04-03-2010 22:24:03 0.7 C 2.64 g/m*3 0.7 C 0 km/h
3188 04-03-2010 22:36:03 0.3 C 2.57 g/m*3 0.3 C 0 km/h
3189 04-03-2010 22:48:03 0.1 C 2.63 g/m*3 0.1 C 0 km/h
3190 04-03-2010 23:00:03 0 C 2.62 g/m*3 0 C 0 km/h
3191 04-03-2010 23:12:03 -0.1 C 2.6 g/m*3 -0.1 C 0 km/h
3192 04-03-2010 23:24:03 -0.2 C 2.53 g/m*3 -0.2 C 0 km/h
3193 04-03-2010 23:36:03 -0.2 C 2.53 g/m*3 -0.2 C 0 km/h
3194 04-03-2010 23:48:03 -0.3 C 2.56 g/m*3 -0.3 C 0 km/h
3195 05-03-2010 00:00:03 -0.4 C 2.5 g/m*3 -0.4 C 0 km/h
3196 05-03-2010 00:12:03 -0.5 C 2.53 g/m*3 -0.5 C 0 km/h
3197 05-03-2010 00:24:03 -0.7 C 2.49 g/m*3 -0.7 C 0 km/h
3198 05-03-2010 00:36:03 -1 C 2.49 g/m*3 -1 C 0 km/h
3199 05-03-2010 00:48:03 -1.1 C 2.47 g/m*3 -1.1 C 0 km/h
3200 05-03-2010 01:00:03 -1.3 C 2.43 g/m*3 -1.3 C 0 km/h
Sensor: Nr:Datum:Temp:Abs-Feuchte:Windchill:Wind:
Aussen-T/F 3201 05-03-2010 01:12:03 -1.4 C 2.46 g/m*3 -1.4 C 0 km/h
3202 05-03-2010 01:24:03 -1.6 C 2.43 g/m*3 -1.6 C 0 km/h
3203 05-03-2010 01:36:04 -1.5 C 2.44 g/m*3 -1.5 C 0 km/h
3204 05-03-2010 01:48:04 -1.5 C 2.4 g/m*3 -1.5 C 0 km/h
3205 05-03-2010 02:00:04 -1.6 C 2.38 g/m*3 -1.6 C 0 km/h
3206 05-03-2010 02:12:04 -1.4 C 2.37 g/m*3 -1.4 C 0 km/h
3207 05-03-2010 02:24:04 -1.3 C 2.26 g/m*3 -1.3 C 0 km/h
3208 05-03-2010 02:36:04 -1.5 C 2.18 g/m*3 -1.5 C 0 km/h
3209 05-03-2010 02:48:04 -1.7 C 2.15 g/m*3 -1.7 C 0 km/h
3210 05-03-2010 03:00:04 -1.7 C 2.11 g/m*3 -1.7 C 0 km/h
3211 05-03-2010 03:12:04 -1.9 C 2.04 g/m*3 -1.9 C 0 km/h
3212 05-03-2010 03:24:04 -2 C 2.11 g/m*3 -2 C 0 km/h
3213 05-03-2010 03:36:04 -1.9 C 2.16 g/m*3 -1.9 C 0 km/h
3214 05-03-2010 03:48:04 -1.9 C 2.16 g/m*3 -1.9 C 0 km/h
3215 05-03-2010 04:00:04 -1.9 C 2.21 g/m*3 -1.9 C 0 km/h
3216 05-03-2010 04:12:04 -2.1 C 2.18 g/m*3 -2.1 C 0 km/h
3217 05-03-2010 04:24:04 -2.3 C 2.19 g/m*3 -2.3 C 0 km/h
3218 05-03-2010 04:36:04 -2.4 C 2.21 g/m*3 -2.4 C 0 km/h
3219 05-03-2010 04:48:04 -2.4 C 2.25 g/m*3 -2.4 C 0 km/h
3220 05-03-2010 05:00:04 -2.5 C 2.28 g/m*3 -2.5 C 0 km/h
3221 05-03-2010 05:12:04 -2.6 C 2.3 g/m*3 -2.6 C 0 km/h
3222 05-03-2010 05:24:04 -2.6 C 2.38 g/m*3 -2.6 C 0 km/h
3223 05-03-2010 05:36:04 -2.8 C 2.43 g/m*3 -2.8 C 0 km/h
3224 05-03-2010 05:48:05 -2.3 C 2.64 g/m*3 -2.3 C 0 km/h
3225 05-03-2010 06:00:05 -1.9 C 2.67 g/m*3 -1.9 C 0 km/h
Sensor: Nr:Datum:Temp:Abs-Feuchte:Windchill:Wind:
Aussen-T/F 3226 05-03-2010 06:12:05 -2 C 2.7 g/m*3 -2 C 0 km/h
3227 05-03-2010 06:24:05 -2.4 C 2.62 g/m*3 -2.4 C 0 km/h
3228 05-03-2010 06:36:05 -2.6 C 2.63 g/m*3 -2.6 C 0 km/h
3229 05-03-2010 06:48:05 -2.8 C 2.63 g/m*3 -2.8 C 0 km/h
3230 05-03-2010 07:00:05 -2.9 C 2.65 g/m*3 -2.9 C 0 km/h
3231 05-03-2010 07:12:02 -2.9 C 2.69 g/m*3 -2.9 C 0 km/h
3232 05-03-2010 07:24:03 -2.8 C 2.71 g/m*3 -2.8 C 0 km/h
3233 05-03-2010 07:36:02 -2.7 C 2.77 g/m*3 -2.7 C 0 km/h
3234 05-03-2010 07:48:02 -2.9 C 2.69 g/m*3 -2.9 C 0 km/h
3235 05-03-2010 08:00:02 -2.9 C 2.73 g/m*3 -2.9 C 0 km/h
3236 05-03-2010 08:12:02 -2.8 C 2.75 g/m*3 -2.8 C 0 km/h
3237 05-03-2010 08:24:03 -2.8 C 2.75 g/m*3 -2.8 C 0 km/h
3238 05-03-2010 08:36:02 -2.6 C 2.83 g/m*3 -2.6 C 0 km/h
3239 05-03-2010 08:48:01 -2.6 C 2.79 g/m*3 -2.6 C 0 km/h
3240 05-03-2010 09:00:01 -2.5 C 2.77 g/m*3 -2.5 C 0 km/h
3241 05-03-2010 09:12:02 -2.3 C 2.72 g/m*3 -2.3 C 0 km/h
3242 05-03-2010 09:24:01 -2 C 2.66 g/m*3 -2 C 0 km/h
3243 05-03-2010 09:36:02 -1.8 C 2.48 g/m*3 -1.8 C 0 km/h
3244 05-03-2010 09:48:02 -1.4 C 2.46 g/m*3 -1.4 C